Darstellungsparameter: Aktuell verwendete Einstellungen:
Skalierung der Graphiken ... ?
xyx+y,   Skalierungsfaktor:      Skalierung: Modus: x, Faktor: 1
Darstellungszeitraum ... ?
Vom - - bis: - -   Zeitraum: 23.11.2019 - 21.12.2019
Min/Max/Avg-Anzeige ... ?
Zeige MMA aktuell
Zeige MMA Monat
Zeige MMA alles
Zeige --A aktuell
Zeige --A Monat
Zeige --A alles
Keine MMA-Anzeige
MMA:
Average (ber die Originaldaten)
MMA-Basis: 23.11.2019 - 21.12.2019
Quicknavigation für Darstellung... ?
Tage:      1T, 2T, 3T, 5T -1T -2T -3T -5T +1T +2T +3T +5T
Wochen: 1W, 2W, 3W -1W -2W -3W +1W +2W +3W
Monate: 1M, 3M, 6M -1M -3M -6M +1M +3M +6M
Jahre:    1J, 3J, 5J, 10J -1J -3J -5J -10J +1J +3J +5J +10J
Nutze für die Darstellung ... ?
Originaldaten oder Mittelwerte auf ...
Stundenbasis Tagesbasis Wochenbasis
Monatsbasis Jahresbasis      Datenbasis: Original-Daten
Darstellen als:
Statistik (Auto) Statistik J:M      Darstellung:
Zur Graphik,    zurück zur Übersicht aller Sensoren.
 
Tabellarische Datenbersicht: ?
 
Sensor: Nr:Datum:Temp:Feuchte:
Aussen-T/F 1 23-11-2019 00:00:17 4 C 29 %
2 23-11-2019 00:10:17 4 C 29 %
3 23-11-2019 00:20:17 4 C 29 %
4 23-11-2019 00:30:17 4 C 29 %
5 23-11-2019 00:40:17 4 C 28 %
6 23-11-2019 00:50:17 4 C 29 %
7 23-11-2019 01:00:17 4.1 C 28 %
8 23-11-2019 01:10:17 4.2 C 27 %
9 23-11-2019 01:20:17 4.1 C 29 %
10 23-11-2019 01:30:17 4 C 30 %
11 23-11-2019 01:40:17 4.1 C 29 %
12 23-11-2019 01:50:17 4 C 29 %
13 23-11-2019 02:00:17 4.1 C 27 %
14 23-11-2019 02:10:17 4.1 C 27 %
15 23-11-2019 02:20:17 4 C 30 %
16 23-11-2019 02:30:18 3.8 C 32 %
17 23-11-2019 02:40:18 3.7 C 32 %
18 23-11-2019 02:50:17 3.6 C 32 %
19 23-11-2019 03:00:17 3.6 C 33 %
20 23-11-2019 03:10:17 3.7 C 32 %
21 23-11-2019 03:20:17 3.8 C 31 %
22 23-11-2019 03:30:17 3.7 C 32 %
23 23-11-2019 03:40:17 3.5 C 33 %
24 23-11-2019 03:50:17 3.2 C 34 %
25 23-11-2019 04:00:17 3.2 C 35 %
Sensor: Nr:Datum:Temp:Feuchte:
Aussen-T/F 26 23-11-2019 04:10:17 3.1 C 38 %
27 23-11-2019 04:20:17 3.3 C 36 %
28 23-11-2019 04:30:17 3 C 36 %
29 23-11-2019 04:40:17 3 C 37 %
30 23-11-2019 04:50:17 3 C 37 %
31 23-11-2019 05:00:17 3 C 38 %
32 23-11-2019 05:10:17 3 C 39 %
33 23-11-2019 05:20:17 2.7 C 39 %
34 23-11-2019 05:30:17 2.9 C 40 %
35 23-11-2019 05:40:17 2.8 C 40 %
36 23-11-2019 05:50:17 2.9 C 40 %
37 23-11-2019 06:00:17 3 C 39 %
38 23-11-2019 06:10:17 3 C 39 %
39 23-11-2019 06:20:17 3 C 39 %
40 23-11-2019 06:30:17 3 C 40 %
41 23-11-2019 06:40:17 3.1 C 40 %
42 23-11-2019 06:50:17 3 C 40 %
43 23-11-2019 07:00:17 3.2 C 40 %
44 23-11-2019 07:10:17 3.2 C 39 %
45 23-11-2019 07:20:17 3.3 C 40 %
46 23-11-2019 07:30:17 3.2 C 39 %
47 23-11-2019 07:40:17 3.3 C 40 %
48 23-11-2019 07:50:17 3.2 C 40 %
49 23-11-2019 08:00:17 3.3 C 39 %
50 23-11-2019 08:10:17 3.3 C 40 %
Sensor: Nr:Datum:Temp:Feuchte:
Aussen-T/F 51 23-11-2019 08:20:17 3.2 C 40 %
52 23-11-2019 08:30:17 3.3 C 40 %
53 23-11-2019 08:40:17 3.4 C 40 %
54 23-11-2019 08:50:17 3.8 C 37 %
55 23-11-2019 09:00:17 4.2 C 33 %
56 23-11-2019 09:10:17 4.3 C 33 %
57 23-11-2019 09:20:17 4.5 C 33 %
58 23-11-2019 09:30:17 4.9 C 31 %
59 23-11-2019 09:40:17 5.1 C 31 %
60 23-11-2019 09:50:17 5.4 C 27 %
61 23-11-2019 10:00:17 5.4 C 26 %
62 23-11-2019 10:10:17 5.7 C 26 %
63 23-11-2019 10:20:17 6 C 26 %
64 23-11-2019 10:30:17 6 C 25 %
65 23-11-2019 10:40:17 6.1 C 26 %
66 23-11-2019 10:50:17 6.2 C 25 %
67 23-11-2019 11:00:17 6.4 C 25 %
68 23-11-2019 11:10:17 6.6 C 25 %
69 23-11-2019 11:20:17 6.7 C 25 %
70 23-11-2019 11:30:17 7.1 C 21 %
71 23-11-2019 11:40:17 7.1 C 23 %
72 23-11-2019 11:50:17 7 C 25 %
73 23-11-2019 12:00:17 6.4 C 28 %
74 23-11-2019 12:10:17 6.4 C 28 %
75 23-11-2019 12:20:17 6.5 C 27 %
Sensor: Nr:Datum:Temp:Feuchte:
Aussen-T/F 76 23-11-2019 12:30:17 6.5 C 28 %
77 23-11-2019 12:40:17 6.5 C 29 %
78 23-11-2019 12:50:17 7.3 C 25 %
79 23-11-2019 13:00:17 7.3 C 25 %
80 23-11-2019 13:10:17 6.7 C 28 %
81 23-11-2019 13:20:17 6.8 C 29 %
82 23-11-2019 13:30:17 6.6 C 29 %
83 23-11-2019 13:40:17 6.6 C 30 %
84 23-11-2019 13:50:17 6.6 C 30 %
85 23-11-2019 14:00:17 6.6 C 30 %
86 23-11-2019 14:10:17 6.8 C 30 %
87 23-11-2019 14:20:17 7 C 29 %
88 23-11-2019 14:30:17 7.2 C 27 %
89 23-11-2019 14:40:17 7.1 C 28 %
90 23-11-2019 14:50:17 7.2 C 28 %
91 23-11-2019 15:00:17 7.7 C 26 %
92 23-11-2019 15:10:17 8.1 C 26 %
93 23-11-2019 15:20:17 8.4 C 23 %
94 23-11-2019 15:30:17 8.4 C 25 %
95 23-11-2019 15:40:17 8.1 C 25 %
96 23-11-2019 15:50:17 7.5 C 26 %
97 23-11-2019 16:00:17 7.5 C 26 %
98 23-11-2019 16:10:17 7.3 C 25 %
99 23-11-2019 16:20:17 7.3 C 25 %
100 23-11-2019 16:30:17 6.5 C 28 %
Sensor: Nr:Datum:Temp:Feuchte:
Aussen-T/F 101 23-11-2019 16:40:17 5.9 C 31 %
102 23-11-2019 16:50:17 5.7 C 32 %
103 23-11-2019 17:00:17 5.7 C 32 %
104 23-11-2019 17:10:17 5.8 C 31 %
105 23-11-2019 17:20:17 5.6 C 32 %
106 23-11-2019 17:30:17 5.5 C 33 %
107 23-11-2019 17:40:17 5.3 C 32 %
108 23-11-2019 17:50:17 5.3 C 33 %
109 23-11-2019 18:00:17 5.3 C 33 %
110 23-11-2019 18:10:17 5 C 34 %
111 23-11-2019 18:20:17 5.3 C 34 %
112 23-11-2019 18:30:17 5.3 C 34 %
113 23-11-2019 18:40:17 5.3 C 34 %
114 23-11-2019 18:50:17 4.9 C 36 %
115 23-11-2019 19:00:17 5.1 C 35 %
116 23-11-2019 19:10:17 5 C 36 %
117 23-11-2019 19:20:17 5 C 36 %
118 23-11-2019 19:30:17 5 C 36 %
119 23-11-2019 19:40:17 4.7 C 36 %
120 23-11-2019 19:50:17 4.7 C 38 %
121 23-11-2019 20:00:17 4.5 C 40 %
122 23-11-2019 20:10:17 4.2 C 39 %
123 23-11-2019 20:20:17 4.1 C 40 %
124 23-11-2019 20:30:17 3.6 C 40 %
125 23-11-2019 20:40:18 3.6 C 40 %
Sensor: Nr:Datum:Temp:Feuchte:
Aussen-T/F 126 23-11-2019 20:50:17 3.6 C 42 %
127 23-11-2019 21:00:17 3.6 C 42 %
128 23-11-2019 21:10:17 3.5 C 42 %
129 23-11-2019 21:20:17 3.3 C 41 %
130 23-11-2019 21:30:17 3.2 C 41 %
131 23-11-2019 21:40:17 3.2 C 42 %
132 23-11-2019 21:50:17 3.2 C 42 %
133 23-11-2019 22:00:17 3.1 C 42 %
134 23-11-2019 22:10:17 2.8 C 42 %
135 23-11-2019 22:20:17 2.6 C 42 %
136 23-11-2019 22:30:17 2.7 C 42 %
137 23-11-2019 22:40:17 2.6 C 42 %
138 23-11-2019 22:50:17 2.6 C 42 %
139 23-11-2019 23:00:17 2.5 C 42 %
140 23-11-2019 23:10:17 2.2 C 42 %
141 23-11-2019 23:20:17 2.2 C 42 %
142 23-11-2019 23:30:17 2 C 42 %
143 23-11-2019 23:40:17 2.1 C 42 %
144 23-11-2019 23:50:17 2.1 C 42 %
145 24-11-2019 00:00:17 1.9 C 43 %
146 24-11-2019 00:10:17 1.7 C 43 %
147 24-11-2019 00:20:17 1.7 C 43 %
148 24-11-2019 00:30:17 1.6 C 43 %
149 24-11-2019 00:40:17 1.4 C 42 %
150 24-11-2019 00:50:18 1.1 C 42 %
Sensor: Nr:Datum:Temp:Feuchte:
Aussen-T/F 151 24-11-2019 01:00:18 1.2 C 43 %
152 24-11-2019 01:10:18 1.4 C 43 %
153 24-11-2019 01:20:17 1.3 C 43 %
154 24-11-2019 01:30:17 1.2 C 42 %
155 24-11-2019 01:40:17 1.2 C 43 %
156 24-11-2019 01:50:17 1.1 C 43 %
157 24-11-2019 02:00:17 1.1 C 43 %
158 24-11-2019 02:10:17 1.1 C 43 %
159 24-11-2019 02:20:17 1.2 C 43 %
160 24-11-2019 02:30:17 1 C 42 %
161 24-11-2019 02:40:17 1.1 C 42 %
162 24-11-2019 02:50:17 1.1 C 42 %
163 24-11-2019 03:00:17 0.9 C 44 %
164 24-11-2019 03:10:17 1.1 C 43 %
165 24-11-2019 03:20:17 1.2 C 42 %
166 24-11-2019 03:30:17 1 C 42 %
167 24-11-2019 03:40:17 0.7 C 43 %
168 24-11-2019 03:50:17 0.6 C 43 %
169 24-11-2019 04:00:17 0.5 C 43 %
170 24-11-2019 04:10:17 0.5 C 43 %
171 24-11-2019 04:20:17 0.6 C 43 %
172 24-11-2019 04:30:17 0.5 C 43 %
173 24-11-2019 04:40:17 0.5 C 43 %
174 24-11-2019 04:50:17 0.6 C 44 %
175 24-11-2019 05:00:17 0.6 C 44 %
Sensor: Nr:Datum:Temp:Feuchte:
Aussen-T/F 176 24-11-2019 05:10:17 0.8 C 44 %
177 24-11-2019 05:20:17 1 C 42 %
178 24-11-2019 05:30:17 1.1 C 42 %
179 24-11-2019 05:40:17 1 C 42 %
180 24-11-2019 05:50:17 0.6 C 43 %
181 24-11-2019 06:00:18 0.4 C 43 %
182 24-11-2019 06:10:18 0.5 C 43 %
183 24-11-2019 06:20:17 0.5 C 43 %
184 24-11-2019 06:30:17 0.5 C 43 %
185 24-11-2019 06:40:17 0.5 C 43 %
186 24-11-2019 06:50:17 0.3 C 43 %
187 24-11-2019 07:00:18 0.4 C 43 %
188 24-11-2019 07:10:18 0.1 C 43 %
189 24-11-2019 07:20:18 0.1 C 43 %
190 24-11-2019 07:30:17 0.1 C 43 %
191 24-11-2019 07:40:17 -0.3 C 43 %
192 24-11-2019 07:50:18 -0.3 C 43 %
193 24-11-2019 08:00:18 -0.1 C 43 %
194 24-11-2019 08:10:18 0.1 C 43 %
195 24-11-2019 08:20:17 -0.1 C 43 %
196 24-11-2019 08:30:17 0.3 C 43 %
197 24-11-2019 08:40:17 0.5 C 43 %
198 24-11-2019 08:50:17 0.5 C 43 %
199 24-11-2019 09:00:17 0.6 C 43 %
200 24-11-2019 09:10:17 0.7 C 43 %
Sensor: Nr:Datum:Temp:Feuchte:
Aussen-T/F 201 24-11-2019 09:20:17 0.8 C 43 %
202 24-11-2019 09:30:17 0.8 C 43 %
203 24-11-2019 09:40:17 1 C 42 %
204 24-11-2019 09:50:17 1.1 C 42 %
205 24-11-2019 10:00:17 1.2 C 42 %
206 24-11-2019 10:10:17 1.5 C 42 %
207 24-11-2019 10:20:17 1.7 C 42 %
208 24-11-2019 10:30:17 2 C 42 %
209 24-11-2019 10:40:17 2.2 C 41 %
210 24-11-2019 10:50:17 2.7 C 42 %
211 24-11-2019 11:00:17 2.5 C 41 %
212 24-11-2019 11:10:17 2.1 C 40 %
213 24-11-2019 11:20:17 2.2 C 40 %
214 24-11-2019 11:30:17 2.2 C 40 %
215 24-11-2019 11:40:17 2.3 C 40 %
216 24-11-2019 11:50:17 2.5 C 40 %
217 24-11-2019 12:00:17 2.7 C 41 %
218 24-11-2019 12:10:17 3 C 40 %
219 24-11-2019 12:20:17 3.4 C 40 %
220 24-11-2019 12:30:17 3.8 C 40 %
221 24-11-2019 12:40:17 4 C 38 %
222 24-11-2019 12:50:17 4.2 C 38 %
223 24-11-2019 13:00:17 4.6 C 38 %
224 24-11-2019 13:10:17 5.1 C 35 %
225 24-11-2019 13:20:17 5 C 35 %
Sensor: Nr:Datum:Temp:Feuchte:
Aussen-T/F 226 24-11-2019 13:30:17 5 C 35 %
227 24-11-2019 13:40:17 4.7 C 35 %
228 24-11-2019 13:50:17 4.8 C 35 %
229 24-11-2019 14:00:17 5.1 C 35 %
230 24-11-2019 14:10:17 5.1 C 35 %
231 24-11-2019 14:20:17 5 C 35 %
232 24-11-2019 14:30:17 4.8 C 37 %
233 24-11-2019 14:40:17 4.6 C 37 %
234 24-11-2019 14:50:17 4.6 C 39 %
235 24-11-2019 15:00:17 4.5 C 38 %
236 24-11-2019 15:10:17 4.7 C 40 %
237 24-11-2019 15:20:17 4.9 C 39 %
238 24-11-2019 15:30:17 4.8 C 38 %
239 24-11-2019 15:40:17 4.7 C 38 %
240 24-11-2019 15:50:17 4.6 C 38 %
241 24-11-2019 16:00:17 4.5 C 40 %
242 24-11-2019 16:10:17 4.2 C 39 %
243 24-11-2019 16:20:17 3.9 C 40 %
244 24-11-2019 16:30:17 3.7 C 41 %
245 24-11-2019 16:40:17 3.5 C 41 %
246 24-11-2019 16:50:17 3.2 C 41 %
247 24-11-2019 17:00:17 3 C 41 %
248 24-11-2019 17:10:17 2.8 C 42 %
249 24-11-2019 17:20:17 2.7 C 42 %
250 24-11-2019 17:30:17 2.6 C 42 %
Sensor: Nr:Datum:Temp:Feuchte:
Aussen-T/F 251 24-11-2019 17:40:17 2.4 C 42 %
252 24-11-2019 17:50:17 2.6 C 43 %
253 24-11-2019 18:00:17 2.5 C 42 %
254 24-11-2019 18:10:17 2.8 C 43 %
255 24-11-2019 18:20:17 2.6 C 42 %
256 24-11-2019 18:30:17 2.9 C 43 %
257 24-11-2019 18:40:17 2.6 C 42 %
258 24-11-2019 18:50:17 2.7 C 42 %
259 24-11-2019 19:00:17 2.5 C 42 %
260 24-11-2019 19:10:17 2.6 C 42 %
261 24-11-2019 19:20:17 2.6 C 42 %
262 24-11-2019 19:30:17 2.8 C 42 %
263 24-11-2019 19:40:17 2.7 C 42 %
264 24-11-2019 19:50:17 2.7 C 42 %
265 24-11-2019 20:00:17 2.5 C 42 %
266 24-11-2019 20:10:17 2.4 C 42 %
267 24-11-2019 20:20:17 2.1 C 41 %
268 24-11-2019 20:30:17 2 C 41 %
269 24-11-2019 20:40:17 2 C 41 %
270 24-11-2019 20:50:17 2 C 42 %
271 24-11-2019 21:00:17 1.8 C 42 %
272 24-11-2019 21:10:17 2.2 C 42 %
273 24-11-2019 21:20:17 2 C 42 %
274 24-11-2019 21:30:17 2 C 42 %
275 24-11-2019 21:40:17 1.8 C 43 %
Sensor: Nr:Datum:Temp:Feuchte:
Aussen-T/F 276 24-11-2019 21:50:17 1.8 C 43 %
277 24-11-2019 22:00:17 1.7 C 42 %
278 24-11-2019 22:10:17 1.3 C 42 %
279 24-11-2019 22:20:17 1.2 C 42 %
280 24-11-2019 22:30:17 1.2 C 42 %
281 24-11-2019 22:40:17 1 C 42 %
282 24-11-2019 22:50:17 1 C 42 %
283 24-11-2019 23:00:17 1.2 C 42 %
284 24-11-2019 23:10:17 1 C 42 %
285 24-11-2019 23:20:17 1 C 42 %
286 24-11-2019 23:30:17 0.8 C 43 %
287 24-11-2019 23:40:17 0.8 C 43 %
288 24-11-2019 23:50:17 0.9 C 43 %
289 25-11-2019 00:00:18 0.8 C 43 %
290 25-11-2019 00:10:18 0.9 C 43 %
291 25-11-2019 00:20:17 1.2 C 42 %
292 25-11-2019 00:30:17 1.4 C 42 %
293 25-11-2019 00:40:17 1.5 C 42 %
294 25-11-2019 00:50:18 1.5 C 42 %
295 25-11-2019 01:00:18 1.5 C 42 %
296 25-11-2019 01:10:18 1.5 C 42 %
297 25-11-2019 01:20:17 1.6 C 42 %
298 25-11-2019 01:30:17 1.5 C 42 %
299 25-11-2019 01:40:17 1.4 C 42 %
300 25-11-2019 01:50:17 1.3 C 42 %
Sensor: Nr:Datum:Temp:Feuchte:
Aussen-T/F 301 25-11-2019 02:00:17 1.3 C 42 %
302 25-11-2019 02:10:17 1.3 C 42 %
303 25-11-2019 02:20:17 1.2 C 42 %
304 25-11-2019 02:30:17 1.3 C 42 %
305 25-11-2019 02:40:17 1.4 C 42 %
306 25-11-2019 02:50:17 1.5 C 42 %
307 25-11-2019 03:00:17 1.6 C 42 %
308 25-11-2019 03:10:17 1.5 C 42 %
309 25-11-2019 03:20:17 1.5 C 42 %
310 25-11-2019 03:30:17 1.5 C 42 %
311 25-11-2019 03:40:17 1.6 C 42 %
312 25-11-2019 03:50:17 1.7 C 42 %
313 25-11-2019 04:00:17 1.8 C 42 %
314 25-11-2019 04:10:17 1.8 C 42 %
315 25-11-2019 04:20:17 1.9 C 42 %
316 25-11-2019 04:30:17 2 C 41 %
317 25-11-2019 04:40:17 2.1 C 41 %
318 25-11-2019 04:50:17 2.1 C 41 %
319 25-11-2019 05:00:17 2.2 C 41 %
320 25-11-2019 05:10:17 2.1 C 41 %
321 25-11-2019 05:20:17 2.2 C 41 %
322 25-11-2019 05:30:17 2.4 C 41 %
323 25-11-2019 05:40:17 2.4 C 41 %
324 25-11-2019 05:50:17 2.5 C 41 %
325 25-11-2019 06:00:17 2.5 C 41 %
Sensor: Nr:Datum:Temp:Feuchte:
Aussen-T/F 326 25-11-2019 06:10:17 2.5 C 41 %
327 25-11-2019 06:20:17 2.5 C 41 %
328 25-11-2019 06:30:17 2.6 C 41 %
329 25-11-2019 06:40:17 2.6 C 41 %
330 25-11-2019 06:50:17 2.8 C 41 %
331 25-11-2019 07:00:17 2.8 C 41 %
332 25-11-2019 07:10:17 2.8 C 41 %
333 25-11-2019 07:20:17 2.8 C 41 %
334 25-11-2019 07:30:17 2.8 C 41 %
335 25-11-2019 07:40:17 2.8 C 41 %
336 25-11-2019 07:50:17 2.8 C 41 %
337 25-11-2019 08:00:17 2.9 C 41 %
338 25-11-2019 08:10:17 3 C 41 %
339 25-11-2019 08:20:17 3.1 C 41 %
340 25-11-2019 08:30:18 3.2 C 41 %
341 25-11-2019 08:40:18 3.3 C 42 %
342 25-11-2019 08:50:17 3.4 C 42 %
343 25-11-2019 09:00:17 3.6 C 43 %
344 25-11-2019 09:10:17 3.6 C 43 %
345 25-11-2019 09:20:17 3.7 C 43 %
346 25-11-2019 09:30:17 3.6 C 43 %
347 25-11-2019 09:40:17 3.8 C 43 %
348 25-11-2019 09:50:17 3.8 C 42 %
349 25-11-2019 10:00:17 4.1 C 42 %
350 25-11-2019 10:10:17 4.5 C 43 %
Sensor: Nr:Datum:Temp:Feuchte:
Aussen-T/F 351 25-11-2019 10:20:17 4.5 C 43 %
352 25-11-2019 10:30:17 5.1 C 40 %
353 25-11-2019 10:40:17 5.1 C 38 %
354 25-11-2019 10:50:17 5.1 C 37 %
355 25-11-2019 11:00:17 5.1 C 37 %
356 25-11-2019 11:10:17 5.2 C 37 %
357 25-11-2019 11:20:17 5.3 C 37 %
358 25-11-2019 11:30:17 5.4 C 37 %
359 25-11-2019 11:40:17 5.8 C 37 %
360 25-11-2019 11:50:17 6.3 C 36 %
361 25-11-2019 12:00:17 6.1 C 33 %
362 25-11-2019 12:10:17 6.4 C 33 %
363 25-11-2019 12:20:17 6.3 C 33 %
364 25-11-2019 12:30:17 6.3 C 32 %
365 25-11-2019 12:40:17 6.6 C 32 %
366 25-11-2019 12:50:17 6.6 C 32 %
367 25-11-2019 13:00:17 6.7 C 31 %
368 25-11-2019 13:10:17 6.8 C 33 %
369 25-11-2019 13:20:17 7 C 32 %
370 25-11-2019 13:30:17 7 C 32 %
371 25-11-2019 13:40:17 7 C 33 %
372 25-11-2019 13:50:17 6.9 C 32 %
373 25-11-2019 14:00:17 6.9 C 33 %
374 25-11-2019 14:10:17 6.8 C 31 %
375 25-11-2019 14:20:17 6.8 C 35 %
Sensor: Nr:Datum:Temp:Feuchte:
Aussen-T/F 376 25-11-2019 14:30:17 6.8 C 36 %
377 25-11-2019 14:40:17 6.9 C 36 %
378 25-11-2019 14:50:17 6.8 C 35 %
379 25-11-2019 15:00:17 6.7 C 35 %
380 25-11-2019 15:10:17 6.7 C 35 %
381 25-11-2019 15:20:17 6.7 C 34 %
382 25-11-2019 15:30:17 6.7 C 35 %
383 25-11-2019 15:40:17 6.6 C 33 %
384 25-11-2019 15:50:17 6.5 C 34 %
385 25-11-2019 16:00:17 6.5 C 35 %
386 25-11-2019 16:10:17 6.4 C 36 %
387 25-11-2019 16:20:17 6.3 C 36 %
388 25-11-2019 16:30:17 6.2 C 37 %
389 25-11-2019 16:40:17 6.1 C 38 %
390 25-11-2019 16:50:17 6.1 C 38 %
391 25-11-2019 17:00:17 6 C 38 %
392 25-11-2019 17:10:17 6 C 38 %
393 25-11-2019 17:20:17 5.9 C 38 %
394 25-11-2019 17:30:17 5.9 C 39 %
395 25-11-2019 17:40:17 5.8 C 39 %
396 25-11-2019 17:50:17 5.9 C 39 %
397 25-11-2019 18:00:18 5.9 C 39 %
398 25-11-2019 18:10:18 5.9 C 40 %
399 25-11-2019 18:20:17 5.9 C 39 %
400 25-11-2019 18:30:17 5.9 C 40 %
Sensor: Nr:Datum:Temp:Feuchte:
Aussen-T/F 401 25-11-2019 18:40:17 5.9 C 40 %
402 25-11-2019 18:50:17 5.8 C 40 %
403 25-11-2019 19:00:17 5.8 C 39 %
404 25-11-2019 19:10:17 5.4 C 38 %
405 25-11-2019 19:20:17 5 C 38 %
406 25-11-2019 19:30:17 5.1 C 40 %
407 25-11-2019 19:40:17 5 C 40 %
408 25-11-2019 19:50:17 5.2 C 40 %
409 25-11-2019 20:00:17 5.1 C 41 %
410 25-11-2019 20:10:17 5.3 C 41 %
411 25-11-2019 20:20:17 5.4 C 41 %
412 25-11-2019 20:30:17 5.4 C 41 %
413 25-11-2019 20:40:17 5.2 C 40 %
414 25-11-2019 20:50:17 5.1 C 40 %
415 25-11-2019 21:00:17 5.3 C 40 %
416 25-11-2019 21:10:17 5.1 C 39 %
417 25-11-2019 21:20:17 5.1 C 39 %
418 25-11-2019 21:30:17 5.2 C 40 %
419 25-11-2019 21:40:17 5 C 40 %
420 25-11-2019 21:50:17 4.7 C 40 %
421 25-11-2019 22:00:17 4.7 C 40 %
422 25-11-2019 22:10:17 4.3 C 40 %
423 25-11-2019 22:20:17 4.1 C 40 %
424 25-11-2019 22:30:17 3.9 C 41 %
425 25-11-2019 22:40:17 4.1 C 41 %
Sensor: Nr:Datum:Temp:Feuchte:
Aussen-T/F 426 25-11-2019 22:50:17 3.8 C 42 %
427 25-11-2019 23:00:17 3.5 C 42 %
428 25-11-2019 23:10:17 3.3 C 42 %
429 25-11-2019 23:20:17 3.1 C 42 %
430 25-11-2019 23:30:17 2.7 C 42 %
431 25-11-2019 23:40:17 3 C 42 %
432 25-11-2019 23:50:17 2.8 C 43 %
433 26-11-2019 00:00:17 2.3 C 42 %
434 26-11-2019 00:10:17 2.3 C 42 %
435 26-11-2019 00:20:17 2.5 C 42 %
436 26-11-2019 00:30:17 2.4 C 42 %
437 26-11-2019 00:40:17 2.5 C 43 %
438 26-11-2019 00:50:17 3.1 C 42 %
439 26-11-2019 01:00:17 3.3 C 42 %
440 26-11-2019 01:10:17 3.4 C 42 %
441 26-11-2019 01:20:17 3.4 C 42 %
442 26-11-2019 01:30:17 3.4 C 42 %
443 26-11-2019 01:40:17 3.5 C 42 %
444 26-11-2019 01:50:17 3.6 C 42 %
445 26-11-2019 02:00:17 3.8 C 42 %
446 26-11-2019 02:10:17 3.8 C 42 %
447 26-11-2019 02:20:17 3.8 C 41 %
448 26-11-2019 02:30:17 3.8 C 41 %
449 26-11-2019 02:40:17 3.9 C 41 %
450 26-11-2019 02:50:17 4.3 C 41 %
Sensor: Nr:Datum:Temp:Feuchte:
Aussen-T/F 451 26-11-2019 03:00:17 4.5 C 41 %
452 26-11-2019 03:10:17 4.5 C 41 %
453 26-11-2019 03:20:17 4.5 C 41 %
454 26-11-2019 03:30:17 4.1 C 40 %
455 26-11-2019 03:40:17 4.4 C 40 %
456 26-11-2019 03:50:17 4.6 C 41 %
457 26-11-2019 04:00:17 4.8 C 41 %
458 26-11-2019 04:10:17 5.1 C 40 %
459 26-11-2019 04:20:17 5.2 C 40 %
460 26-11-2019 04:30:18 5.2 C 40 %
461 26-11-2019 04:40:18 5.4 C 40 %
462 26-11-2019 04:50:17 5.6 C 40 %
463 26-11-2019 05:00:18 5.7 C 40 %
464 26-11-2019 05:10:18 5.7 C 40 %
465 26-11-2019 05:20:17 5.8 C 40 %
466 26-11-2019 05:30:17 5.8 C 40 %
467 26-11-2019 05:40:17 5.8 C 40 %
468 26-11-2019 05:50:17 5.9 C 40 %
469 26-11-2019 06:00:17 5.9 C 40 %
470 26-11-2019 06:10:17 5.9 C 40 %
471 26-11-2019 06:20:17 6 C 39 %
472 26-11-2019 06:30:17 6.2 C 40 %
473 26-11-2019 06:40:17 6.2 C 39 %
474 26-11-2019 06:50:17 6.2 C 39 %
475 26-11-2019 07:00:17 6.5 C 40 %
Sensor: Nr:Datum:Temp:Feuchte:
Aussen-T/F 476 26-11-2019 07:10:17 6.5 C 40 %
477 26-11-2019 07:20:17 6.6 C 39 %
478 26-11-2019 07:30:17 6.6 C 39 %
479 26-11-2019 07:40:17 6.6 C 39 %
480 26-11-2019 07:50:17 6.7 C 39 %
481 26-11-2019 08:00:17 6.8 C 39 %
482 26-11-2019 08:10:17 6.9 C 39 %
483 26-11-2019 08:20:17 6.8 C 38 %
484 26-11-2019 08:30:17 6.8 C 38 %
485 26-11-2019 08:40:17 6.7 C 38 %
486 26-11-2019 08:50:17 6.8 C 38 %
487 26-11-2019 09:00:17 7 C 37 %
488 26-11-2019 09:10:17 7.4 C 38 %
489 26-11-2019 09:20:17 7.6 C 37 %
490 26-11-2019 09:30:17 7.9 C 36 %
491 26-11-2019 09:40:17 8.3 C 33 %
492 26-11-2019 09:50:17 8.5 C 31 %
493 26-11-2019 10:00:17 8.8 C 32 %
494 26-11-2019 10:10:17 9.1 C 32 %
495 26-11-2019 10:20:17 9.4 C 32 %
496 26-11-2019 10:30:17 9.6 C 32 %
497 26-11-2019 10:40:17 9.7 C 31 %
498 26-11-2019 10:50:17 9.9 C 31 %
499 26-11-2019 11:00:17 10.3 C 29 %
500 26-11-2019 11:10:17 10.5 C 29 %
Sensor: Nr:Datum:Temp:Feuchte:
Aussen-T/F 501 26-11-2019 11:20:17 10.6 C 26 %
502 26-11-2019 11:30:17 10.7 C 26 %
503 26-11-2019 11:40:17 10.6 C 26 %
504 26-11-2019 11:50:17 10.5 C 26 %
505 26-11-2019 12:00:17 10.6 C 27 %
506 26-11-2019 12:10:17 10.6 C 28 %
507 26-11-2019 12:20:17 10.4 C 26 %
508 26-11-2019 12:30:17 10.4 C 27 %
509 26-11-2019 12:40:17 10.8 C 27 %
510 26-11-2019 12:50:17 10.7 C 26 %
511 26-11-2019 13:00:17 10.8 C 27 %
512 26-11-2019 13:10:17 10.8 C 27 %
513 26-11-2019 13:20:17 11 C 26 %
514 26-11-2019 13:30:17 10.8 C 26 %
515 26-11-2019 13:40:17 10.6 C 26 %
516 26-11-2019 13:50:17 10.5 C 27 %
517 26-11-2019 14:00:17 10.2 C 30 %
518 26-11-2019 14:10:17 10.2 C 30 %
519 26-11-2019 14:20:17 10.5 C 30 %
520 26-11-2019 14:30:17 10.2 C 28 %
521 26-11-2019 14:40:17 10.6 C 28 %
522 26-11-2019 14:50:17 10.6 C 28 %
523 26-11-2019 15:00:17 10.7 C 27 %
524 26-11-2019 15:10:17 10.9 C 26 %
525 26-11-2019 15:20:17 11.1 C 26 %
Sensor: Nr:Datum:Temp:Feuchte:
Aussen-T/F 526 26-11-2019 15:30:17 11.1 C 26 %
527 26-11-2019 15:40:17 10.6 C 27 %
528 26-11-2019 15:50:17 10.5 C 28 %
529 26-11-2019 16:00:17 10.1 C 30 %
530 26-11-2019 16:10:17 10 C 30 %
531 26-11-2019 16:20:17 9.9 C 31 %
532 26-11-2019 16:30:17 10 C 30 %
533 26-11-2019 16:40:17 10 C 29 %
534 26-11-2019 16:50:17 9.7 C 30 %
535 26-11-2019 17:00:17 9.6 C 30 %
536 26-11-2019 17:10:17 9.4 C 31 %
537 26-11-2019 17:20:17 9.3 C 31 %
538 26-11-2019 17:30:17 9.2 C 31 %
539 26-11-2019 17:40:17 9.1 C 31 %
540 26-11-2019 17:50:17 8.9 C 32 %
541 26-11-2019 18:00:17 8.8 C 34 %
542 26-11-2019 18:10:17 8.9 C 36 %
543 26-11-2019 18:20:17 8.9 C 37 %
544 26-11-2019 18:30:17 9 C 35 %
545 26-11-2019 18:40:17 8.9 C 35 %
546 26-11-2019 18:50:17 9.1 C 34 %
547 26-11-2019 19:00:17 9.7 C 31 %
548 26-11-2019 19:10:17 9.5 C 31 %
549 26-11-2019 19:20:17 9.6 C 30 %
550 26-11-2019 19:30:17 9.6 C 30 %
Sensor: Nr:Datum:Temp:Feuchte:
Aussen-T/F 551 26-11-2019 19:40:17 9.7 C 30 %
552 26-11-2019 19:50:17 9.5 C 30 %
553 26-11-2019 20:00:17 9.5 C 30 %
554 26-11-2019 20:10:17 9.2 C 31 %
555 26-11-2019 20:20:17 8.9 C 32 %
556 26-11-2019 20:30:17 8.4 C 35 %
557 26-11-2019 20:40:17 8.2 C 35 %
558 26-11-2019 20:50:17 8 C 37 %
559 26-11-2019 21:00:17 7.9 C 38 %
560 26-11-2019 21:10:17 8.3 C 39 %
561 26-11-2019 21:20:17 8.5 C 37 %
562 26-11-2019 21:30:17 8.7 C 36 %
563 26-11-2019 21:40:17 8.8 C 35 %
564 26-11-2019 21:50:17 8.8 C 35 %
565 26-11-2019 22:00:17 8.9 C 35 %
566 26-11-2019 22:10:17 8.8 C 34 %
567 26-11-2019 22:20:17 8.6 C 34 %
568 26-11-2019 22:30:17 8.4 C 35 %
569 26-11-2019 22:40:17 8.1 C 35 %
570 26-11-2019 22:50:17 7.8 C 36 %
571 26-11-2019 23:00:17 7.9 C 39 %
572 26-11-2019 23:10:17 7.9 C 39 %
573 26-11-2019 23:20:17 8 C 38 %
574 26-11-2019 23:30:17 7.8 C 38 %
575 26-11-2019 23:40:17 7.7 C 38 %
Sensor: Nr:Datum:Temp:Feuchte:
Aussen-T/F 576 26-11-2019 23:50:17 7.8 C 39 %
577 27-11-2019 00:00:17 7.6 C 39 %
578 27-11-2019 00:10:17 7.5 C 39 %
579 27-11-2019 00:20:17 7.6 C 40 %
580 27-11-2019 00:30:17 7.6 C 39 %
581 27-11-2019 00:40:17 7.9 C 40 %
582 27-11-2019 00:50:17 7.7 C 39 %
583 27-11-2019 01:00:17 7.4 C 39 %
584 27-11-2019 01:10:17 7.6 C 40 %
585 27-11-2019 01:20:17 7.6 C 40 %
586 27-11-2019 01:30:17 7.8 C 40 %
587 27-11-2019 01:40:17 7.8 C 40 %
588 27-11-2019 01:50:17 8 C 39 %
589 27-11-2019 02:00:17 8.1 C 39 %
590 27-11-2019 02:10:17 8.1 C 38 %
591 27-11-2019 02:20:17 8.1 C 38 %
592 27-11-2019 02:30:17 8 C 39 %
593 27-11-2019 02:40:17 7.8 C 40 %
594 27-11-2019 02:50:17 7.7 C 40 %
595 27-11-2019 03:00:17 7.8 C 40 %
596 27-11-2019 03:10:17 7.6 C 41 %
597 27-11-2019 03:20:17 7.5 C 40 %
598 27-11-2019 03:30:17 7.2 C 40 %
599 27-11-2019 03:40:17 7.1 C 40 %
600 27-11-2019 03:50:17 7 C 40 %
Sensor: Nr:Datum:Temp:Feuchte:
Aussen-T/F 601 27-11-2019 04:00:17 7.1 C 40 %
602 27-11-2019 04:10:17 7.3 C 40 %
603 27-11-2019 04:20:17 7.5 C 40 %
604 27-11-2019 04:30:17 7.6 C 40 %
605 27-11-2019 04:40:17 7.6 C 40 %
606 27-11-2019 04:50:17 7.4 C 39 %
607 27-11-2019 05:00:17 7.1 C 38 %
608 27-11-2019 05:10:17 7.4 C 39 %
609 27-11-2019 05:20:17 7.8 C 37 %
610 27-11-2019 05:30:17 7.7 C 37 %
611 27-11-2019 05:40:17 8 C 35 %
612 27-11-2019 05:50:17 8 C 35 %
613 27-11-2019 06:00:18 8 C 34 %
614 27-11-2019 06:10:18 7.8 C 35 %
615 27-11-2019 06:20:17 7.8 C 36 %
616 27-11-2019 06:30:17 7.6 C 37 %
617 27-11-2019 06:40:17 7.7 C 39 %
618 27-11-2019 06:50:17 7.6 C 39 %
619 27-11-2019 07:00:17 7.8 C 37 %
620 27-11-2019 07:10:17 7.8 C 35 %
621 27-11-2019 07:20:17 7.9 C 35 %
622 27-11-2019 07:30:17 8.1 C 34 %
623 27-11-2019 07:40:17 8 C 32 %
624 27-11-2019 07:50:17 8 C 34 %
625 27-11-2019 08:00:17 8.2 C 33 %
Sensor: Nr:Datum:Temp:Feuchte:
Aussen-T/F 626 27-11-2019 08:10:17 8.2 C 33 %
627 27-11-2019 08:20:17 8.3 C 34 %
628 27-11-2019 08:30:17 8.4 C 33 %
629 27-11-2019 08:40:17 8.4 C 33 %
630 27-11-2019 08:50:17 8.4 C 35 %
631 27-11-2019 09:00:17 8.6 C 35 %
632 27-11-2019 09:10:17 8.6 C 36 %
633 27-11-2019 09:20:17 8.8 C 36 %
634 27-11-2019 09:30:17 9.1 C 33 %
635 27-11-2019 09:40:17 9 C 34 %
636 27-11-2019 09:50:17 9 C 34 %
637 27-11-2019 10:00:17 9.1 C 35 %
638 27-11-2019 10:10:17 9.2 C 35 %
639 27-11-2019 10:20:17 9.3 C 35 %
640 27-11-2019 10:30:17 9.7 C 31 %
641 27-11-2019 10:40:17 10 C 29 %
642 27-11-2019 10:50:17 10.4 C 27 %
643 27-11-2019 11:00:17 11 C 25 %
644 27-11-2019 11:10:17 11.3 C 24 %
645 27-11-2019 11:20:17 11.6 C 22 %
646 27-11-2019 11:30:17 11.7 C 22 %
647 27-11-2019 11:40:17 12.1 C 20 %
648 27-11-2019 11:50:17 12.4 C 20 %
649 27-11-2019 12:00:17 12.7 C 20 %
650 27-11-2019 12:10:17 12.7 C 20 %
Sensor: Nr:Datum:Temp:Feuchte:
Aussen-T/F 651 27-11-2019 12:20:18 12.7 C 20 %
652 27-11-2019 12:30:17 12.7 C 20 %
653 27-11-2019 12:40:17 12.8 C 20 %
654 27-11-2019 12:50:17 12.8 C 20 %
655 27-11-2019 13:00:17 12.7 C 20 %
656 27-11-2019 13:10:17 12.8 C 20 %
657 27-11-2019 13:20:17 12.8 C 20 %
658 27-11-2019 13:30:17 12.6 C 20 %
659 27-11-2019 13:40:17 12.7 C 20 %
660 27-11-2019 13:50:17 12.9 C 20 %
661 27-11-2019 14:00:17 13.1 C 20 %
662 27-11-2019 14:10:17 13 C 20 %
663 27-11-2019 14:20:17 12.9 C 20 %
664 27-11-2019 14:30:17 12.9 C 20 %
665 27-11-2019 14:40:17 12.9 C 20 %
666 27-11-2019 14:50:17 12.9 C 20 %
667 27-11-2019 15:00:17 12.7 C 20 %
668 27-11-2019 15:10:17 12.8 C 20 %
669 27-11-2019 15:20:17 12.8 C 20 %
670 27-11-2019 15:30:17 12.8 C 20 %
671 27-11-2019 15:40:17 12.5 C 20 %
672 27-11-2019 15:50:17 12.2 C 20 %
673 27-11-2019 16:00:17 11.5 C 20 %
674 27-11-2019 16:10:17 11.1 C 20 %
675 27-11-2019 16:20:17 10.8 C 25 %
Sensor: Nr:Datum:Temp:Feuchte:
Aussen-T/F 676 27-11-2019 16:30:17 10.3 C 26 %
677 27-11-2019 16:40:17 9.9 C 29 %
678 27-11-2019 16:50:18 9.7 C 30 %
679 27-11-2019 17:00:17 9.5 C 31 %
680 27-11-2019 17:10:17 9.8 C 31 %
681 27-11-2019 17:20:17 9.8 C 31 %
682 27-11-2019 17:30:17 9.8 C 31 %
683 27-11-2019 17:40:17 9.7 C 33 %
684 27-11-2019 17:50:17 9.6 C 33 %
685 27-11-2019 18:00:17 9.7 C 32 %
686 27-11-2019 18:10:17 9.7 C 32 %
687 27-11-2019 18:20:17 9.9 C 31 %
688 27-11-2019 18:30:17 9.9 C 31 %
689 27-11-2019 18:40:17 9.8 C 32 %
690 27-11-2019 18:50:17 9.7 C 34 %
691 27-11-2019 19:00:17 9.7 C 36 %
692 27-11-2019 19:10:17 9.8 C 34 %
693 27-11-2019 19:20:17 9.7 C 33 %
694 27-11-2019 19:30:17 10 C 31 %
695 27-11-2019 19:40:17 10 C 31 %
696 27-11-2019 19:50:17 10.4 C 28 %
697 27-11-2019 20:00:17 10.8 C 26 %
698 27-11-2019 20:10:17 10.9 C 26 %
699 27-11-2019 20:20:17 11 C 25 %
700 27-11-2019 20:30:17 10.6 C 26 %
Sensor: Nr:Datum:Temp:Feuchte:
Aussen-T/F 701 27-11-2019 20:40:17 9.9 C 30 %
702 27-11-2019 20:50:17 9.7 C 31 %
703 27-11-2019 21:00:17 9.8 C 33 %
704 27-11-2019 21:10:17 9.8 C 32 %
705 27-11-2019 21:20:17 9.6 C 33 %
706 27-11-2019 21:30:17 9.8 C 32 %
707 27-11-2019 21:40:17 10.1 C 31 %
708 27-11-2019 21:50:17 10.2 C 29 %
709 27-11-2019 22:00:17 10.3 C 28 %
710 27-11-2019 22:10:17 10.6 C 27 %
711 27-11-2019 22:20:17 10.9 C 26 %
712 27-11-2019 22:30:17 10.9 C 26 %
713 27-11-2019 22:40:17 10.8 C 25 %
714 27-11-2019 22:50:17 10.7 C 25 %
715 27-11-2019 23:00:17 11.1 C 24 %
716 27-11-2019 23:10:17 11.3 C 23 %
717 27-11-2019 23:20:17 11.1 C 23 %
718 27-11-2019 23:30:17 11.5 C 21 %
719 27-11-2019 23:40:18 11.5 C 21 %
720 27-11-2019 23:50:17 11.2 C 21 %
721 28-11-2019 00:00:18 11.2 C 21 %
722 28-11-2019 00:10:18 11.3 C 20 %
723 28-11-2019 00:20:17 11.2 C 20 %
724 28-11-2019 00:30:17 11.2 C 20 %
725 28-11-2019 00:40:17 11.5 C 20 %
Sensor: Nr:Datum:Temp:Feuchte:
Aussen-T/F 726 28-11-2019 00:50:17 11.3 C 20 %
727 28-11-2019 01:00:17 11.4 C 20 %
728 28-11-2019 01:10:17 11.4 C 20 %
729 28-11-2019 01:20:17 11.4 C 20 %
730 28-11-2019 01:30:17 11.4 C 20 %
731 28-11-2019 01:40:17 11.1 C 20 %
732 28-11-2019 01:50:17 11.1 C 20 %
733 28-11-2019 02:00:18 10.8 C 20 %
734 28-11-2019 02:10:18 10.5 C 20 %
735 28-11-2019 02:20:17 10.7 C 20 %
736 28-11-2019 02:30:17 11 C 20 %
737 28-11-2019 02:40:17 10.5 C 21 %
738 28-11-2019 02:50:17 10.8 C 20 %
739 28-11-2019 03:00:17 10.9 C 20 %
740 28-11-2019 03:10:17 10.3 C 20 %
741 28-11-2019 03:20:18 10.8 C 20 %
742 28-11-2019 03:30:18 10.6 C 20 %
743 28-11-2019 03:40:18 10.9 C 20 %
744 28-11-2019 03:50:18 10.9 C 20 %
745 28-11-2019 04:00:18 10.7 C 20 %
746 28-11-2019 04:10:18 10.6 C 20 %
747 28-11-2019 04:20:17 10.6 C 20 %
748 28-11-2019 04:30:17 10.6 C 20 %
749 28-11-2019 04:40:17 10.5 C 20 %
750 28-11-2019 04:50:17 10.3 C 20 %
Sensor: Nr:Datum:Temp:Feuchte:
Aussen-T/F 751 28-11-2019 05:00:17 10.5 C 20 %
752 28-11-2019 05:10:17 10.2 C 20 %
753 28-11-2019 05:20:17 10.1 C 20 %
754 28-11-2019 05:30:17 10.4 C 20 %
755 28-11-2019 05:40:17 10.1 C 20 %
756 28-11-2019 05:50:17 10.2 C 20 %
757 28-11-2019 06:00:17 9.9 C 20 %
758 28-11-2019 06:10:17 10.1 C 20 %
759 28-11-2019 06:20:17 10.2 C 20 %
760 28-11-2019 06:30:17 10.5 C 20 %
761 28-11-2019 06:40:17 10.6 C 20 %
762 28-11-2019 06:50:17 10.5 C 20 %
763 28-11-2019 07:00:17 10.4 C 20 %
764 28-11-2019 07:10:17 10 C 20 %
765 28-11-2019 07:20:17 10 C 20 %
766 28-11-2019 07:30:17 10 C 20 %
767 28-11-2019 07:40:17 10.2 C 20 %
768 28-11-2019 07:50:17 10.3 C 20 %
769 28-11-2019 08:00:17 10.4 C 20 %
770 28-11-2019 08:10:17 10.2 C 20 %
771 28-11-2019 08:20:17 10.2 C 20 %
772 28-11-2019 08:30:17 10.1 C 20 %
773 28-11-2019 08:40:17 10.1 C 20 %
774 28-11-2019 08:50:17 10.1 C 20 %
775 28-11-2019 09:00:17 10.3 C 20 %
Sensor: Nr:Datum:Temp:Feuchte:
Aussen-T/F 776 28-11-2019 09:10:17 10.7 C 20 %
777 28-11-2019 09:20:17 11 C 20 %
778 28-11-2019 09:30:17 11 C 20 %
779 28-11-2019 09:40:17 11.1 C 20 %
780 28-11-2019 09:50:17 11.1 C 20 %
781 28-11-2019 10:00:17 11.3 C 20 %
782 28-11-2019 10:10:17 11.3 C 20 %
783 28-11-2019 10:20:17 11.5 C 20 %
784 28-11-2019 10:30:17 11.6 C 20 %
785 28-11-2019 10:40:17 11.7 C 20 %
786 28-11-2019 10:50:17 11.7 C 20 %
787 28-11-2019 11:00:17 11.7 C 20 %
788 28-11-2019 11:10:17 11.8 C 20 %
789 28-11-2019 11:20:17 11.9 C 20 %
790 28-11-2019 11:30:17 11.9 C 20 %
791 28-11-2019 11:40:17 12.2 C 20 %
792 28-11-2019 11:50:17 11.9 C 20 %
793 28-11-2019 12:00:17 11.6 C 20 %
794 28-11-2019 12:10:17 11.5 C 20 %
795 28-11-2019 12:20:17 11.1 C 20 %
796 28-11-2019 12:30:17 11.1 C 20 %
797 28-11-2019 12:40:17 10.9 C 20 %
798 28-11-2019 12:50:17 11.2 C 20 %
799 28-11-2019 13:00:17 11.2 C 20 %
800 28-11-2019 13:10:17 11.7 C 20 %
Sensor: Nr:Datum:Temp:Feuchte:
Aussen-T/F 801 28-11-2019 13:20:17 11.8 C 20 %
802 28-11-2019 13:30:17 12.1 C 20 %
803 28-11-2019 13:40:17 11.4 C 20 %
804 28-11-2019 13:50:17 11.4 C 20 %
805 28-11-2019 14:00:17 11.3 C 20 %
806 28-11-2019 14:10:17 11.4 C 20 %
807 28-11-2019 14:20:17 11.2 C 20 %
808 28-11-2019 14:30:17 11.1 C 20 %
809 28-11-2019 14:40:17 11.2 C 20 %
810 28-11-2019 14:50:17 11.2 C 20 %
811 28-11-2019 15:00:17 11.2 C 20 %
812 28-11-2019 15:10:17 11.1 C 20 %
813 28-11-2019 15:20:17 11 C 20 %
814 28-11-2019 15:30:17 10.2 C 23 %
815 28-11-2019 15:40:17 10.2 C 21 %
816 28-11-2019 15:50:17 10.3 C 21 %
817 28-11-2019 16:00:17 10.5 C 21 %
818 28-11-2019 16:10:17 10.3 C 22 %
819 28-11-2019 16:20:17 10.5 C 21 %
820 28-11-2019 16:30:17 10.6 C 21 %
821 28-11-2019 16:40:17 10.4 C 21 %
822 28-11-2019 16:50:17 10.4 C 21 %
823 28-11-2019 17:00:17 10.3 C 22 %
824 28-11-2019 17:10:17 9.7 C 27 %
825 28-11-2019 17:20:17 9.5 C 29 %
Sensor: Nr:Datum:Temp:Feuchte:
Aussen-T/F 826 28-11-2019 17:30:17 9.4 C 30 %
827 28-11-2019 17:40:17 9.3 C 30 %
828 28-11-2019 17:50:17 9.6 C 28 %
829 28-11-2019 18:00:17 9.8 C 27 %
830 28-11-2019 18:10:17 10.2 C 25 %
831 28-11-2019 18:20:17 10.3 C 25 %
832 28-11-2019 18:30:17 10.2 C 25 %
833 28-11-2019 18:40:17 10.2 C 25 %
834 28-11-2019 18:50:17 10.2 C 25 %
835 28-11-2019 19:00:17 10.1 C 25 %
836 28-11-2019 19:10:17 9.8 C 26 %
837 28-11-2019 19:20:17 9.8 C 26 %
838 28-11-2019 19:30:17 9.8 C 26 %
839 28-11-2019 19:40:17 9.9 C 26 %
840 28-11-2019 19:50:17 10.1 C 25 %
841 28-11-2019 20:00:17 10.1 C 26 %
842 28-11-2019 20:10:17 9.8 C 26 %
843 28-11-2019 20:20:17 9.8 C 26 %
844 28-11-2019 20:30:17 9.8 C 27 %
845 28-11-2019 20:40:17 10.1 C 26 %
846 28-11-2019 20:50:17 10 C 25 %
847 28-11-2019 21:00:17 10.1 C 25 %
848 28-11-2019 21:10:17 9.7 C 27 %
849 28-11-2019 21:20:17 9.9 C 27 %
850 28-11-2019 21:30:17 10.1 C 26 %
Sensor: Nr:Datum:Temp:Feuchte:
Aussen-T/F 851 28-11-2019 21:40:17 10 C 26 %
852 28-11-2019 21:50:17 10 C 25 %
853 28-11-2019 22:00:17 9.6 C 27 %
854 28-11-2019 22:10:17 9.6 C 28 %
855 28-11-2019 22:20:17 9.6 C 28 %
856 28-11-2019 22:30:17 9.5 C 28 %
857 28-11-2019 22:40:17 9.6 C 28 %
858 28-11-2019 22:50:17 9.5 C 28 %
859 28-11-2019 23:00:17 9.5 C 28 %
860 28-11-2019 23:10:17 9.5 C 29 %
861 28-11-2019 23:20:17 9.6 C 28 %
862 28-11-2019 23:30:17 9.2 C 30 %
863 28-11-2019 23:40:17 9.1 C 32 %
864 28-11-2019 23:50:17 8.9 C 35 %
865 29-11-2019 00:00:17 8.9 C 34 %
866 29-11-2019 00:10:17 8.7 C 36 %
867 29-11-2019 00:20:17 8.8 C 35 %
868 29-11-2019 00:30:17 8.7 C 36 %
869 29-11-2019 00:40:17 8.7 C 35 %
870 29-11-2019 00:50:17 8.6 C 35 %
871 29-11-2019 01:00:17 8.6 C 36 %
872 29-11-2019 01:10:17 8.5 C 37 %
873 29-11-2019 01:20:17 8.3 C 37 %
874 29-11-2019 01:30:17 8.3 C 36 %
875 29-11-2019 01:40:17 8.3 C 36 %
Sensor: Nr:Datum:Temp:Feuchte:
Aussen-T/F 876 29-11-2019 01:50:17 8.1 C 39 %
877 29-11-2019 02:00:17 8.1 C 40 %
878 29-11-2019 02:10:17 8.1 C 40 %
879 29-11-2019 02:20:17 8.1 C 40 %
880 29-11-2019 02:30:17 8.1 C 40 %
881 29-11-2019 02:40:17 8.1 C 40 %
882 29-11-2019 02:50:17 8 C 40 %
883 29-11-2019 03:00:17 8 C 40 %
884 29-11-2019 03:10:17 8 C 40 %
885 29-11-2019 03:20:17 7.9 C 40 %
886 29-11-2019 03:30:17 7.8 C 40 %
887 29-11-2019 03:40:17 7.7 C 40 %
888 29-11-2019 03:50:17 7.6 C 40 %
889 29-11-2019 04:00:17 7.6 C 40 %
890 29-11-2019 04:10:17 7.6 C 40 %
891 29-11-2019 04:20:17 7.6 C 40 %
892 29-11-2019 04:30:17 7.5 C 40 %
893 29-11-2019 04:40:17 7.5 C 40 %
894 29-11-2019 04:50:17 7.2 C 38 %
895 29-11-2019 05:00:17 6.8 C 34 %
896 29-11-2019 05:10:17 6.4 C 33 %
897 29-11-2019 05:20:17 6.2 C 34 %
898 29-11-2019 05:30:17 6.2 C 35 %
899 29-11-2019 05:40:18 6.1 C 36 %
900 29-11-2019 05:50:17 6 C 36 %
Sensor: Nr:Datum:Temp:Feuchte:
Aussen-T/F 901 29-11-2019 06:00:17 6 C 38 %
902 29-11-2019 06:10:17 5.9 C 38 %
903 29-11-2019 06:20:17 5.9 C 38 %
904 29-11-2019 06:30:17 5.9 C 40 %
905 29-11-2019 06:40:17 5.9 C 40 %
906 29-11-2019 06:50:17 5.8 C 36 %
907 29-11-2019 07:00:17 5.7 C 35 %
908 29-11-2019 07:10:17 5.6 C 37 %
909 29-11-2019 07:20:17 5.4 C 37 %
910 29-11-2019 07:30:17 5.4 C 40 %
911 29-11-2019 07:40:17 5.4 C 37 %
912 29-11-2019 07:50:17 5.4 C 39 %
913 29-11-2019 08:00:17 5.3 C 40 %
914 29-11-2019 08:10:17 5.2 C 40 %
915 29-11-2019 08:20:17 5.1 C 40 %
916 29-11-2019 08:30:17 5 C 40 %
917 29-11-2019 08:40:17 5 C 40 %
918 29-11-2019 08:50:17 5 C 39 %
919 29-11-2019 09:00:17 5 C 39 %
920 29-11-2019 09:10:17 5 C 39 %
921 29-11-2019 09:20:17 4.8 C 37 %
922 29-11-2019 09:30:17 4.6 C 37 %
923 29-11-2019 09:40:17 4.6 C 37 %
924 29-11-2019 09:50:17 4.7 C 36 %
925 29-11-2019 10:00:17 4.8 C 32 %
Sensor: Nr:Datum:Temp:Feuchte:
Aussen-T/F 926 29-11-2019 10:10:17 5.1 C 31 %
927 29-11-2019 10:20:17 5.8 C 27 %
928 29-11-2019 10:30:17 5.9 C 29 %
929 29-11-2019 10:40:17 5.7 C 27 %
930 29-11-2019 10:50:17 5.4 C 28 %
931 29-11-2019 11:00:17 5.6 C 30 %
932 29-11-2019 11:10:17 5.9 C 26 %
933 29-11-2019 11:20:17 6 C 27 %
934 29-11-2019 11:30:17 6.4 C 26 %
935 29-11-2019 11:40:17 7 C 23 %
936 29-11-2019 11:50:17 7.3 C 21 %
937 29-11-2019 12:00:17 7.2 C 20 %
938 29-11-2019 12:10:17 7.2 C 20 %
939 29-11-2019 12:20:17 7.1 C 20 %
940 29-11-2019 12:30:17 7.6 C 20 %
941 29-11-2019 12:40:17 7.2 C 20 %
942 29-11-2019 12:50:17 6.9 C 21 %
943 29-11-2019 13:00:17 6.6 C 21 %
944 29-11-2019 13:10:17 6.2 C 23 %
945 29-11-2019 13:20:17 5.9 C 25 %
946 29-11-2019 13:30:17 6.1 C 25 %
947 29-11-2019 13:40:17 6.1 C 25 %
948 29-11-2019 13:50:17 6.5 C 20 %
949 29-11-2019 14:00:17 6.5 C 20 %
950 29-11-2019 14:10:17 7 C 20 %
Sensor: Nr:Datum:Temp:Feuchte:
Aussen-T/F 951 29-11-2019 14:20:17 7.3 C 20 %
952 29-11-2019 14:30:17 7.3 C 20 %
953 29-11-2019 14:40:17 6.9 C 20 %
954 29-11-2019 14:50:17 6.5 C 20 %
955 29-11-2019 15:00:17 7.3 C 20 %
956 29-11-2019 15:10:17 7.3 C 20 %
957 29-11-2019 15:20:17 7.2 C 20 %
958 29-11-2019 15:30:17 7.2 C 20 %
959 29-11-2019 15:40:17 7.2 C 20 %
960 29-11-2019 15:50:17 6.7 C 20 %
961 29-11-2019 16:00:17 6.4 C 20 %
962 29-11-2019 16:10:17 5.6 C 20 %
963 29-11-2019 16:20:17 6.2 C 20 %
964 29-11-2019 16:30:17 6 C 20 %
965 29-11-2019 16:40:18 5.3 C 20 %
966 29-11-2019 16:50:17 5.3 C 20 %
967 29-11-2019 17:00:18 4.5 C 23 %
968 29-11-2019 17:10:18 4 C 26 %
969 29-11-2019 17:20:17 4 C 26 %
970 29-11-2019 17:30:18 3.9 C 27 %
971 29-11-2019 17:40:18 4 C 26 %
972 29-11-2019 17:50:17 3.8 C 27 %
973 29-11-2019 18:00:17 4.2 C 26 %
974 29-11-2019 18:10:18 4.6 C 25 %
975 29-11-2019 18:20:17 5 C 21 %
Sensor: Nr:Datum:Temp:Feuchte:
Aussen-T/F 976 29-11-2019 18:30:17 5 C 21 %
977 29-11-2019 18:40:17 4.8 C 23 %
978 29-11-2019 18:50:17 4.7 C 26 %
979 29-11-2019 19:00:17 4.8 C 21 %
980 29-11-2019 19:10:17 4.8 C 21 %
981 29-11-2019 19:20:17 4.8 C 21 %
982 29-11-2019 19:30:17 4.4 C 25 %
983 29-11-2019 19:40:17 4.6 C 21 %
984 29-11-2019 19:50:17 4.4 C 25 %
985 29-11-2019 20:00:17 4 C 26 %
986 29-11-2019 20:10:17 4 C 26 %
987 29-11-2019 20:20:17 4.3 C 25 %
988 29-11-2019 20:30:17 4.7 C 23 %
989 29-11-2019 20:40:17 4 C 25 %
990 29-11-2019 20:50:17 3.9 C 26 %
991 29-11-2019 21:00:17 3.8 C 28 %
992 29-11-2019 21:10:17 3.9 C 27 %
993 29-11-2019 21:20:17 3.8 C 27 %
994 29-11-2019 21:30:17 3.8 C 28 %
995 29-11-2019 21:40:17 3.9 C 28 %
996 29-11-2019 21:50:17 3.2 C 30 %
997 29-11-2019 22:00:17 3.3 C 29 %
998 29-11-2019 22:10:17 2.6 C 32 %
999 29-11-2019 22:20:17 2.1 C 35 %
1000 29-11-2019 22:30:17 1.9 C 37 %
Sensor: Nr:Datum:Temp:Feuchte:
Aussen-T/F 1001 29-11-2019 22:40:17 1.7 C 40 %
1002 29-11-2019 22:50:17 1.8 C 41 %
1003 29-11-2019 23:00:17 1.5 C 38 %
1004 29-11-2019 23:10:17 1.1 C 39 %
1005 29-11-2019 23:20:17 1.3 C 41 %
1006 29-11-2019 23:30:17 1.5 C 42 %
1007 29-11-2019 23:40:17 1.6 C 41 %
1008 29-11-2019 23:50:17 1.7 C 41 %
1009 30-11-2019 00:00:17 1.9 C 40 %
1010 30-11-2019 00:10:17 1.8 C 40 %
1011 30-11-2019 00:20:17 1.8 C 40 %
1012 30-11-2019 00:30:17 2 C 37 %
1013 30-11-2019 00:40:17 1.7 C 37 %
1014 30-11-2019 00:50:17 1.6 C 40 %
1015 30-11-2019 01:00:17 1.3 C 40 %
1016 30-11-2019 01:10:17 1 C 40 %
1017 30-11-2019 01:20:17 0.7 C 41 %
1018 30-11-2019 01:30:17 0.5 C 42 %
1019 30-11-2019 01:40:17 0.7 C 44 %
1020 30-11-2019 01:50:17 0.5 C 43 %
1021 30-11-2019 02:00:17 0.4 C 44 %
1022 30-11-2019 02:10:17 0.9 C 45 %
1023 30-11-2019 02:20:17 1.1 C 44 %
1024 30-11-2019 02:30:17 1.2 C 44 %
1025 30-11-2019 02:40:17 0.8 C 43 %
Sensor: Nr:Datum:Temp:Feuchte:
Aussen-T/F 1026 30-11-2019 02:50:17 0.8 C 43 %
1027 30-11-2019 03:00:17 0.9 C 43 %
1028 30-11-2019 03:10:17 0.7 C 43 %
1029 30-11-2019 03:20:17 0.3 C 41 %
1030 30-11-2019 03:30:17 0.5 C 44 %
1031 30-11-2019 03:40:17 0.2 C 43 %
1032 30-11-2019 03:50:17 0.6 C 44 %
1033 30-11-2019 04:00:17 1 C 44 %
1034 30-11-2019 04:10:17 1.3 C 43 %
1035 30-11-2019 04:20:17 1.3 C 41 %
1036 30-11-2019 04:30:17 1.4 C 40 %
1037 30-11-2019 04:40:17 1.3 C 40 %
1038 30-11-2019 04:50:17 1 C 38 %
1039 30-11-2019 05:00:17 0.6 C 40 %
1040 30-11-2019 05:10:17 1.1 C 41 %
1041 30-11-2019 05:20:17 0.8 C 40 %
1042 30-11-2019 05:30:17 0.3 C 40 %
1043 30-11-2019 05:40:17 -0.5 C 40 %
1044 30-11-2019 05:50:17 -0.7 C 41 %
1045 30-11-2019 06:00:17 -0.7 C 43 %
1046 30-11-2019 06:10:17 -0.9 C 43 %
1047 30-11-2019 06:20:17 -1 C 43 %
1048 30-11-2019 06:30:17 -1.2 C 43 %
1049 30-11-2019 06:40:17 -1.3 C 43 %
1050 30-11-2019 06:50:17 -1.2 C 44 %
Sensor: Nr:Datum:Temp:Feuchte:
Aussen-T/F 1051 30-11-2019 07:00:17 -1.4 C 44 %
1052 30-11-2019 07:10:17 -1.4 C 43 %
1053 30-11-2019 07:20:17 -1.4 C 43 %
1054 30-11-2019 07:30:17 -1.5 C 43 %
1055 30-11-2019 07:40:17 -1.2 C 44 %
1056 30-11-2019 07:50:17 -1.1 C 44 %
1057 30-11-2019 08:00:17 -1 C 44 %
1058 30-11-2019 08:10:17 -0.7 C 44 %
1059 30-11-2019 08:20:17 -0.6 C 44 %
1060 30-11-2019 08:30:17 -0.7 C 44 %
1061 30-11-2019 08:40:17 -0.6 C 44 %
1062 30-11-2019 08:50:17 -0.7 C 44 %
1063 30-11-2019 09:00:17 -0.7 C 44 %
1064 30-11-2019 09:10:17 -0.6 C 44 %
1065 30-11-2019 09:20:17 -0.7 C 44 %
1066 30-11-2019 09:30:17 -0.7 C 44 %
1067 30-11-2019 09:40:17 -0.6 C 44 %
1068 30-11-2019 09:50:17 -0.3 C 44 %
1069 30-11-2019 10:00:17 -0.3 C 44 %
1070 30-11-2019 10:10:17 0 C 44 %
1071 30-11-2019 10:20:17 0.1 C 43 %
1072 30-11-2019 10:30:17 0.4 C 43 %
1073 30-11-2019 10:40:17 0.5 C 43 %
1074 30-11-2019 10:50:17 0.4 C 43 %
1075 30-11-2019 11:00:18 0.5 C 42 %
Sensor: Nr:Datum:Temp:Feuchte:
Aussen-T/F 1076 30-11-2019 11:10:18 0.6 C 42 %
1077 30-11-2019 11:20:17 0.6 C 42 %
1078 30-11-2019 11:30:17 0.4 C 41 %
1079 30-11-2019 11:40:17 0.6 C 41 %
1080 30-11-2019 11:50:17 0.9 C 41 %
1081 30-11-2019 12:00:17 1.1 C 40 %
1082 30-11-2019 12:10:17 0.9 C 38 %
1083 30-11-2019 12:20:17 1.3 C 39 %
1084 30-11-2019 12:30:17 1.4 C 37 %
1085 30-11-2019 12:40:17 1.4 C 36 %
1086 30-11-2019 12:50:17 2.3 C 36 %
1087 30-11-2019 13:00:17 2.4 C 36 %
1088 30-11-2019 13:10:17 1.8 C 36 %
1089 30-11-2019 13:20:17 2.2 C 36 %
1090 30-11-2019 13:30:17 2.1 C 36 %
1091 30-11-2019 13:40:17 2.3 C 36 %
1092 30-11-2019 13:50:17 2.3 C 36 %
1093 30-11-2019 14:00:17 2 C 36 %
1094 30-11-2019 14:10:17 2.1 C 38 %
1095 30-11-2019 14:20:17 2.2 C 38 %
1096 30-11-2019 14:30:17 2.2 C 38 %
1097 30-11-2019 14:40:17 2.4 C 38 %
1098 30-11-2019 14:50:17 2.2 C 37 %
1099 30-11-2019 15:00:17 1.9 C 39 %
1100 30-11-2019 15:10:17 1.8 C 40 %
Sensor: Nr:Datum:Temp:Feuchte:
Aussen-T/F 1101 30-11-2019 15:20:18 1.9 C 41 %
1102 30-11-2019 15:30:17 1.8 C 41 %
1103 30-11-2019 15:40:17 1.6 C 41 %
1104 30-11-2019 15:50:17 1.7 C 42 %
1105 30-11-2019 16:00:17 1.5 C 42 %
1106 30-11-2019 16:10:17 1.5 C 42 %
1107 30-11-2019 16:20:17 1.4 C 43 %
1108 30-11-2019 16:30:17 1.3 C 43 %
1109 30-11-2019 16:40:17 1.3 C 43 %
1110 30-11-2019 16:50:17 1.1 C 43 %
1111 30-11-2019 17:00:17 0.9 C 44 %
1112 30-11-2019 17:10:17 0.9 C 44 %
1113 30-11-2019 17:20:17 0.6 C 44 %
1114 30-11-2019 17:30:17 0.6 C 44 %
1115 30-11-2019 17:40:17 0.6 C 44 %
1116 30-11-2019 17:50:17 0.5 C 44 %
1117 30-11-2019 18:00:17 0.4 C 44 %
1118 30-11-2019 18:10:17 0.3 C 44 %
1119 30-11-2019 18:20:17 0.3 C 44 %
1120 30-11-2019 18:30:17 0.4 C 44 %
1121 30-11-2019 18:40:17 0.4 C 44 %
1122 30-11-2019 18:50:17 0.4 C 44 %
1123 30-11-2019 19:00:17 0.2 C 44 %
1124 30-11-2019 19:10:17 0 C 44 %
1125 30-11-2019 19:20:17 0 C 44 %
Sensor: Nr:Datum:Temp:Feuchte:
Aussen-T/F 1126 30-11-2019 19:30:17 0 C 44 %
1127 30-11-2019 19:40:17 -0.1 C 44 %
1128 30-11-2019 19:50:17 -0.1 C 44 %
1129 30-11-2019 20:00:17 -0.2 C 44 %
1130 30-11-2019 20:10:18 -0.2 C 44 %
1131 30-11-2019 20:20:18 -0.2 C 44 %
1132 30-11-2019 20:30:17 -0.2 C 44 %
1133 30-11-2019 20:40:17 -0.4 C 44 %
1134 30-11-2019 20:50:17 -0.3 C 44 %
1135 30-11-2019 21:00:17 -0.2 C 44 %
1136 30-11-2019 21:10:17 -0.3 C 44 %
1137 30-11-2019 21:20:17 -0.3 C 44 %
1138 30-11-2019 21:30:17 -0.4 C 44 %
1139 30-11-2019 21:40:17 -0.2 C 44 %
1140 30-11-2019 21:50:17 -0.3 C 44 %
1141 30-11-2019 22:00:17 -0.3 C 44 %
1142 30-11-2019 22:10:17 -0.3 C 44 %
1143 30-11-2019 22:20:17 -0.3 C 44 %
1144 30-11-2019 22:30:17 -0.1 C 44 %
1145 30-11-2019 22:40:17 0 C 44 %
1146 30-11-2019 22:50:17 0 C 44 %
1147 30-11-2019 23:00:17 0 C 44 %
1148 30-11-2019 23:10:17 0 C 44 %
1149 30-11-2019 23:20:17 -0.1 C 44 %
1150 30-11-2019 23:30:17 -0.4 C 43 %
Sensor: Nr:Datum:Temp:Feuchte:
Aussen-T/F 1151 30-11-2019 23:40:17 -0.5 C 43 %
1152 30-11-2019 23:50:17 -0.4 C 43 %
1153 01-12-2019 00:00:17 -0.2 C 43 %
1154 01-12-2019 00:10:17 -0.3 C 43 %
1155 01-12-2019 00:20:17 -0.3 C 43 %
1156 01-12-2019 00:30:17 -0.3 C 43 %
1157 01-12-2019 00:40:17 -0.3 C 43 %
1158 01-12-2019 00:50:18 -0.2 C 43 %
1159 01-12-2019 01:00:17 0 C 44 %
1160 01-12-2019 01:10:17 -0.1 C 43 %
1161 01-12-2019 01:20:17 -0.1 C 43 %
1162 01-12-2019 01:30:17 -0.1 C 43 %
1163 01-12-2019 01:40:17 -0.1 C 43 %
1164 01-12-2019 01:50:17 -0.2 C 43 %
1165 01-12-2019 02:00:17 -0.1 C 43 %
1166 01-12-2019 02:10:17 -0.2 C 43 %
1167 01-12-2019 02:20:17 -0.2 C 43 %
1168 01-12-2019 02:30:17 -0.2 C 43 %
1169 01-12-2019 02:40:17 -0.3 C 43 %
1170 01-12-2019 02:50:17 -0.2 C 43 %
1171 01-12-2019 03:00:17 -0.3 C 43 %
1172 01-12-2019 03:10:17 -0.3 C 43 %
1173 01-12-2019 03:20:17 -0.4 C 43 %
1174 01-12-2019 03:30:17 -0.4 C 43 %
1175 01-12-2019 03:40:17 -0.4 C 43 %
Sensor: Nr:Datum:Temp:Feuchte:
Aussen-T/F 1176 01-12-2019 03:50:17 -0.4 C 43 %
1177 01-12-2019 04:00:17 -0.4 C 43 %
1178 01-12-2019 04:10:17 -0.8 C 42 %
1179 01-12-2019 04:20:17 -1.1 C 42 %
1180 01-12-2019 04:30:17 -1.3 C 42 %
1181 01-12-2019 04:40:17 -0.9 C 43 %
1182 01-12-2019 04:50:17 -0.9 C 43 %
1183 01-12-2019 05:00:17 -0.7 C 43 %
1184 01-12-2019 05:10:17 -0.8 C 43 %
1185 01-12-2019 05:20:17 -0.9 C 43 %
1186 01-12-2019 05:30:17 -1.1 C 43 %
1187 01-12-2019 05:40:17 -1 C 43 %
1188 01-12-2019 05:50:17 -0.9 C 43 %
1189 01-12-2019 06:00:17 -1 C 43 %
1190 01-12-2019 06:10:17 -1.1 C 43 %
1191 01-12-2019 06:20:17 -1.3 C 43 %
1192 01-12-2019 06:30:17 -1 C 43 %
1193 01-12-2019 06:40:17 -0.9 C 43 %
1194 01-12-2019 06:50:17 -0.9 C 43 %
1195 01-12-2019 07:00:17 -0.8 C 43 %
1196 01-12-2019 07:10:17 -0.7 C 43 %
1197 01-12-2019 07:20:17 -0.5 C 43 %
1198 01-12-2019 07:30:17 -0.5 C 43 %
1199 01-12-2019 07:40:17 -0.3 C 43 %
1200 01-12-2019 07:50:17 -0.2 C 43 %
Sensor: Nr:Datum:Temp:Feuchte:
Aussen-T/F 1201 01-12-2019 08:00:17 -0.1 C 43 %
1202 01-12-2019 08:10:17 -0.1 C 43 %
1203 01-12-2019 08:20:17 -0.2 C 43 %
1204 01-12-2019 08:30:17 -0.2 C 43 %
1205 01-12-2019 08:40:17 -0.2 C 43 %
1206 01-12-2019 08:50:17 0 C 43 %
1207 01-12-2019 09:00:17 0 C 42 %
1208 01-12-2019 09:10:17 0.2 C 42 %
1209 01-12-2019 09:20:17 0.1 C 42 %
1210 01-12-2019 09:30:17 0.1 C 42 %
1211 01-12-2019 09:40:17 0.2 C 41 %
1212 01-12-2019 09:50:17 0.3 C 41 %
1213 01-12-2019 10:00:17 0.5 C 41 %
1214 01-12-2019 10:10:17 0.6 C 41 %
1215 01-12-2019 10:20:17 0.7 C 40 %
1216 01-12-2019 10:30:17 0.8 C 39 %
1217 01-12-2019 10:40:17 1 C 38 %
1218 01-12-2019 10:50:17 1.1 C 37 %
1219 01-12-2019 11:00:17 1.4 C 36 %
1220 01-12-2019 11:10:17 1.9 C 34 %
1221 01-12-2019 11:20:17 2.1 C 32 %
1222 01-12-2019 11:30:17 2.7 C 30 %
1223 01-12-2019 11:40:17 3 C 27 %
1224 01-12-2019 11:50:17 2.9 C 20 %
1225 01-12-2019 12:00:17 3 C 21 %
Sensor: Nr:Datum:Temp:Feuchte:
Aussen-T/F 1226 01-12-2019 12:10:17 3.1 C 20 %
1227 01-12-2019 12:20:17 3.3 C 20 %
1228 01-12-2019 12:30:18 3.3 C 20 %
1229 01-12-2019 12:40:18 3.3 C 20 %
1230 01-12-2019 12:50:18 3.4 C 20 %
1231 01-12-2019 13:00:17 3.3 C 20 %
1232 01-12-2019 13:10:17 3.4 C 20 %
1233 01-12-2019 13:20:18 3.5 C 20 %
1234 01-12-2019 13:30:18 3.5 C 20 %
1235 01-12-2019 13:40:18 3.6 C 20 %
1236 01-12-2019 13:50:17 3.8 C 20 %
1237 01-12-2019 14:00:17 3.9 C 20 %
1238 01-12-2019 14:10:18 3.9 C 20 %
1239 01-12-2019 14:20:18 3.7 C 20 %
1240 01-12-2019 14:30:17 3.7 C 20 %
1241 01-12-2019 14:40:17 3.6 C 20 %
1242 01-12-2019 14:50:17 3.6 C 20 %
1243 01-12-2019 15:00:17 3.5 C 20 %
1244 01-12-2019 15:10:17 3.3 C 20 %
1245 01-12-2019 15:20:17 3.2 C 21 %
1246 01-12-2019 15:30:17 3 C 20 %
1247 01-12-2019 15:40:17 3 C 21 %
1248 01-12-2019 15:50:17 2.7 C 25 %
1249 01-12-2019 16:00:17 2.6 C 25 %
1250 01-12-2019 16:10:17 2.5 C 25 %
Sensor: Nr:Datum:Temp:Feuchte:
Aussen-T/F 1251 01-12-2019 16:20:17 2.4 C 25 %
1252 01-12-2019 16:30:18 2.4 C 25 %
1253 01-12-2019 16:40:18 2.2 C 25 %
1254 01-12-2019 16:50:18 2.2 C 25 %
1255 01-12-2019 17:00:18 2.2 C 25 %
1256 01-12-2019 17:10:18 2.2 C 25 %
1257 01-12-2019 17:20:17 2.3 C 25 %
1258 01-12-2019 17:30:17 2.3 C 25 %
1259 01-12-2019 17:40:17 2.3 C 25 %
1260 01-12-2019 17:50:17 2.3 C 25 %
1261 01-12-2019 18:00:17 2.3 C 25 %
1262 01-12-2019 18:10:17 2.3 C 25 %
1263 01-12-2019 18:20:17 2.3 C 25 %
1264 01-12-2019 18:30:17 2.3 C 25 %
1265 01-12-2019 18:40:17 2.3 C 25 %
1266 01-12-2019 18:50:17 2.3 C 23 %
1267 01-12-2019 19:00:17 2.3 C 23 %
1268 01-12-2019 19:10:18 2.4 C 25 %
1269 01-12-2019 19:20:17 2.3 C 25 %
1270 01-12-2019 19:30:17 2.3 C 25 %
1271 01-12-2019 19:40:17 2.3 C 25 %
1272 01-12-2019 19:50:17 2.2 C 26 %
1273 01-12-2019 20:00:17 2.5 C 25 %
1274 01-12-2019 20:10:17 2.2 C 25 %
1275 01-12-2019 20:20:17 2.1 C 25 %
Sensor: Nr:Datum:Temp:Feuchte:
Aussen-T/F 1276 01-12-2019 20:30:18 2.1 C 25 %
1277 01-12-2019 20:40:18 2.1 C 25 %
1278 01-12-2019 20:50:17 2 C 27 %
1279 01-12-2019 21:00:17 1.9 C 27 %
1280 01-12-2019 21:10:17 1.8 C 28 %
1281 01-12-2019 21:20:17 1.6 C 30 %
1282 01-12-2019 21:30:18 1.5 C 29 %
1283 01-12-2019 21:40:18 1.6 C 28 %
1284 01-12-2019 21:50:17 1.6 C 28 %
1285 01-12-2019 22:00:17 1.5 C 29 %
1286 01-12-2019 22:10:17 1.4 C 29 %
1287 01-12-2019 22:20:17 1.4 C 30 %
1288 01-12-2019 22:30:18 1.3 C 28 %
1289 01-12-2019 22:40:18 1.2 C 29 %
1290 01-12-2019 22:50:17 1.1 C 29 %
1291 01-12-2019 23:00:17 0.8 C 30 %
1292 01-12-2019 23:10:17 0.8 C 30 %
1293 01-12-2019 23:20:18 0.7 C 30 %
1294 01-12-2019 23:30:17 0.5 C 32 %
1295 01-12-2019 23:40:17 0.3 C 33 %
1296 01-12-2019 23:50:17 0.2 C 33 %
1297 02-12-2019 00:00:17 0.1 C 33 %
1298 02-12-2019 00:10:17 0.2 C 33 %
1299 02-12-2019 00:20:17 0.3 C 32 %
1300 02-12-2019 00:30:17 0.3 C 32 %
Sensor: Nr:Datum:Temp:Feuchte:
Aussen-T/F 1301 02-12-2019 00:40:17 0.2 C 32 %
1302 02-12-2019 00:50:18 0.2 C 35 %
1303 02-12-2019 01:00:17 0.1 C 36 %
1304 02-12-2019 01:10:17 0 C 38 %
1305 02-12-2019 01:20:17 -0.2 C 36 %
1306 02-12-2019 01:30:17 0.2 C 34 %
1307 02-12-2019 01:40:17 -0.2 C 35 %
1308 02-12-2019 01:50:17 -0.9 C 35 %
1309 02-12-2019 02:00:18 -0.9 C 37 %
1310 02-12-2019 02:10:18 -0.9 C 37 %
1311 02-12-2019 02:20:17 -0.5 C 37 %
1312 02-12-2019 02:30:17 -1 C 36 %
1313 02-12-2019 02:40:17 -1.1 C 37 %
1314 02-12-2019 02:50:17 -1.1 C 36 %
1315 02-12-2019 03:00:17 -1 C 37 %
1316 02-12-2019 03:10:17 -1.2 C 38 %
1317 02-12-2019 03:20:17 -1.3 C 37 %
1318 02-12-2019 03:30:18 -1.3 C 38 %
1319 02-12-2019 03:40:18 -1.4 C 37 %
1320 02-12-2019 03:50:17 -1.4 C 37 %
1321 02-12-2019 04:00:18 -1.7 C 39 %
1322 02-12-2019 04:10:18 -1.4 C 40 %
1323 02-12-2019 04:20:17 -1.1 C 40 %
1324 02-12-2019 04:30:17 -1 C 40 %
1325 02-12-2019 04:40:17 -0.8 C 36 %
Sensor: Nr:Datum:Temp:Feuchte:
Aussen-T/F 1326 02-12-2019 04:50:17 -1.1 C 37 %
1327 02-12-2019 05:00:17 -1.4 C 40 %
1328 02-12-2019 05:10:17 -1.1 C 40 %
1329 02-12-2019 05:20:17 -1.2 C 39 %
1330 02-12-2019 05:30:17 -1.6 C 40 %
1331 02-12-2019 05:40:17 -1.4 C 41 %
1332 02-12-2019 05:50:17 -1.3 C 42 %
1333 02-12-2019 06:00:17 -1.2 C 41 %
1334 02-12-2019 06:10:17 -1.3 C 39 %
1335 02-12-2019 06:20:17 -1.2 C 39 %
1336 02-12-2019 06:30:17 -1.4 C 38 %
1337 02-12-2019 06:40:17 -1.4 C 40 %
1338 02-12-2019 06:50:17 -1.8 C 37 %
1339 02-12-2019 07:00:17 -2.4 C 38 %
1340 02-12-2019 07:10:17 -2.6 C 40 %
1341 02-12-2019 07:20:17 -2.9 C 40 %
1342 02-12-2019 07:30:17 -2.7 C 42 %
1343 02-12-2019 07:40:17 -2.6 C 42 %
1344 02-12-2019 07:50:17 -2.4 C 43 %
1345 02-12-2019 08:00:17 -1.9 C 45 %
1346 02-12-2019 08:10:18 -1.6 C 44 %
1347 02-12-2019 08:20:17 -1.3 C 44 %
1348 02-12-2019 08:30:17 -1 C 43 %
1349 02-12-2019 08:40:17 -0.7 C 43 %
1350 02-12-2019 08:50:17 -0.5 C 42 %
Sensor: Nr:Datum:Temp:Feuchte:
Aussen-T/F 1351 02-12-2019 09:00:17 -0.5 C 40 %
1352 02-12-2019 09:10:17 -0.4 C 38 %
1353 02-12-2019 09:20:17 -0.4 C 36 %
1354 02-12-2019 09:30:17 -0.4 C 36 %
1355 02-12-2019 09:40:17 0 C 36 %
1356 02-12-2019 09:50:17 0 C 35 %
1357 02-12-2019 10:00:17 0.1 C 35 %
1358 02-12-2019 10:10:17 0.1 C 34 %
1359 02-12-2019 10:20:17 0.2 C 35 %
1360 02-12-2019 10:30:17 0.5 C 36 %
1361 02-12-2019 10:40:17 1 C 31 %
1362 02-12-2019 10:50:17 0.8 C 31 %
1363 02-12-2019 11:00:17 1.2 C 30 %
1364 02-12-2019 11:10:17 1.1 C 30 %
1365 02-12-2019 11:20:17 1.2 C 30 %
1366 02-12-2019 11:30:17 0.9 C 31 %
1367 02-12-2019 11:40:18 1 C 31 %
1368 02-12-2019 11:50:17 0.8 C 32 %
1369 02-12-2019 12:00:18 1.6 C 31 %
1370 02-12-2019 12:10:18 2.3 C 27 %
1371 02-12-2019 12:20:17 2.8 C 25 %
1372 02-12-2019 12:30:17 3.1 C 26 %
1373 02-12-2019 12:40:17 3 C 25 %
1374 02-12-2019 12:50:18 3.2 C 26 %
1375 02-12-2019 13:00:17 3.2 C 26 %
Sensor: Nr:Datum:Temp:Feuchte:
Aussen-T/F 1376 02-12-2019 13:10:17 3.5 C 25 %
1377 02-12-2019 13:20:17 3.9 C 25 %
1378 02-12-2019 13:30:17 3.9 C 25 %
1379 02-12-2019 13:40:17 3.8 C 25 %
1380 02-12-2019 13:50:17 3.6 C 25 %
1381 02-12-2019 14:00:17 4 C 26 %
1382 02-12-2019 14:10:17 3.7 C 28 %
1383 02-12-2019 14:20:17 3.7 C 30 %
1384 02-12-2019 14:30:17 4.1 C 27 %
1385 02-12-2019 14:40:17 4.3 C 27 %
1386 02-12-2019 14:50:17 4.5 C 27 %
1387 02-12-2019 15:00:18 4.3 C 28 %
1388 02-12-2019 15:10:18 4.3 C 29 %
1389 02-12-2019 15:20:17 4.7 C 27 %
1390 02-12-2019 15:30:17 4.4 C 27 %
1391 02-12-2019 15:40:17 4.1 C 31 %
1392 02-12-2019 15:50:17 3.9 C 36 %
1393 02-12-2019 16:00:18 3.7 C 37 %
1394 02-12-2019 16:10:18 3.6 C 37 %
1395 02-12-2019 16:20:17 3.5 C 40 %
1396 02-12-2019 16:30:17 3.5 C 38 %
1397 02-12-2019 16:40:17 3.5 C 35 %
1398 02-12-2019 16:50:17 3.5 C 35 %
1399 02-12-2019 17:00:17 3.3 C 36 %
1400 02-12-2019 17:10:17 3.2 C 39 %
Sensor: Nr:Datum:Temp:Feuchte:
Aussen-T/F 1401 02-12-2019 17:20:17 3.2 C 36 %
1402 02-12-2019 17:30:18 3.3 C 36 %
1403 02-12-2019 17:40:18 3.4 C 35 %
1404 02-12-2019 17:50:17 3.3 C 35 %
1405 02-12-2019 18:01:17 3.1 C 36 %
1406 02-12-2019 18:11:17 3.2 C 37 %
1407 02-12-2019 18:21:17 3.2 C 36 %
1408 02-12-2019 18:30:17 3 C 36 %
1409 02-12-2019 18:40:17 2.5 C 40 %
1410 02-12-2019 18:50:17 2.2 C 40 %
1411 02-12-2019 19:00:17 2.1 C 42 %
1412 02-12-2019 19:10:17 2.7 C 43 %
1413 02-12-2019 19:21:17 2.7 C 42 %
1414 02-12-2019 19:30:17 2.7 C 41 %
1415 02-12-2019 19:40:17 2.9 C 42 %
1416 02-12-2019 19:51:17 2.9 C 42 %
1417 02-12-2019 20:01:17 2.9 C 39 %
1418 02-12-2019 20:11:17 2.8 C 38 %
1419 02-12-2019 20:21:17 2.9 C 37 %
1420 02-12-2019 20:31:17 2.9 C 38 %
1421 02-12-2019 20:40:17 2.8 C 40 %
1422 02-12-2019 20:51:17 2.7 C 42 %
1423 02-12-2019 21:00:17 2.7 C 42 %
1424 02-12-2019 21:10:17 2.7 C 42 %
1425 02-12-2019 21:21:17 2.7 C 42 %
Sensor: Nr:Datum:Temp:Feuchte:
Aussen-T/F 1426 02-12-2019 21:30:18 2.7 C 42 %
1427 02-12-2019 21:40:18 2.6 C 41 %
1428 02-12-2019 21:51:17 2.6 C 42 %
1429 02-12-2019 22:01:17 2.6 C 41 %
1430 02-12-2019 22:11:17 2.6 C 41 %
1431 02-12-2019 22:21:17 2.6 C 41 %
1432 02-12-2019 22:30:18 2.5 C 40 %
1433 02-12-2019 22:40:18 2.5 C 41 %
1434 02-12-2019 22:51:17 2.4 C 41 %
1435 02-12-2019 23:01:17 2.5 C 41 %
1436 02-12-2019 23:11:17 2.4 C 42 %
1437 02-12-2019 23:21:17 2.5 C 42 %
1438 02-12-2019 23:31:17 2.5 C 42 %
1439 02-12-2019 23:41:17 2.5 C 42 %
1440 02-12-2019 23:50:18 2.5 C 42 %
1441 03-12-2019 00:01:17 2.5 C 42 %
1442 03-12-2019 00:11:17 2.5 C 42 %
1443 03-12-2019 00:21:17 2.5 C 41 %
1444 03-12-2019 00:30:18 2.5 C 41 %
1445 03-12-2019 00:40:18 2.6 C 41 %
1446 03-12-2019 00:51:17 2.6 C 41 %
1447 03-12-2019 01:01:18 2.6 C 41 %
1448 03-12-2019 01:11:18 2.6 C 41 %
1449 03-12-2019 01:21:17 2.7 C 41 %
1450 03-12-2019 01:31:17 2.7 C 41 %
Sensor: Nr:Datum:Temp:Feuchte:
Aussen-T/F 1451 03-12-2019 01:41:17 2.7 C 42 %
1452 03-12-2019 01:51:17 2.7 C 42 %
1453 03-12-2019 02:01:17 2.7 C 42 %
1454 03-12-2019 02:11:17 2.8 C 42 %
1455 03-12-2019 02:21:17 2.8 C 42 %
1456 03-12-2019 02:31:17 2.8 C 42 %
1457 03-12-2019 02:41:17 2.9 C 42 %
1458 03-12-2019 02:51:17 2.8 C 42 %
1459 03-12-2019 03:01:17 2.8 C 42 %
1460 03-12-2019 03:11:17 2.8 C 42 %
1461 03-12-2019 03:21:17 2.8 C 42 %
1462 03-12-2019 03:31:17 2.9 C 42 %
1463 03-12-2019 03:41:17 3 C 42 %
1464 03-12-2019 03:51:17 3 C 42 %
1465 03-12-2019 04:01:17 3 C 42 %
1466 03-12-2019 04:11:17 3 C 42 %
1467 03-12-2019 04:21:17 3 C 42 %
1468 03-12-2019 04:31:17 3.1 C 42 %
1469 03-12-2019 04:41:17 3.1 C 42 %
1470 03-12-2019 04:51:17 3.1 C 42 %
1471 03-12-2019 05:01:17 3.1 C 42 %
1472 03-12-2019 05:11:17 3.1 C 42 %
1473 03-12-2019 05:21:17 3.1 C 42 %
1474 03-12-2019 05:31:17 3.2 C 42 %
1475 03-12-2019 05:41:17 3.2 C 41 %
Sensor: Nr:Datum:Temp:Feuchte:
Aussen-T/F 1476 03-12-2019 05:51:17 3.2 C 41 %
1477 03-12-2019 06:01:18 3.2 C 41 %
1478 03-12-2019 06:11:18 3.2 C 41 %
1479 03-12-2019 06:21:17 3.2 C 41 %
1480 03-12-2019 06:31:17 3.3 C 41 %
1481 03-12-2019 06:41:17 3.3 C 41 %
1482 03-12-2019 06:51:18 3.3 C 41 %
1483 03-12-2019 07:01:17 3.3 C 41 %
1484 03-12-2019 07:11:17 3.3 C 41 %
1485 03-12-2019 07:21:17 3.3 C 41 %
1486 03-12-2019 07:31:17 3.2 C 41 %
1487 03-12-2019 07:41:17 3.3 C 41 %
1488 03-12-2019 07:51:17 3.3 C 42 %
1489 03-12-2019 08:01:17 3.3 C 42 %
1490 03-12-2019 08:11:17 3.4 C 42 %
1491 03-12-2019 08:21:17 3.3 C 42 %
1492 03-12-2019 08:31:17 3.4 C 42 %
1493 03-12-2019 08:41:17 3.4 C 41 %
1494 03-12-2019 08:51:17 3.4 C 41 %
1495 03-12-2019 09:01:17 3.5 C 42 %
1496 03-12-2019 09:11:17 3.5 C 42 %
1497 03-12-2019 09:21:17 3.5 C 41 %
1498 03-12-2019 09:31:17 3.6 C 41 %
1499 03-12-2019 09:41:17 3.6 C 41 %
1500 03-12-2019 09:51:17 3.7 C 41 %
Sensor: Nr:Datum:Temp:Feuchte:
Aussen-T/F 1501 03-12-2019 10:01:17 3.7 C 41 %
1502 03-12-2019 10:11:17 3.8 C 41 %
1503 03-12-2019 10:21:17 3.8 C 41 %
1504 03-12-2019 10:31:17 3.8 C 41 %
1505 03-12-2019 10:41:17 4.1 C 40 %
1506 03-12-2019 10:51:17 4.1 C 40 %
1507 03-12-2019 11:01:18 4.3 C 39 %
1508 03-12-2019 11:11:18 4.3 C 37 %
1509 03-12-2019 11:21:17 4.4 C 37 %
1510 03-12-2019 11:31:17 4.6 C 37 %
1511 03-12-2019 11:41:17 4.6 C 37 %
1512 03-12-2019 11:51:17 4.7 C 37 %
1513 03-12-2019 12:01:17 4.7 C 37 %
1514 03-12-2019 12:11:17 4.9 C 35 %
1515 03-12-2019 12:21:17 5 C 34 %
1516 03-12-2019 12:31:17 5 C 35 %
1517 03-12-2019 12:41:17 5.2 C 35 %
1518 03-12-2019 12:51:18 5.3 C 34 %
1519 03-12-2019 13:01:17 5.6 C 34 %
1520 03-12-2019 13:11:17 5.8 C 33 %
1521 03-12-2019 13:21:17 5.8 C 32 %
1522 03-12-2019 13:31:17 5.7 C 32 %
1523 03-12-2019 13:41:17 5.9 C 32 %
1524 03-12-2019 13:51:18 6.1 C 31 %
1525 03-12-2019 14:01:17 6.1 C 31 %
Sensor: Nr:Datum:Temp:Feuchte:
Aussen-T/F 1526 03-12-2019 14:11:17 6.2 C 31 %
1527 03-12-2019 14:21:17 6.1 C 31 %
1528 03-12-2019 14:31:17 6.3 C 31 %
1529 03-12-2019 14:41:17 6.2 C 30 %
1530 03-12-2019 14:51:18 6.4 C 31 %
1531 03-12-2019 15:01:17 6.2 C 30 %
1532 03-12-2019 15:11:17 6.3 C 31 %
1533 03-12-2019 15:21:17 6.3 C 31 %
1534 03-12-2019 15:31:17 6.2 C 31 %
1535 03-12-2019 15:41:17 6.1 C 32 %
1536 03-12-2019 15:51:17 6 C 33 %
1537 03-12-2019 16:01:17 5.7 C 36 %
1538 03-12-2019 16:11:17 5.6 C 39 %
1539 03-12-2019 16:21:17 5.4 C 40 %
1540 03-12-2019 16:31:18 5.3 C 41 %
1541 03-12-2019 16:41:18 5.2 C 41 %
1542 03-12-2019 16:51:17 5.2 C 41 %
1543 03-12-2019 17:01:18 5.1 C 41 %
1544 03-12-2019 17:11:18 5.1 C 41 %
1545 03-12-2019 17:21:17 5.1 C 41 %
1546 03-12-2019 17:31:17 5 C 41 %
1547 03-12-2019 17:41:17 5 C 41 %
1548 03-12-2019 17:51:17 5 C 41 %
1549 03-12-2019 18:01:18 4.8 C 41 %
1550 03-12-2019 18:11:18 4.7 C 40 %
Sensor: Nr:Datum:Temp:Feuchte:
Aussen-T/F 1551 03-12-2019 18:21:17 4.7 C 40 %
1552 03-12-2019 18:31:18 4.7 C 40 %
1553 03-12-2019 18:41:18 4.7 C 40 %
1554 03-12-2019 18:51:17 4.7 C 40 %
1555 03-12-2019 19:01:17 4.7 C 40 %
1556 03-12-2019 19:11:17 4.6 C 39 %
1557 03-12-2019 19:21:17 4.6 C 38 %
1558 03-12-2019 19:31:17 4.6 C 38 %
1559 03-12-2019 19:41:17 4.4 C 37 %
1560 03-12-2019 19:51:17 4.3 C 38 %
1561 03-12-2019 20:01:17 4.3 C 39 %
1562 03-12-2019 20:11:17 4.3 C 38 %
1563 03-12-2019 20:21:18 4.2 C 37 %
1564 03-12-2019 20:31:17 4.2 C 38 %
1565 03-12-2019 20:41:18 4.1 C 39 %
1566 03-12-2019 20:51:17 3.9 C 40 %
1567 03-12-2019 21:01:17 3.9 C 41 %
1568 03-12-2019 21:11:17 4 C 40 %
1569 03-12-2019 21:21:17 4 C 40 %
1570 03-12-2019 21:31:17 3.8 C 40 %
1571 03-12-2019 21:41:17 3.5 C 40 %
1572 03-12-2019 21:51:17 3.3 C 40 %
1573 03-12-2019 22:01:17 2.9 C 41 %
1574 03-12-2019 22:11:17 2.8 C 42 %
1575 03-12-2019 22:21:18 2.8 C 42 %
Sensor: Nr:Datum:Temp:Feuchte:
Aussen-T/F 1576 03-12-2019 22:31:18 3.3 C 42 %
1577 03-12-2019 22:41:18 3.5 C 40 %
1578 03-12-2019 22:51:17 3.2 C 38 %
1579 03-12-2019 23:01:18 2.6 C 39 %
1580 03-12-2019 23:11:18 2.5 C 41 %
1581 03-12-2019 23:21:17 2.5 C 41 %
1582 03-12-2019 23:31:17 2.2 C 40 %
1583 03-12-2019 23:41:17 2.8 C 40 %
1584 03-12-2019 23:51:17 2.6 C 38 %
1585 04-12-2019 00:01:18 2.3 C 39 %
1586 04-12-2019 00:11:18 1.7 C 41 %
1587 04-12-2019 00:21:17 1.3 C 42 %
1588 04-12-2019 00:31:17 0.9 C 43 %
1589 04-12-2019 00:41:17 0.4 C 43 %
1590 04-12-2019 00:51:17 0.6 C 45 %
1591 04-12-2019 01:01:18 0.2 C 44 %
1592 04-12-2019 01:11:18 0.2 C 45 %
1593 04-12-2019 01:21:17 0 C 44 %
1594 04-12-2019 01:31:17 -0.1 C 45 %
1595 04-12-2019 01:41:17 0.1 C 45 %
1596 04-12-2019 01:51:18 -0.3 C 45 %
1597 04-12-2019 02:01:17 -0.3 C 45 %
1598 04-12-2019 02:11:17 -0.2 C 45 %
1599 04-12-2019 02:21:17 -0.5 C 45 %
1600 04-12-2019 02:31:18 -0.4 C 45 %
Sensor: Nr:Datum:Temp:Feuchte:
Aussen-T/F 1601 04-12-2019 02:41:18 0.1 C 45 %
1602 04-12-2019 02:51:17 0.3 C 45 %
1603 04-12-2019 03:01:18 0.6 C 45 %
1604 04-12-2019 03:11:18 0.9 C 45 %
1605 04-12-2019 03:21:17 0.9 C 45 %
1606 04-12-2019 03:31:17 1 C 44 %
1607 04-12-2019 03:41:17 1 C 44 %
1608 04-12-2019 03:51:17 1 C 44 %
1609 04-12-2019 04:01:18 0.8 C 45 %
1610 04-12-2019 04:11:18 0.9 C 45 %
1611 04-12-2019 04:21:17 0.8 C 45 %
1612 04-12-2019 04:31:17 0.8 C 45 %
1613 04-12-2019 04:41:17 0.8 C 45 %
1614 04-12-2019 04:51:17 0.8 C 45 %
1615 04-12-2019 05:01:17 0.8 C 45 %
1616 04-12-2019 05:11:17 0.8 C 44 %
1617 04-12-2019 05:21:17 0.8 C 44 %
1618 04-12-2019 05:31:17 1 C 43 %
1619 04-12-2019 05:41:17 1 C 43 %
1620 04-12-2019 05:51:18 1 C 43 %
1621 04-12-2019 06:01:17 1 C 43 %
1622 04-12-2019 06:11:17 1.1 C 43 %
1623 04-12-2019 06:21:17 1.2 C 43 %
1624 04-12-2019 06:31:17 1.2 C 43 %
1625 04-12-2019 06:41:18 1.2 C 43 %
Sensor: Nr:Datum:Temp:Feuchte:
Aussen-T/F 1626 04-12-2019 06:51:17 1.2 C 43 %
1627 04-12-2019 07:01:17 1.1 C 43 %
1628 04-12-2019 07:11:17 1.1 C 43 %
1629 04-12-2019 07:21:18 1.1 C 43 %
1630 04-12-2019 07:31:17 1 C 43 %
1631 04-12-2019 07:41:17 0.9 C 44 %
1632 04-12-2019 07:51:17 1 C 43 %
1633 04-12-2019 08:01:17 0.9 C 44 %
1634 04-12-2019 08:11:17 0.9 C 44 %
1635 04-12-2019 08:21:17 0.9 C 44 %
1636 04-12-2019 08:31:17 0.9 C 44 %
1637 04-12-2019 08:41:17 1 C 42 %
1638 04-12-2019 08:51:17 1 C 42 %
1639 04-12-2019 09:01:18 1 C 42 %
1640 04-12-2019 09:11:18 1.2 C 42 %
1641 04-12-2019 09:21:18 1.2 C 42 %
1642 04-12-2019 09:31:17 1.2 C 41 %
1643 04-12-2019 09:41:17 1.2 C 41 %
1644 04-12-2019 09:51:17 1.4 C 41 %
1645 04-12-2019 10:01:17 1.5 C 41 %
1646 04-12-2019 10:11:18 1.4 C 39 %
1647 04-12-2019 10:21:17 1.3 C 38 %
1648 04-12-2019 10:31:17 1.1 C 37 %
1649 04-12-2019 10:41:17 1.1 C 37 %
1650 04-12-2019 10:51:18 1 C 38 %
Sensor: Nr:Datum:Temp:Feuchte:
Aussen-T/F 1651 04-12-2019 11:01:17 1 C 38 %
1652 04-12-2019 11:11:17 1.1 C 39 %
1653 04-12-2019 11:21:17 1.1 C 39 %
1654 04-12-2019 11:31:18 1.1 C 40 %
1655 04-12-2019 11:41:18 1 C 40 %
1656 04-12-2019 11:51:17 1.1 C 41 %
1657 04-12-2019 12:01:17 1.2 C 41 %
1658 04-12-2019 12:11:17 1.3 C 41 %
1659 04-12-2019 12:21:18 1.3 C 41 %
1660 04-12-2019 12:31:17 1.5 C 41 %
1661 04-12-2019 12:41:17 1.5 C 41 %
1662 04-12-2019 12:51:17 1.6 C 41 %
1663 04-12-2019 13:01:17 1.6 C 41 %
1664 04-12-2019 13:11:17 1.7 C 41 %
1665 04-12-2019 13:21:17 1.8 C 40 %
1666 04-12-2019 13:31:18 1.8 C 40 %
1667 04-12-2019 13:41:18 2.1 C 38 %
1668 04-12-2019 13:51:17 2.1 C 37 %
1669 04-12-2019 14:01:17 2.1 C 37 %
1670 04-12-2019 14:11:17 2.1 C 36 %
1671 04-12-2019 14:21:17 2.1 C 36 %
1672 04-12-2019 14:31:18 2 C 36 %
1673 04-12-2019 14:41:18 2.2 C 35 %
1674 04-12-2019 14:51:17 2.1 C 36 %
1675 04-12-2019 15:01:18 2 C 37 %
Sensor: Nr:Datum:Temp:Feuchte:
Aussen-T/F 1676 04-12-2019 15:11:18 1.7 C 38 %
1677 04-12-2019 15:21:17 1.7 C 40 %
1678 04-12-2019 15:31:17 1.7 C 40 %
1679 04-12-2019 15:41:17 1.8 C 39 %
1680 04-12-2019 15:51:18 1.8 C 39 %
1681 04-12-2019 16:01:17 1.6 C 37 %
1682 04-12-2019 16:11:17 1.5 C 37 %
1683 04-12-2019 16:21:17 1.4 C 37 %
1684 04-12-2019 16:31:17 1.4 C 37 %
1685 04-12-2019 16:41:17 1.2 C 37 %
1686 04-12-2019 16:51:17 1.1 C 36 %
1687 04-12-2019 17:01:17 1 C 37 %
1688 04-12-2019 17:11:17 1 C 37 %
1689 04-12-2019 17:21:18 1 C 36 %
1690 04-12-2019 17:31:17 0.9 C 38 %
1691 04-12-2019 17:41:17 0.6 C 38 %
1692 04-12-2019 17:51:18 0.7 C 39 %
1693 04-12-2019 18:01:17 0.8 C 38 %
1694 04-12-2019 18:11:17 0.3 C 39 %
1695 04-12-2019 18:21:17 0.4 C 40 %
1696 04-12-2019 18:31:17 0.6 C 40 %
1697 04-12-2019 18:41:17 -0.2 C 40 %
1698 04-12-2019 18:51:17 -0.5 C 41 %
1699 04-12-2019 19:01:17 -0.3 C 44 %
1700 04-12-2019 19:11:17 -0.7 C 42 %
Sensor: Nr:Datum:Temp:Feuchte:
Aussen-T/F 1701 04-12-2019 19:21:17 -1.1 C 42 %
1702 04-12-2019 19:31:17 -1 C 44 %
1703 04-12-2019 19:41:17 -1.2 C 44 %
1704 04-12-2019 19:51:17 -1.4 C 43 %
1705 04-12-2019 20:01:17 -1.3 C 44 %
1706 04-12-2019 20:11:17 -1.1 C 45 %
1707 04-12-2019 20:21:17 -1.5 C 44 %
1708 04-12-2019 20:31:17 -1.5 C 44 %
1709 04-12-2019 20:41:17 -1.8 C 43 %
1710 04-12-2019 20:51:18 -1.9 C 44 %
1711 04-12-2019 21:01:18 -1.9 C 44 %
1712 04-12-2019 21:11:18 -1.7 C 44 %
1713 04-12-2019 21:21:17 -2 C 43 %
1714 04-12-2019 21:31:17 -2 C 43 %
1715 04-12-2019 21:41:17 -2.4 C 43 %
1716 04-12-2019 21:51:17 -2.4 C 43 %
1717 04-12-2019 22:01:17 -2.5 C 43 %
1718 04-12-2019 22:11:17 -2.6 C 43 %
1719 04-12-2019 22:21:17 -2.7 C 44 %
1720 04-12-2019 22:31:18 -2.8 C 43 %
1721 04-12-2019 22:41:18 -2.7 C 43 %
1722 04-12-2019 22:51:17 -2.5 C 43 %
1723 04-12-2019 23:01:17 -2.6 C 42 %
1724 04-12-2019 23:11:17 -2.9 C 42 %
1725 04-12-2019 23:21:17 -2.7 C 42 %
Sensor: Nr:Datum:Temp:Feuchte:
Aussen-T/F 1726 04-12-2019 23:31:17 -2.7 C 42 %
1727 04-12-2019 23:41:17 -2.9 C 41 %
1728 04-12-2019 23:51:18 -2.9 C 42 %
1729 05-12-2019 00:01:17 -3 C 41 %
1730 05-12-2019 00:11:17 -3 C 41 %
1731 05-12-2019 00:21:17 -3.1 C 41 %
1732 05-12-2019 00:31:18 -2.8 C 41 %
1733 05-12-2019 00:41:18 -2.8 C 41 %
1734 05-12-2019 00:51:17 -2.9 C 41 %
1735 05-12-2019 01:01:17 -2.9 C 41 %
1736 05-12-2019 01:11:17 -3.2 C 41 %
1737 05-12-2019 01:21:17 -2.5 C 43 %
1738 05-12-2019 01:31:18 -2.6 C 43 %
1739 05-12-2019 01:41:18 -2.7 C 43 %
1740 05-12-2019 01:51:17 -2.6 C 43 %
1741 05-12-2019 02:01:17 -2.6 C 42 %
1742 05-12-2019 02:11:18 -2.8 C 41 %
1743 05-12-2019 02:21:17 -3 C 41 %
1744 05-12-2019 02:31:17 -3.2 C 41 %
1745 05-12-2019 02:41:17 -3.2 C 41 %
1746 05-12-2019 02:51:17 -3.2 C 41 %
1747 05-12-2019 03:01:17 -3.4 C 40 %
1748 05-12-2019 03:11:17 -3.5 C 40 %
1749 05-12-2019 03:21:17 -3.3 C 41 %
1750 05-12-2019 03:31:17 -3.2 C 41 %
Sensor: Nr:Datum:Temp:Feuchte:
Aussen-T/F 1751 05-12-2019 03:41:17 -3.6 C 40 %
1752 05-12-2019 03:51:17 -3 C 43 %
1753 05-12-2019 04:01:17 -2.7 C 43 %
1754 05-12-2019 04:11:17 -2.7 C 43 %
1755 05-12-2019 04:21:17 -2.7 C 43 %
1756 05-12-2019 04:31:18 -2.9 C 42 %
1757 05-12-2019 04:41:18 -3.3 C 40 %
1758 05-12-2019 04:51:17 -2.9 C 42 %
1759 05-12-2019 05:01:17 -2.8 C 43 %
1760 05-12-2019 05:11:17 -2.8 C 42 %
1761 05-12-2019 05:21:17 -2.7 C 43 %
1762 05-12-2019 05:31:17 -2.7 C 43 %
1763 05-12-2019 05:41:18 -2.5 C 43 %
1764 05-12-2019 05:51:17 -2.5 C 43 %
1765 05-12-2019 06:01:17 -2.6 C 43 %
1766 05-12-2019 06:11:17 -2.7 C 43 %
1767 05-12-2019 06:21:17 -2.9 C 43 %
1768 05-12-2019 06:31:17 -2.9 C 43 %
1769 05-12-2019 06:41:17 -3 C 42 %
1770 05-12-2019 06:51:17 -2.9 C 43 %
1771 05-12-2019 07:01:17 -2.9 C 42 %
1772 05-12-2019 07:11:17 -2.9 C 42 %
1773 05-12-2019 07:21:17 -3.2 C 42 %
1774 05-12-2019 07:31:17 -3.1 C 42 %
1775 05-12-2019 07:41:18 -2.9 C 42 %
Sensor: Nr:Datum:Temp:Feuchte:
Aussen-T/F 1776 05-12-2019 07:51:17 -2.9 C 42 %
1777 05-12-2019 08:01:17 -3 C 42 %
1778 05-12-2019 08:11:17 -2.8 C 43 %
1779 05-12-2019 08:21:18 -2.9 C 42 %
1780 05-12-2019 08:31:17 -2.8 C 42 %
1781 05-12-2019 08:41:17 -3 C 42 %
1782 05-12-2019 08:51:17 -3 C 42 %
1783 05-12-2019 09:01:18 -2.7 C 43 %
1784 05-12-2019 09:11:18 -2.6 C 43 %
1785 05-12-2019 09:21:17 -2.6 C 42 %
1786 05-12-2019 09:31:17 -2.6 C 42 %
1787 05-12-2019 09:41:17 -2.5 C 43 %
1788 05-12-2019 09:51:17 -2.4 C 42 %
1789 05-12-2019 10:01:18 -2.3 C 42 %
1790 05-12-2019 10:11:18 -2.4 C 42 %
1791 05-12-2019 10:21:17 -2.1 C 43 %
1792 05-12-2019 10:31:17 -1.7 C 43 %
1793 05-12-2019 10:41:17 -2 C 42 %
1794 05-12-2019 10:51:18 -1.7 C 42 %
1795 05-12-2019 11:01:17 -1.7 C 43 %
1796 05-12-2019 11:11:17 -1.4 C 42 %
1797 05-12-2019 11:21:17 -1.2 C 41 %
1798 05-12-2019 11:31:18 -1.2 C 41 %
1799 05-12-2019 11:41:18 -0.7 C 42 %
1800 05-12-2019 11:51:17 -0.9 C 42 %
Sensor: Nr:Datum:Temp:Feuchte:
Aussen-T/F 1801 05-12-2019 12:01:18 -1 C 41 %
1802 05-12-2019 12:11:18 -0.8 C 41 %
1803 05-12-2019 12:21:17 -0.6 C 41 %
1804 05-12-2019 12:31:17 -0.8 C 40 %
1805 05-12-2019 12:41:17 -0.9 C 40 %
1806 05-12-2019 12:51:18 -0.6 C 41 %
1807 05-12-2019 13:01:17 -0.5 C 40 %
1808 05-12-2019 13:11:17 -0.6 C 40 %
1809 05-12-2019 13:21:17 -0.4 C 41 %
1810 05-12-2019 13:31:17 -0.4 C 41 %
1811 05-12-2019 13:41:17 -0.2 C 41 %
1812 05-12-2019 13:51:17 0.1 C 40 %
1813 05-12-2019 14:01:18 0.1 C 40 %
1814 05-12-2019 14:11:18 0.2 C 40 %
1815 05-12-2019 14:21:17 0.2 C 40 %
1816 05-12-2019 14:31:17 0.2 C 40 %
1817 05-12-2019 14:41:17 0.2 C 40 %
1818 05-12-2019 14:51:17 0.2 C 41 %
1819 05-12-2019 15:01:17 0.1 C 41 %
1820 05-12-2019 15:11:17 0 C 41 %
1821 05-12-2019 15:21:17 -0.1 C 42 %
1822 05-12-2019 15:31:17 -0.1 C 43 %
1823 05-12-2019 15:41:17 -0.1 C 44 %
1824 05-12-2019 15:51:18 -0.1 C 44 %
1825 05-12-2019 16:01:17 -0.4 C 44 %
Sensor: Nr:Datum:Temp:Feuchte:
Aussen-T/F 1826 05-12-2019 16:11:17 -0.5 C 44 %
1827 05-12-2019 16:21:17 -0.7 C 45 %
1828 05-12-2019 16:31:18 -0.8 C 44 %
1829 05-12-2019 16:41:18 -1 C 44 %
1830 05-12-2019 16:51:17 -1 C 44 %
1831 05-12-2019 17:01:17 -1.2 C 44 %
1832 05-12-2019 17:11:17 -1.1 C 45 %
1833 05-12-2019 17:21:18 -1.2 C 45 %
1834 05-12-2019 17:31:17 -1.3 C 44 %
1835 05-12-2019 17:41:17 -1.7 C 44 %
1836 05-12-2019 17:51:17 -1.6 C 44 %
1837 05-12-2019 18:01:18 -1.8 C 43 %
1838 05-12-2019 18:11:18 -2 C 43 %
1839 05-12-2019 18:21:17 -2 C 43 %
1840 05-12-2019 18:31:17 -2 C 43 %
1841 05-12-2019 18:41:17 -2.2 C 43 %
1842 05-12-2019 18:51:18 -2.5 C 42 %
1843 05-12-2019 19:01:17 -2.1 C 43 %
1844 05-12-2019 19:11:17 -2.1 C 44 %
1845 05-12-2019 19:21:17 -2.6 C 42 %
1846 05-12-2019 19:31:17 -2.9 C 41 %
1847 05-12-2019 19:41:17 -2.6 C 42 %
1848 05-12-2019 19:51:18 -1.9 C 43 %
1849 05-12-2019 20:01:17 -1.5 C 44 %
1850 05-12-2019 20:11:17 -1.6 C 43 %
Sensor: Nr:Datum:Temp:Feuchte:
Aussen-T/F 1851 05-12-2019 20:21:17 -1.5 C 43 %
1852 05-12-2019 20:31:17 -1.9 C 42 %
1853 05-12-2019 20:41:17 -2 C 42 %
1854 05-12-2019 20:51:18 -2.1 C 42 %
1855 05-12-2019 21:01:17 -2.3 C 42 %
1856 05-12-2019 21:11:17 -2.6 C 42 %
1857 05-12-2019 21:21:17 -2.1 C 43 %
1858 05-12-2019 21:31:17 -2 C 43 %
1859 05-12-2019 21:41:17 -2 C 43 %
1860 05-12-2019 21:51:17 -2 C 43 %
1861 05-12-2019 22:01:17 -2.3 C 42 %
1862 05-12-2019 22:11:17 -2.3 C 42 %
1863 05-12-2019 22:21:18 -2.2 C 42 %
1864 05-12-2019 22:31:17 -2.4 C 42 %
1865 05-12-2019 22:41:17 -2.4 C 42 %
1866 05-12-2019 22:51:17 -2.3 C 42 %
1867 05-12-2019 23:01:17 -2.6 C 41 %
1868 05-12-2019 23:11:17 -2.7 C 41 %
1869 05-12-2019 23:21:18 -2.7 C 42 %
1870 05-12-2019 23:31:17 -3.1 C 41 %
1871 05-12-2019 23:41:17 -3.3 C 41 %
1872 05-12-2019 23:51:17 -3.2 C 42 %
1873 06-12-2019 00:01:18 -2.9 C 42 %
1874 06-12-2019 00:11:18 -3.4 C 40 %
1875 06-12-2019 00:21:17 -3.8 C 40 %
Sensor: Nr:Datum:Temp:Feuchte:
Aussen-T/F 1876 06-12-2019 00:31:17 -3.4 C 42 %
1877 06-12-2019 00:41:17 -3.2 C 42 %
1878 06-12-2019 00:51:17 -2.7 C 43 %
1879 06-12-2019 01:01:17 -2.4 C 43 %
1880 06-12-2019 01:11:17 -2.1 C 43 %
1881 06-12-2019 01:21:17 -2 C 41 %
1882 06-12-2019 01:31:18 -1.8 C 42 %
1883 06-12-2019 01:41:18 -1.6 C 43 %
1884 06-12-2019 01:51:17 -1.6 C 43 %
1885 06-12-2019 02:01:17 -1.4 C 42 %
1886 06-12-2019 02:11:17 -1.4 C 40 %
1887 06-12-2019 02:21:17 -1.6 C 40 %
1888 06-12-2019 02:31:17 -1.5 C 40 %
1889 06-12-2019 02:41:17 -1.7 C 39 %
1890 06-12-2019 02:51:17 -1.6 C 40 %
1891 06-12-2019 03:01:18 -1.4 C 39 %
1892 06-12-2019 03:11:18 -1.2 C 39 %
1893 06-12-2019 03:21:17 -1 C 38 %
1894 06-12-2019 03:31:17 -1 C 37 %
1895 06-12-2019 03:41:17 -1 C 38 %
1896 06-12-2019 03:51:17 -1.1 C 37 %
1897 06-12-2019 04:01:17 -1.2 C 38 %
1898 06-12-2019 04:11:17 -1.3 C 37 %
1899 06-12-2019 04:21:17 -1.3 C 38 %
1900 06-12-2019 04:31:17 -1.1 C 38 %
Sensor: Nr:Datum:Temp:Feuchte:
Aussen-T/F 1901 06-12-2019 04:41:17 -1.1 C 38 %
1902 06-12-2019 04:51:17 -0.8 C 38 %
1903 06-12-2019 05:01:17 -1 C 38 %
1904 06-12-2019 05:11:17 -0.8 C 37 %
1905 06-12-2019 05:21:17 -0.9 C 36 %
1906 06-12-2019 05:31:18 -1 C 37 %
1907 06-12-2019 05:41:18 -0.8 C 38 %
1908 06-12-2019 05:51:17 -0.6 C 36 %
1909 06-12-2019 06:01:17 -0.6 C 35 %
1910 06-12-2019 06:11:17 -0.6 C 36 %
1911 06-12-2019 06:21:17 -0.5 C 36 %
1912 06-12-2019 06:31:17 -0.5 C 35 %
1913 06-12-2019 06:41:17 -0.4 C 36 %
1914 06-12-2019 06:51:18 -0.4 C 37 %
1915 06-12-2019 07:01:17 -0.4 C 38 %
1916 06-12-2019 07:11:17 -0.4 C 38 %
1917 06-12-2019 07:21:17 -0.1 C 37 %
1918 06-12-2019 07:31:17 0 C 36 %
1919 06-12-2019 07:41:17 0.2 C 34 %
1920 06-12-2019 07:51:18 0.4 C 32 %
1921 06-12-2019 08:01:17 0.4 C 32 %
1922 06-12-2019 08:11:17 0.4 C 32 %
1923 06-12-2019 08:21:17 0.4 C 35 %
1924 06-12-2019 08:31:17 0.6 C 32 %
1925 06-12-2019 08:41:17 0.5 C 35 %
Sensor: Nr:Datum:Temp:Feuchte:
Aussen-T/F 1926 06-12-2019 08:51:18 0.5 C 35 %
1927 06-12-2019 09:01:17 0.6 C 36 %
1928 06-12-2019 09:11:17 0.8 C 36 %
1929 06-12-2019 09:21:17 1.2 C 33 %
1930 06-12-2019 09:31:17 1.4 C 33 %
1931 06-12-2019 09:41:17 1.5 C 33 %
1932 06-12-2019 09:51:17 1.7 C 34 %
1933 06-12-2019 10:01:17 1.8 C 33 %
1934 06-12-2019 10:11:17 1.8 C 35 %
1935 06-12-2019 10:21:18 1.9 C 36 %
1936 06-12-2019 10:31:17 1.9 C 36 %
1937 06-12-2019 10:41:17 2.4 C 35 %
1938 06-12-2019 10:51:17 2.5 C 35 %
1939 06-12-2019 11:01:18 2.7 C 35 %
1940 06-12-2019 11:11:18 3.2 C 32 %
1941 06-12-2019 11:21:17 3.3 C 32 %
1942 06-12-2019 11:31:17 3.5 C 32 %
1943 06-12-2019 11:41:17 3.5 C 32 %
1944 06-12-2019 11:51:17 3.5 C 33 %
1945 06-12-2019 12:01:17 3.6 C 33 %
1946 06-12-2019 12:11:17 3.6 C 33 %
1947 06-12-2019 12:21:17 3.6 C 35 %
1948 06-12-2019 12:31:18 3.7 C 37 %
1949 06-12-2019 12:41:18 3.7 C 39 %
1950 06-12-2019 12:51:17 3.7 C 40 %
Sensor: Nr:Datum:Temp:Feuchte:
Aussen-T/F 1951 06-12-2019 13:01:17 3.8 C 39 %
1952 06-12-2019 13:11:17 3.9 C 38 %
1953 06-12-2019 13:21:17 4 C 36 %
1954 06-12-2019 13:31:18 4.2 C 35 %
1955 06-12-2019 13:41:18 4.2 C 35 %
1956 06-12-2019 13:51:17 4.1 C 36 %
1957 06-12-2019 14:01:17 4.1 C 39 %
1958 06-12-2019 14:11:17 4.2 C 40 %
1959 06-12-2019 14:21:17 4.2 C 38 %
1960 06-12-2019 14:31:18 4.2 C 38 %
1961 06-12-2019 14:41:18 4.4 C 38 %
1962 06-12-2019 14:51:17 4.4 C 39 %
1963 06-12-2019 15:01:17 4.3 C 38 %
1964 06-12-2019 15:11:17 4.4 C 38 %
1965 06-12-2019 15:21:17 4.7 C 36 %
1966 06-12-2019 15:31:17 4.5 C 37 %
1967 06-12-2019 15:41:17 4.5 C 37 %
1968 06-12-2019 15:51:18 4.6 C 37 %
1969 06-12-2019 16:01:18 4.8 C 38 %
1970 06-12-2019 16:11:18 5 C 34 %
1971 06-12-2019 16:21:17 5.2 C 32 %
1972 06-12-2019 16:31:17 5.1 C 32 %
1973 06-12-2019 16:41:17 5.3 C 32 %
1974 06-12-2019 16:51:17 5.2 C 31 %
1975 06-12-2019 17:01:17 5.2 C 31 %
Sensor: Nr:Datum:Temp:Feuchte:
Aussen-T/F 1976 06-12-2019 17:11:17 5.3 C 31 %
1977 06-12-2019 17:21:17 5.3 C 30 %
1978 06-12-2019 17:31:18 5.5 C 30 %
1979 06-12-2019 17:41:18 5.6 C 29 %
1980 06-12-2019 17:51:17 5.5 C 30 %
1981 06-12-2019 18:01:17 5.9 C 29 %
1982 06-12-2019 18:11:17 6 C 28 %
1983 06-12-2019 18:21:18 6.2 C 29 %
1984 06-12-2019 18:31:17 6.1 C 28 %
1985 06-12-2019 18:41:17 6.1 C 29 %
1986 06-12-2019 18:51:17 5.9 C 30 %
1987 06-12-2019 19:01:17 5.6 C 31 %
1988 06-12-2019 19:11:17 5.8 C 32 %
1989 06-12-2019 19:21:17 5.9 C 31 %
1990 06-12-2019 19:31:17 6.2 C 30 %
1991 06-12-2019 19:41:17 6.5 C 28 %
1992 06-12-2019 19:51:17 6.5 C 28 %
1993 06-12-2019 20:01:17 6.8 C 28 %
1994 06-12-2019 20:11:17 6.7 C 28 %
1995 06-12-2019 20:21:17 6.8 C 28 %
1996 06-12-2019 20:31:17 6.7 C 28 %
1997 06-12-2019 20:41:17 6.7 C 28 %
1998 06-12-2019 20:51:18 6.7 C 28 %
1999 06-12-2019 21:01:17 6.8 C 27 %
2000 06-12-2019 21:11:17 6.7 C 28 %
Sensor: Nr:Datum:Temp:Feuchte:
Aussen-T/F 2001 06-12-2019 21:21:17 6.7 C 28 %
2002 06-12-2019 21:31:17 6.6 C 28 %
2003 06-12-2019 21:41:17 6.5 C 28 %
2004 06-12-2019 21:51:17 6.5 C 29 %
2005 06-12-2019 22:01:17 6.6 C 29 %
2006 06-12-2019 22:11:17 6.7 C 28 %
2007 06-12-2019 22:21:17 6.7 C 28 %
2008 06-12-2019 22:31:17 6.7 C 28 %
2009 06-12-2019 22:41:17 6.9 C 28 %
2010 06-12-2019 22:51:17 6.9 C 27 %
2011 06-12-2019 23:01:18 7 C 27 %
2012 06-12-2019 23:11:18 6.9 C 28 %
2013 06-12-2019 23:21:17 6.8 C 29 %
2014 06-12-2019 23:31:17 6.8 C 29 %
2015 06-12-2019 23:41:17 6.9 C 29 %
2016 06-12-2019 23:51:18 6.8 C 30 %
2017 07-12-2019 00:01:17 6.9 C 30 %
2018 07-12-2019 00:11:17 7 C 28 %
2019 07-12-2019 00:21:17 7.2 C 28 %
2020 07-12-2019 00:31:17 7.2 C 28 %
2021 07-12-2019 00:41:17 7.2 C 28 %
2022 07-12-2019 00:51:17 7.4 C 28 %
2023 07-12-2019 01:01:17 7.4 C 28 %
2024 07-12-2019 01:11:17 7.6 C 28 %
2025 07-12-2019 01:21:17 7.7 C 28 %
Sensor: Nr:Datum:Temp:Feuchte:
Aussen-T/F 2026 07-12-2019 01:31:18 7.8 C 28 %
2027 07-12-2019 01:41:18 7.6 C 29 %
2028 07-12-2019 01:51:17 7.6 C 29 %
2029 07-12-2019 02:01:17 7.5 C 30 %
2030 07-12-2019 02:11:17 7.7 C 31 %
2031 07-12-2019 02:21:17 7.5 C 31 %
2032 07-12-2019 02:31:17 7.1 C 35 %
2033 07-12-2019 02:41:17 7.2 C 38 %
2034 07-12-2019 02:51:17 7.3 C 35 %
2035 07-12-2019 03:01:17 7.4 C 35 %
2036 07-12-2019 03:11:17 7.6 C 33 %
2037 07-12-2019 03:21:17 8.4 C 30 %
2038 07-12-2019 03:31:17 8.5 C 29 %
2039 07-12-2019 03:41:17 8.7 C 28 %
2040 07-12-2019 03:51:17 9 C 27 %
2041 07-12-2019 04:01:18 8.4 C 29 %
2042 07-12-2019 04:11:18 8.5 C 29 %
2043 07-12-2019 04:21:17 8 C 30 %
2044 07-12-2019 04:31:17 7.9 C 30 %
2045 07-12-2019 04:41:17 8 C 30 %
2046 07-12-2019 04:51:17 8 C 30 %
2047 07-12-2019 05:01:17 7.7 C 30 %
2048 07-12-2019 05:11:17 8 C 30 %
2049 07-12-2019 05:21:17 8 C 30 %
2050 07-12-2019 05:31:17 7.8 C 31 %
Sensor: Nr:Datum:Temp:Feuchte:
Aussen-T/F 2051 07-12-2019 05:41:17 8.2 C 30 %
2052 07-12-2019 05:51:18 7.2 C 31 %
2053 07-12-2019 06:01:18 7.6 C 30 %
2054 07-12-2019 06:11:18 8.7 C 26 %
2055 07-12-2019 06:21:17 8.6 C 26 %
2056 07-12-2019 06:31:18 8.2 C 26 %
2057 07-12-2019 06:41:18 8.1 C 26 %
2058 07-12-2019 06:51:17 7.5 C 27 %
2059 07-12-2019 07:01:17 6.8 C 30 %
2060 07-12-2019 07:11:17 7.1 C 28 %
2061 07-12-2019 07:21:17 7.3 C 27 %
2062 07-12-2019 07:31:17 6.8 C 30 %
2063 07-12-2019 07:41:17 6.3 C 31 %
2064 07-12-2019 07:51:18 7.8 C 28 %
2065 07-12-2019 08:01:18 8 C 27 %
2066 07-12-2019 08:11:18 7.9 C 28 %
2067 07-12-2019 08:21:17 8.1 C 28 %
2068 07-12-2019 08:31:17 8.1 C 27 %
2069 07-12-2019 08:41:17 8.3 C 28 %
2070 07-12-2019 08:51:17 8.4 C 27 %
2071 07-12-2019 09:01:17 8.4 C 27 %
2072 07-12-2019 09:11:17 8.3 C 28 %
2073 07-12-2019 09:21:17 8.2 C 28 %
2074 07-12-2019 09:31:17 8.1 C 29 %
2075 07-12-2019 09:41:17 8.3 C 28 %
Sensor: Nr:Datum:Temp:Feuchte:
Aussen-T/F 2076 07-12-2019 09:51:18 8.6 C 27 %
2077 07-12-2019 10:01:17 8.6 C 27 %
2078 07-12-2019 10:11:17 8.8 C 27 %
2079 07-12-2019 10:21:17 9 C 26 %
2080 07-12-2019 10:31:17 9.1 C 25 %
2081 07-12-2019 10:41:17 9.1 C 26 %
2082 07-12-2019 10:51:18 9.2 C 25 %
2083 07-12-2019 11:01:18 9 C 26 %
2084 07-12-2019 11:11:18 8.4 C 29 %
2085 07-12-2019 11:21:17 8.3 C 30 %
2086 07-12-2019 11:31:17 8.4 C 30 %
2087 07-12-2019 11:41:17 8.5 C 30 %
2088 07-12-2019 11:51:17 8.6 C 28 %
2089 07-12-2019 12:01:17 8.8 C 27 %
2090 07-12-2019 12:11:17 8.9 C 27 %
2091 07-12-2019 12:21:17 9.2 C 25 %
2092 07-12-2019 12:31:18 9.4 C 25 %
2093 07-12-2019 12:41:18 9.5 C 25 %
2094 07-12-2019 12:51:17 9.5 C 25 %
2095 07-12-2019 13:01:17 9.7 C 23 %
2096 07-12-2019 13:11:17 10 C 20 %
2097 07-12-2019 13:21:17 9.8 C 20 %
2098 07-12-2019 13:31:17 9.8 C 20 %
2099 07-12-2019 13:41:17 9.9 C 20 %
2100 07-12-2019 13:51:17 9.9 C 20 %
Sensor: Nr:Datum:Temp:Feuchte:
Aussen-T/F 2101 07-12-2019 14:01:17 9.8 C 20 %
2102 07-12-2019 14:11:17 9.7 C 20 %
2103 07-12-2019 14:21:17 9.9 C 20 %
2104 07-12-2019 14:31:18 9.9 C 20 %
2105 07-12-2019 14:41:18 9.9 C 20 %
2106 07-12-2019 14:51:17 9.9 C 20 %
2107 07-12-2019 15:01:17 9.9 C 20 %
2108 07-12-2019 15:11:17 9.7 C 21 %
2109 07-12-2019 15:21:17 9.6 C 21 %
2110 07-12-2019 15:31:17 9.7 C 21 %
2111 07-12-2019 15:41:17 9.6 C 20 %
2112 07-12-2019 15:51:17 9.4 C 23 %
2113 07-12-2019 16:01:17 9 C 25 %
2114 07-12-2019 16:11:17 8.9 C 25 %
2115 07-12-2019 16:21:18 8.8 C 25 %
2116 07-12-2019 16:31:17 8.6 C 26 %
2117 07-12-2019 16:41:18 8.5 C 26 %
2118 07-12-2019 16:51:17 8.2 C 27 %
2119 07-12-2019 17:01:17 8.1 C 29 %
2120 07-12-2019 17:11:17 8.2 C 28 %
2121 07-12-2019 17:21:17 8.1 C 28 %
2122 07-12-2019 17:31:18 8.2 C 28 %
2123 07-12-2019 17:41:18 8.3 C 27 %
2124 07-12-2019 17:51:17 8.1 C 27 %
2125 07-12-2019 18:01:18 8 C 28 %
Sensor: Nr:Datum:Temp:Feuchte:
Aussen-T/F 2126 07-12-2019 18:11:18 8 C 27 %
2127 07-12-2019 18:21:17 7.8 C 28 %
2128 07-12-2019 18:31:17 7.7 C 29 %
2129 07-12-2019 18:41:17 7.6 C 30 %
2130 07-12-2019 18:51:17 7.6 C 30 %
2131 07-12-2019 19:01:17 7.5 C 31 %
2132 07-12-2019 19:11:17 7.5 C 31 %
2133 07-12-2019 19:21:17 7.5 C 32 %
2134 07-12-2019 19:31:17 7.7 C 31 %
2135 07-12-2019 19:41:17 7.6 C 30 %
2136 07-12-2019 19:51:17 7.7 C 30 %
2137 07-12-2019 20:01:18 7.4 C 30 %
2138 07-12-2019 20:11:18 7.3 C 31 %
2139 07-12-2019 20:21:17 7.3 C 31 %
2140 07-12-2019 20:31:17 7.4 C 30 %
2141 07-12-2019 20:41:17 7.6 C 30 %
2142 07-12-2019 20:51:17 7.6 C 30 %
2143 07-12-2019 21:01:17 7.5 C 30 %
2144 07-12-2019 21:11:17 7.6 C 30 %
2145 07-12-2019 21:21:17 8 C 28 %
2146 07-12-2019 21:31:17 8.1 C 28 %
2147 07-12-2019 21:41:17 8.2 C 28 %
2148 07-12-2019 21:51:17 7.9 C 28 %
2149 07-12-2019 22:01:17 8.2 C 28 %
2150 07-12-2019 22:11:17 8.1 C 27 %
Sensor: Nr:Datum:Temp:Feuchte:
Aussen-T/F 2151 07-12-2019 22:21:17 7.8 C 28 %
2152 07-12-2019 22:31:18 7.7 C 30 %
2153 07-12-2019 22:41:18 7.6 C 30 %
2154 07-12-2019 22:51:17 7.5 C 31 %
2155 07-12-2019 23:01:17 7.4 C 32 %
2156 07-12-2019 23:11:17 7.6 C 31 %
2157 07-12-2019 23:21:17 7.6 C 32 %
2158 07-12-2019 23:31:17 7.5 C 32 %
2159 07-12-2019 23:41:17 7.7 C 31 %
2160 07-12-2019 23:51:18 7.9 C 28 %
2161 08-12-2019 00:01:17 8.1 C 27 %
2162 08-12-2019 00:11:17 8.9 C 23 %
2163 08-12-2019 00:21:17 8.9 C 21 %
2164 08-12-2019 00:31:18 9 C 21 %
2165 08-12-2019 00:41:18 8.9 C 23 %
2166 08-12-2019 00:51:17 8.5 C 25 %
2167 08-12-2019 01:01:18 8.3 C 25 %
2168 08-12-2019 01:11:18 8.5 C 25 %
2169 08-12-2019 01:21:17 8.4 C 26 %
2170 08-12-2019 01:31:17 8.9 C 25 %
2171 08-12-2019 01:41:17 8.8 C 25 %
2172 08-12-2019 01:51:18 9.2 C 20 %
2173 08-12-2019 02:01:17 9.2 C 20 %
2174 08-12-2019 02:11:17 8.9 C 20 %
2175 08-12-2019 02:21:17 9 C 20 %
Sensor: Nr:Datum:Temp:Feuchte:
Aussen-T/F 2176 08-12-2019 02:31:17 9.1 C 20 %
2177 08-12-2019 02:41:18 9 C 20 %
2178 08-12-2019 02:51:17 9.1 C 20 %
2179 08-12-2019 03:01:17 9 C 20 %
2180 08-12-2019 03:11:17 9.1 C 20 %
2181 08-12-2019 03:21:17 9.1 C 20 %
2182 08-12-2019 03:31:17 9.3 C 20 %
2183 08-12-2019 03:41:17 9.3 C 20 %
2184 08-12-2019 03:51:17 9.4 C 20 %
2185 08-12-2019 04:01:17 9.7 C 20 %
2186 08-12-2019 04:11:18 9.6 C 20 %
2187 08-12-2019 04:21:17 9.5 C 20 %
2188 08-12-2019 04:31:17 9.6 C 20 %
2189 08-12-2019 04:41:17 9.6 C 20 %
2190 08-12-2019 04:51:17 9.5 C 20 %
2191 08-12-2019 05:01:17 9.6 C 20 %
2192 08-12-2019 05:11:17 9.5 C 21 %
2193 08-12-2019 05:21:17 9.5 C 21 %
2194 08-12-2019 05:31:17 9.4 C 23 %
2195 08-12-2019 05:41:17 9.5 C 23 %
2196 08-12-2019 05:51:17 9.2 C 25 %
2197 08-12-2019 06:01:17 9.3 C 25 %
2198 08-12-2019 06:11:18 9.5 C 25 %
2199 08-12-2019 06:21:17 9.9 C 21 %
2200 08-12-2019 06:31:17 9.8 C 23 %
Sensor: Nr:Datum:Temp:Feuchte:
Aussen-T/F 2201 08-12-2019 06:41:17 9.7 C 25 %
2202 08-12-2019 06:51:17 9.9 C 23 %
2203 08-12-2019 07:01:18 10 C 21 %
2204 08-12-2019 07:11:18 10.1 C 20 %
2205 08-12-2019 07:21:17 9.9 C 21 %
2206 08-12-2019 07:31:17 10 C 21 %
2207 08-12-2019 07:41:17 10.1 C 20 %
2208 08-12-2019 07:51:17 10 C 20 %
2209 08-12-2019 08:01:17 10 C 20 %
2210 08-12-2019 08:11:17 10.2 C 20 %
2211 08-12-2019 08:21:17 10.1 C 20 %
2212 08-12-2019 08:31:17 10.3 C 21 %
2213 08-12-2019 08:41:17 10.1 C 21 %
2214 08-12-2019 08:51:17 10.3 C 21 %
2215 08-12-2019 09:01:17 10.3 C 21 %
2216 08-12-2019 09:11:17 10.1 C 21 %
2217 08-12-2019 09:21:17 10.2 C 21 %
2218 08-12-2019 09:31:17 10.3 C 21 %
2219 08-12-2019 09:41:17 10.4 C 21 %
2220 08-12-2019 09:51:17 10.4 C 21 %
2221 08-12-2019 10:01:17 10.4 C 21 %
2222 08-12-2019 10:11:17 10.5 C 21 %
2223 08-12-2019 10:21:17 10.5 C 22 %
2224 08-12-2019 10:31:17 10.5 C 22 %
2225 08-12-2019 10:41:17 10.1 C 25 %
Sensor: Nr:Datum:Temp:Feuchte:
Aussen-T/F 2226 08-12-2019 10:51:17 10.2 C 25 %
2227 08-12-2019 11:01:17 10.5 C 25 %
2228 08-12-2019 11:11:17 10.6 C 23 %
2229 08-12-2019 11:21:17 10.8 C 23 %
2230 08-12-2019 11:31:17 10.8 C 23 %
2231 08-12-2019 11:41:17 10.8 C 22 %
2232 08-12-2019 11:51:17 11 C 22 %
2233 08-12-2019 12:01:18 11.1 C 22 %
2234 08-12-2019 12:11:18 11.3 C 22 %
2235 08-12-2019 12:21:17 11.4 C 22 %
2236 08-12-2019 12:31:17 11.4 C 22 %
2237 08-12-2019 12:41:17 11.4 C 23 %
2238 08-12-2019 12:51:17 11.3 C 24 %
2239 08-12-2019 13:01:18 11.5 C 24 %
2240 08-12-2019 13:11:18 11.5 C 22 %
2241 08-12-2019 13:21:17 11.3 C 25 %
2242 08-12-2019 13:31:17 11.1 C 25 %
2243 08-12-2019 13:41:17 11.4 C 25 %
2244 08-12-2019 13:51:17 11.4 C 25 %
2245 08-12-2019 14:01:17 11.5 C 25 %
2246 08-12-2019 14:11:17 11.5 C 25 %
2247 08-12-2019 14:21:17 11.5 C 25 %
2248 08-12-2019 14:31:18 11.7 C 25 %
2249 08-12-2019 14:41:18 11.7 C 25 %
2250 08-12-2019 14:51:17 11.7 C 25 %
Sensor: Nr:Datum:Temp:Feuchte:
Aussen-T/F 2251 08-12-2019 15:01:18 11.8 C 25 %
2252 08-12-2019 15:11:18 11.8 C 25 %
2253 08-12-2019 15:21:18 11.7 C 25 %
2254 08-12-2019 15:31:18 11.7 C 25 %
2255 08-12-2019 15:41:18 11.8 C 25 %
2256 08-12-2019 15:51:17 11.8 C 25 %
2257 08-12-2019 16:01:17 11.7 C 25 %
2258 08-12-2019 16:11:17 11.8 C 25 %
2259 08-12-2019 16:21:18 11.7 C 25 %
2260 08-12-2019 16:31:18 11.6 C 26 %
2261 08-12-2019 16:41:18 11.4 C 27 %
2262 08-12-2019 16:51:17 9.4 C 31 %
2263 08-12-2019 17:01:17 8.9 C 33 %
2264 08-12-2019 17:11:17 8.8 C 33 %
2265 08-12-2019 17:21:17 8.7 C 34 %
2266 08-12-2019 17:31:17 9.2 C 27 %
2267 08-12-2019 17:41:17 8.5 C 33 %
2268 08-12-2019 17:51:17 8.5 C 33 %
2269 08-12-2019 18:01:17 8.5 C 32 %
2270 08-12-2019 18:11:17 8.6 C 31 %
2271 08-12-2019 18:21:17 8.2 C 33 %
2272 08-12-2019 18:31:18 8.5 C 29 %
2273 08-12-2019 18:41:18 8.5 C 29 %
2274 08-12-2019 18:51:17 8.6 C 28 %
2275 08-12-2019 19:01:17 8.9 C 27 %
Sensor: Nr:Datum:Temp:Feuchte:
Aussen-T/F 2276 08-12-2019 19:11:17 8.5 C 28 %
2277 08-12-2019 19:21:17 8.5 C 28 %
2278 08-12-2019 19:31:17 8.6 C 27 %
2279 08-12-2019 19:41:17 8 C 31 %
2280 08-12-2019 19:51:18 7.8 C 33 %
2281 08-12-2019 20:01:17 7.5 C 36 %
2282 08-12-2019 20:11:17 8.1 C 33 %
2283 08-12-2019 20:21:17 8.2 C 30 %
2284 08-12-2019 20:31:17 8.3 C 29 %
2285 08-12-2019 20:41:17 8.5 C 28 %
2286 08-12-2019 20:51:17 8.6 C 26 %
2287 08-12-2019 21:01:18 8.8 C 26 %
2288 08-12-2019 21:11:18 8.9 C 25 %
2289 08-12-2019 21:21:17 8.4 C 26 %
2290 08-12-2019 21:31:17 8.7 C 26 %
2291 08-12-2019 21:41:17 8.4 C 26 %
2292 08-12-2019 21:51:18 8.4 C 26 %
2293 08-12-2019 22:01:17 8.5 C 26 %
2294 08-12-2019 22:11:17 7.9 C 27 %
2295 08-12-2019 22:21:17 8.1 C 26 %
2296 08-12-2019 22:31:17 8.6 C 26 %
2297 08-12-2019 22:41:17 8.8 C 26 %
2298 08-12-2019 22:51:17 8.7 C 25 %
2299 08-12-2019 23:01:17 8.8 C 25 %
2300 08-12-2019 23:11:17 8.7 C 26 %
Sensor: Nr:Datum:Temp:Feuchte:
Aussen-T/F 2301 08-12-2019 23:21:17 8.8 C 25 %
2302 08-12-2019 23:31:18 8.7 C 25 %
2303 08-12-2019 23:41:18 8.5 C 25 %
2304 08-12-2019 23:51:17 8.4 C 21 %
2305 09-12-2019 00:01:18 8.7 C 20 %
2306 09-12-2019 00:11:18 8.1 C 21 %
2307 09-12-2019 00:21:17 8.4 C 21 %
2308 09-12-2019 00:31:17 8.4 C 21 %
2309 09-12-2019 00:41:17 8.5 C 20 %
2310 09-12-2019 00:51:17 8.4 C 20 %
2311 09-12-2019 01:01:17 8.4 C 20 %
2312 09-12-2019 01:11:17 8.5 C 20 %
2313 09-12-2019 01:21:18 8.1 C 20 %
2314 09-12-2019 01:31:17 8 C 20 %
2315 09-12-2019 01:41:17 8.3 C 20 %
2316 09-12-2019 01:51:17 8.2 C 20 %
2317 09-12-2019 02:01:17 7.8 C 20 %
2318 09-12-2019 02:11:17 7.6 C 20 %
2319 09-12-2019 02:21:17 7.4 C 21 %
2320 09-12-2019 02:31:18 7.4 C 21 %
2321 09-12-2019 02:41:18 7.1 C 23 %
2322 09-12-2019 02:51:18 7.5 C 20 %
2323 09-12-2019 03:01:17 7.5 C 20 %
2324 09-12-2019 03:11:17 7.5 C 20 %
2325 09-12-2019 03:21:17 7.5 C 20 %
Sensor: Nr:Datum:Temp:Feuchte:
Aussen-T/F 2326 09-12-2019 03:31:17 7.3 C 20 %
2327 09-12-2019 03:41:17 6.8 C 23 %
2328 09-12-2019 03:51:17 7.3 C 21 %
2329 09-12-2019 04:01:17 7.3 C 20 %
2330 09-12-2019 04:11:17 7.9 C 20 %
2331 09-12-2019 04:21:18 8 C 20 %
2332 09-12-2019 04:31:18 7.6 C 20 %
2333 09-12-2019 04:41:18 7.4 C 21 %
2334 09-12-2019 04:51:17 6.9 C 25 %
2335 09-12-2019 05:01:17 6.9 C 25 %
2336 09-12-2019 05:11:17 7.4 C 20 %
2337 09-12-2019 05:21:17 7.5 C 20 %
2338 09-12-2019 05:31:17 7.4 C 20 %
2339 09-12-2019 05:41:18 7.1 C 20 %
2340 09-12-2019 05:51:17 7.2 C 20 %
2341 09-12-2019 06:01:17 7.4 C 20 %
2342 09-12-2019 06:11:17 7.4 C 20 %
2343 09-12-2019 06:21:17 7.4 C 20 %
2344 09-12-2019 06:31:17 7.6 C 20 %
2345 09-12-2019 06:41:17 7.8 C 20 %
2346 09-12-2019 06:51:18 7.7 C 20 %
2347 09-12-2019 07:01:17 7.6 C 20 %
2348 09-12-2019 07:11:18 7.5 C 20 %
2349 09-12-2019 07:21:17 7.2 C 20 %
2350 09-12-2019 07:31:17 7.2 C 20 %
Sensor: Nr:Datum:Temp:Feuchte:
Aussen-T/F 2351 09-12-2019 07:41:17 7.6 C 20 %
2352 09-12-2019 07:51:18 7.5 C 20 %
2353 09-12-2019 08:01:17 7.9 C 20 %
2354 09-12-2019 08:11:17 7.8 C 20 %
2355 09-12-2019 08:21:17 7.9 C 20 %
2356 09-12-2019 08:31:17 8 C 20 %
2357 09-12-2019 08:41:17 7.9 C 20 %
2358 09-12-2019 08:51:17 7.9 C 20 %
2359 09-12-2019 09:01:17 7.8 C 20 %
2360 09-12-2019 09:11:17 7.9 C 20 %
2361 09-12-2019 09:21:17 7.5 C 20 %
2362 09-12-2019 09:31:17 7.4 C 23 %
2363 09-12-2019 09:41:17 7.5 C 21 %
2364 09-12-2019 09:51:17 7.7 C 21 %
2365 09-12-2019 10:01:17 7.9 C 21 %
2366 09-12-2019 10:11:17 7.9 C 21 %
2367 09-12-2019 10:21:17 7.9 C 20 %
2368 09-12-2019 10:31:18 7.9 C 21 %
2369 09-12-2019 10:41:18 7.9 C 21 %
2370 09-12-2019 10:51:17 8.1 C 20 %
2371 09-12-2019 11:01:17 8 C 20 %
2372 09-12-2019 11:11:17 8.2 C 20 %
2373 09-12-2019 11:21:17 8.4 C 20 %
2374 09-12-2019 11:31:18 8.4 C 20 %
2375 09-12-2019 11:41:18 8.3 C 20 %
Sensor: Nr:Datum:Temp:Feuchte:
Aussen-T/F 2376 09-12-2019 11:51:17 8.1 C 20 %
2377 09-12-2019 12:01:17 8.2 C 20 %
2378 09-12-2019 12:11:17 8 C 20 %
2379 09-12-2019 12:21:18 8.1 C 20 %
2380 09-12-2019 12:31:17 8.3 C 20 %
2381 09-12-2019 12:41:17 8.2 C 20 %
2382 09-12-2019 12:51:17 8.3 C 20 %
2383 09-12-2019 13:01:18 8.3 C 20 %
2384 09-12-2019 13:11:18 8.3 C 20 %
2385 09-12-2019 13:21:17 8.2 C 20 %
2386 09-12-2019 13:31:17 8.1 C 20 %
2387 09-12-2019 13:41:17 8.5 C 20 %
2388 09-12-2019 13:51:17 8.8 C 20 %
2389 09-12-2019 14:01:17 8.6 C 20 %
2390 09-12-2019 14:11:17 8.5 C 20 %
2391 09-12-2019 14:21:17 8.6 C 20 %
2392 09-12-2019 14:31:17 8.4 C 20 %
2393 09-12-2019 14:41:17 7.9 C 20 %
2394 09-12-2019 14:51:18 8.4 C 20 %
2395 09-12-2019 15:01:17 7.9 C 20 %
2396 09-12-2019 15:11:17 7.3 C 25 %
2397 09-12-2019 15:21:17 7 C 27 %
2398 09-12-2019 15:31:18 7.1 C 26 %
2399 09-12-2019 15:41:18 7.1 C 25 %
2400 09-12-2019 15:51:17 7.4 C 23 %
Sensor: Nr:Datum:Temp:Feuchte:
Aussen-T/F 2401 09-12-2019 16:01:18 7.5 C 20 %
2402 09-12-2019 16:11:18 7.5 C 20 %
2403 09-12-2019 16:21:17 7.6 C 20 %
2404 09-12-2019 16:31:18 7.3 C 20 %
2405 09-12-2019 16:41:18 7.4 C 20 %
2406 09-12-2019 16:51:17 7.3 C 20 %
2407 09-12-2019 17:01:18 7.1 C 20 %
2408 09-12-2019 17:11:18 7.2 C 20 %
2409 09-12-2019 17:21:17 6.7 C 25 %
2410 09-12-2019 17:31:17 6.1 C 32 %
2411 09-12-2019 17:41:17 5.9 C 36 %
2412 09-12-2019 17:51:17 6 C 34 %
2413 09-12-2019 18:01:18 6 C 30 %
2414 09-12-2019 18:11:18 6.1 C 31 %
2415 09-12-2019 18:21:17 6 C 33 %
2416 09-12-2019 18:31:17 5.8 C 35 %
2417 09-12-2019 18:41:17 5.7 C 37 %
2418 09-12-2019 18:51:18 5.7 C 38 %
2419 09-12-2019 19:01:17 5.6 C 35 %
2420 09-12-2019 19:11:17 5.5 C 38 %
2421 09-12-2019 19:21:17 5.6 C 39 %
2422 09-12-2019 19:31:17 5.6 C 38 %
2423 09-12-2019 19:41:17 5.6 C 38 %
2424 09-12-2019 19:51:17 5.6 C 37 %
2425 09-12-2019 20:01:17 5.6 C 35 %
Sensor: Nr:Datum:Temp:Feuchte:
Aussen-T/F 2426 09-12-2019 20:11:17 5.6 C 34 %
2427 09-12-2019 20:21:17 5.6 C 35 %
2428 09-12-2019 20:31:17 5.6 C 32 %
2429 09-12-2019 20:41:17 5.4 C 33 %
2430 09-12-2019 20:51:17 5.3 C 34 %
2431 09-12-2019 21:01:17 5.2 C 33 %
2432 09-12-2019 21:11:18 5.1 C 34 %
2433 09-12-2019 21:21:17 5.2 C 35 %
2434 09-12-2019 21:31:17 5.3 C 32 %
2435 09-12-2019 21:41:17 5.1 C 31 %
2436 09-12-2019 21:51:17 5 C 31 %
2437 09-12-2019 22:01:17 4.8 C 32 %
2438 09-12-2019 22:11:17 4.7 C 31 %
2439 09-12-2019 22:21:17 4.9 C 30 %
2440 09-12-2019 22:31:17 4.9 C 30 %
2441 09-12-2019 22:41:17 4.9 C 30 %
2442 09-12-2019 22:51:18 4.7 C 30 %
2443 09-12-2019 23:01:17 4.6 C 29 %
2444 09-12-2019 23:11:17 4.5 C 29 %
2445 09-12-2019 23:21:17 4.1 C 30 %
2446 09-12-2019 23:31:18 4 C 30 %
2447 09-12-2019 23:41:18 4.1 C 29 %
2448 09-12-2019 23:51:17 4.1 C 29 %
2449 10-12-2019 00:01:17 3.7 C 30 %
2450 10-12-2019 00:11:17 4.1 C 28 %
Sensor: Nr:Datum:Temp:Feuchte:
Aussen-T/F 2451 10-12-2019 00:21:17 3.4 C 30 %
2452 10-12-2019 00:31:17 3.6 C 30 %
2453 10-12-2019 00:41:17 3.1 C 31 %
2454 10-12-2019 00:51:17 3 C 31 %
2455 10-12-2019 01:01:17 2.4 C 33 %
2456 10-12-2019 01:11:17 2.4 C 36 %
2457 10-12-2019 01:21:17 2.5 C 36 %
2458 10-12-2019 01:31:18 2.8 C 34 %
2459 10-12-2019 01:41:18 2.4 C 34 %
2460 10-12-2019 01:51:17 2.4 C 33 %
2461 10-12-2019 02:01:18 2.7 C 33 %
2462 10-12-2019 02:11:18 2.9 C 32 %
2463 10-12-2019 02:21:17 2.3 C 33 %
2464 10-12-2019 02:31:17 2.1 C 35 %
2465 10-12-2019 02:41:17 1.7 C 37 %
2466 10-12-2019 02:51:17 1.6 C 39 %
2467 10-12-2019 03:01:17 1.8 C 40 %
2468 10-12-2019 03:11:17 1.8 C 40 %
2469 10-12-2019 03:21:17 1.8 C 40 %
2470 10-12-2019 03:31:17 2 C 40 %
2471 10-12-2019 03:41:17 1.4 C 41 %
2472 10-12-2019 03:51:17 1.4 C 43 %
2473 10-12-2019 04:01:17 1.1 C 43 %
2474 10-12-2019 04:11:17 1.3 C 41 %
2475 10-12-2019 04:21:17 0.6 C 41 %
Sensor: Nr:Datum:Temp:Feuchte:
Aussen-T/F 2476 10-12-2019 04:31:18 0.6 C 44 %
2477 10-12-2019 04:41:18 0.7 C 45 %
2478 10-12-2019 04:51:17 0.9 C 46 %
2479 10-12-2019 05:01:17 1.1 C 44 %
2480 10-12-2019 05:11:17 1.8 C 41 %
2481 10-12-2019 05:21:18 2.2 C 35 %
2482 10-12-2019 05:31:18 2 C 35 %
2483 10-12-2019 05:41:18 2 C 35 %
2484 10-12-2019 05:51:17 1.8 C 36 %
2485 10-12-2019 06:01:17 1.5 C 36 %
2486 10-12-2019 06:11:17 1.6 C 37 %
2487 10-12-2019 06:21:18 1.4 C 36 %
2488 10-12-2019 06:31:17 1.1 C 38 %
2489 10-12-2019 06:41:17 0.9 C 42 %
2490 10-12-2019 06:51:17 1.2 C 42 %
2491 10-12-2019 07:01:18 1.3 C 40 %
2492 10-12-2019 07:11:18 1.5 C 40 %
2493 10-12-2019 07:21:17 1.7 C 36 %
2494 10-12-2019 07:31:17 1.2 C 37 %
2495 10-12-2019 07:41:17 0.8 C 41 %
2496 10-12-2019 07:51:17 0.8 C 41 %
2497 10-12-2019 08:01:17 0.7 C 41 %
2498 10-12-2019 08:11:17 0.8 C 41 %
2499 10-12-2019 08:21:17 0.4 C 42 %
2500 10-12-2019 08:31:18 0.6 C 42 %
Sensor: Nr:Datum:Temp:Feuchte:
Aussen-T/F 2501 10-12-2019 08:41:18 0.4 C 42 %
2502 10-12-2019 08:51:17 0.4 C 43 %
2503 10-12-2019 09:01:17 0.1 C 42 %
2504 10-12-2019 09:11:17 0.5 C 44 %
2505 10-12-2019 09:21:17 0.8 C 44 %
2506 10-12-2019 09:31:17 1.4 C 42 %
2507 10-12-2019 09:41:17 1.7 C 39 %
2508 10-12-2019 09:51:17 1.8 C 39 %
2509 10-12-2019 10:01:17 2.2 C 36 %
2510 10-12-2019 10:11:17 2.5 C 35 %
2511 10-12-2019 10:21:17 2.7 C 33 %
2512 10-12-2019 10:31:17 2.7 C 33 %
2513 10-12-2019 10:41:17 2.5 C 33 %
2514 10-12-2019 10:51:17 2.4 C 35 %
2515 10-12-2019 11:01:17 2.4 C 34 %
2516 10-12-2019 11:11:17 2.5 C 34 %
2517 10-12-2019 11:21:17 2.3 C 35 %
2518 10-12-2019 11:31:18 2.2 C 36 %
2519 10-12-2019 11:41:18 2.9 C 34 %
2520 10-12-2019 11:51:17 3.5 C 30 %
2521 10-12-2019 12:01:17 3.7 C 30 %
2522 10-12-2019 12:11:17 3.8 C 30 %
2523 10-12-2019 12:21:17 3.9 C 30 %
2524 10-12-2019 12:31:17 3.9 C 30 %
2525 10-12-2019 12:41:17 4.3 C 27 %
Sensor: Nr:Datum:Temp:Feuchte:
Aussen-T/F 2526 10-12-2019 12:51:17 4.5 C 27 %
2527 10-12-2019 13:01:17 4.6 C 27 %
2528 10-12-2019 13:11:17 4.7 C 27 %
2529 10-12-2019 13:21:17 4.7 C 27 %
2530 10-12-2019 13:31:17 4.9 C 27 %
2531 10-12-2019 13:41:17 5.1 C 25 %
2532 10-12-2019 13:51:17 5 C 25 %
2533 10-12-2019 14:01:17 4.6 C 27 %
2534 10-12-2019 14:11:17 4.2 C 28 %
2535 10-12-2019 14:21:17 3.8 C 30 %
2536 10-12-2019 14:31:18 3.9 C 30 %
2537 10-12-2019 14:41:18 3.8 C 30 %
2538 10-12-2019 14:51:17 3.5 C 30 %
2539 10-12-2019 15:01:17 3.5 C 30 %
2540 10-12-2019 15:11:17 3.3 C 31 %
2541 10-12-2019 15:21:17 3.2 C 31 %
2542 10-12-2019 15:31:17 3.1 C 31 %
2543 10-12-2019 15:41:18 3.2 C 31 %
2544 10-12-2019 15:51:17 2.9 C 31 %
2545 10-12-2019 16:01:17 2.4 C 32 %
2546 10-12-2019 16:11:17 3.1 C 31 %
2547 10-12-2019 16:21:17 3.4 C 30 %
2548 10-12-2019 16:31:17 3.5 C 28 %
2549 10-12-2019 16:41:17 3.3 C 28 %
2550 10-12-2019 16:51:17 3.3 C 26 %
Sensor: Nr:Datum:Temp:Feuchte:
Aussen-T/F 2551 10-12-2019 17:01:17 2.8 C 27 %
2552 10-12-2019 17:11:17 2.7 C 27 %
2553 10-12-2019 17:21:18 2.7 C 27 %
2554 10-12-2019 17:31:17 2.7 C 27 %
2555 10-12-2019 17:41:17 2.6 C 27 %
2556 10-12-2019 17:51:17 2.4 C 28 %
2557 10-12-2019 18:01:17 2.3 C 27 %
2558 10-12-2019 18:11:17 1.7 C 31 %
2559 10-12-2019 18:21:17 1.9 C 32 %
2560 10-12-2019 18:31:17 1.8 C 33 %
2561 10-12-2019 18:41:17 1.7 C 34 %
2562 10-12-2019 18:51:17 1.6 C 35 %
2563 10-12-2019 19:01:17 1.5 C 36 %
2564 10-12-2019 19:11:17 1.5 C 36 %
2565 10-12-2019 19:21:17 1.6 C 36 %
2566 10-12-2019 19:31:17 1.5 C 36 %
2567 10-12-2019 19:41:18 1.7 C 36 %
2568 10-12-2019 19:51:17 1.7 C 35 %
2569 10-12-2019 20:01:17 2.2 C 32 %
2570 10-12-2019 20:11:17 2.1 C 32 %
2571 10-12-2019 20:21:17 2.7 C 29 %
2572 10-12-2019 20:31:18 2.9 C 28 %
2573 10-12-2019 20:41:18 2.6 C 30 %
2574 10-12-2019 20:51:17 2.3 C 30 %
2575 10-12-2019 21:01:17 2.5 C 31 %
Sensor: Nr:Datum:Temp:Feuchte:
Aussen-T/F 2576 10-12-2019 21:11:17 2.3 C 31 %
2577 10-12-2019 21:21:17 2.1 C 32 %
2578 10-12-2019 21:31:17 2 C 33 %
2579 10-12-2019 21:41:18 1.8 C 35 %
2580 10-12-2019 21:51:17 1.8 C 36 %
2581 10-12-2019 22:01:17 1.8 C 36 %
2582 10-12-2019 22:11:17 2.1 C 35 %
2583 10-12-2019 22:21:17 2.2 C 34 %
2584 10-12-2019 22:31:17 2.4 C 32 %
2585 10-12-2019 22:41:17 2.5 C 33 %
2586 10-12-2019 22:51:18 2.8 C 31 %
2587 10-12-2019 23:01:17 2.9 C 30 %
2588 10-12-2019 23:11:17 3 C 30 %
2589 10-12-2019 23:21:17 3 C 30 %
2590 10-12-2019 23:31:17 2.9 C 31 %
2591 10-12-2019 23:41:17 3.3 C 28 %
2592 10-12-2019 23:51:17 3.3 C 30 %
2593 11-12-2019 00:01:18 3.2 C 30 %
2594 11-12-2019 00:11:18 3.3 C 29 %
2595 11-12-2019 00:21:17 3.4 C 28 %
2596 11-12-2019 00:31:17 3.4 C 29 %
2597 11-12-2019 00:41:17 3.5 C 27 %
2598 11-12-2019 00:51:17 3.4 C 27 %
2599 11-12-2019 01:01:17 3.5 C 25 %
2600 11-12-2019 01:11:17 3.4 C 27 %
Sensor: Nr:Datum:Temp:Feuchte:
Aussen-T/F 2601 11-12-2019 01:21:18 3.4 C 28 %
2602 11-12-2019 01:31:17 3.4 C 29 %
2603 11-12-2019 01:41:17 3.2 C 30 %
2604 11-12-2019 01:51:17 3.1 C 32 %
2605 11-12-2019 02:01:17 3 C 33 %
2606 11-12-2019 02:11:17 2.9 C 33 %
2607 11-12-2019 02:21:17 2.9 C 32 %
2608 11-12-2019 02:31:18 2.8 C 34 %
2609 11-12-2019 02:41:18 2.9 C 31 %
2610 11-12-2019 02:51:17 3 C 30 %
2611 11-12-2019 03:01:18 3.1 C 30 %
2612 11-12-2019 03:11:18 3 C 32 %
2613 11-12-2019 03:21:17 2.9 C 30 %
2614 11-12-2019 03:31:17 3 C 30 %
2615 11-12-2019 03:41:17 3 C 35 %
2616 11-12-2019 03:51:17 2.8 C 36 %
2617 11-12-2019 04:01:17 2.7 C 35 %
2618 11-12-2019 04:11:17 2.8 C 35 %
2619 11-12-2019 04:21:17 2.8 C 35 %
2620 11-12-2019 04:31:18 2.8 C 38 %
2621 11-12-2019 04:41:18 2.7 C 38 %
2622 11-12-2019 04:51:17 2.7 C 39 %
2623 11-12-2019 05:01:17 2.7 C 39 %
2624 11-12-2019 05:11:17 2.7 C 39 %
2625 11-12-2019 05:21:18 2.7 C 40 %
Sensor: Nr:Datum:Temp:Feuchte:
Aussen-T/F 2626 11-12-2019 05:31:17 2.6 C 42 %
2627 11-12-2019 05:41:17 2.6 C 43 %
2628 11-12-2019 05:51:17 2.5 C 44 %
2629 11-12-2019 06:01:18 2.5 C 44 %
2630 11-12-2019 06:11:18 2.5 C 44 %
2631 11-12-2019 06:21:17 2.5 C 44 %
2632 11-12-2019 06:31:17 2.5 C 44 %
2633 11-12-2019 06:41:17 2.5 C 44 %
2634 11-12-2019 06:51:17 2.5 C 44 %
2635 11-12-2019 07:01:17 2.4 C 44 %
2636 11-12-2019 07:11:17 2.5 C 44 %
2637 11-12-2019 07:21:17 2.4 C 44 %
2638 11-12-2019 07:31:17 2.4 C 44 %
2639 11-12-2019 07:41:18 2.4 C 43 %
2640 11-12-2019 07:51:17 2.4 C 43 %
2641 11-12-2019 08:01:17 2.4 C 43 %
2642 11-12-2019 08:11:17 2.4 C 43 %
2643 11-12-2019 08:21:17 2.4 C 43 %
2644 11-12-2019 08:31:18 2.3 C 43 %
2645 11-12-2019 08:41:18 2.3 C 43 %
2646 11-12-2019 08:51:17 2.3 C 43 %
2647 11-12-2019 09:01:18 2.3 C 43 %
2648 11-12-2019 09:11:18 2.4 C 43 %
2649 11-12-2019 09:21:17 2.5 C 43 %
2650 11-12-2019 09:31:17 2.5 C 43 %
Sensor: Nr:Datum:Temp:Feuchte:
Aussen-T/F 2651 11-12-2019 09:41:17 2.5 C 43 %
2652 11-12-2019 09:51:17 2.5 C 43 %
2653 11-12-2019 10:01:17 2.6 C 43 %
2654 11-12-2019 10:11:17 2.7 C 43 %
2655 11-12-2019 10:21:17 2.7 C 42 %
2656 11-12-2019 10:31:17 2.7 C 42 %
2657 11-12-2019 10:41:17 2.8 C 41 %
2658 11-12-2019 10:51:17 3.1 C 40 %
2659 11-12-2019 11:01:17 3 C 39 %
2660 11-12-2019 11:11:17 3.1 C 39 %
2661 11-12-2019 11:21:17 3.2 C 39 %
2662 11-12-2019 11:31:17 3.1 C 38 %
2663 11-12-2019 11:41:17 3.1 C 38 %
2664 11-12-2019 11:51:17 3.2 C 39 %
2665 11-12-2019 12:01:18 3.2 C 39 %
2666 11-12-2019 12:11:18 3.1 C 39 %
2667 11-12-2019 12:21:17 3.1 C 39 %
2668 11-12-2019 12:31:17 3.1 C 40 %
2669 11-12-2019 12:41:17 3.1 C 40 %
2670 11-12-2019 12:51:17 3.1 C 40 %
2671 11-12-2019 13:01:18 3.2 C 40 %
2672 11-12-2019 13:11:18 3.2 C 40 %
2673 11-12-2019 13:21:17 3.2 C 40 %
2674 11-12-2019 13:31:17 3.2 C 40 %
2675 11-12-2019 13:41:17 3.2 C 40 %
Sensor: Nr:Datum:Temp:Feuchte:
Aussen-T/F 2676 11-12-2019 13:51:17 3.2 C 40 %
2677 11-12-2019 14:01:17 3.2 C 41 %
2678 11-12-2019 14:11:18 3.2 C 41 %
2679 11-12-2019 14:21:17 3.2 C 41 %
2680 11-12-2019 14:31:17 3.3 C 41 %
2681 11-12-2019 14:41:17 3.3 C 42 %
2682 11-12-2019 14:51:17 3.3 C 42 %
2683 11-12-2019 15:01:17 3.3 C 42 %
2684 11-12-2019 15:11:17 3.4 C 42 %
2685 11-12-2019 15:21:17 3.3 C 42 %
2686 11-12-2019 15:31:18 3.3 C 42 %
2687 11-12-2019 15:41:18 3.3 C 42 %
2688 11-12-2019 15:51:17 3.3 C 42 %
2689 11-12-2019 16:01:17 3.2 C 42 %
2690 11-12-2019 16:11:17 3.2 C 42 %
2691 11-12-2019 16:21:17 3.2 C 42 %
2692 11-12-2019 16:31:17 3.2 C 42 %
2693 11-12-2019 16:41:17 3.1 C 42 %
2694 11-12-2019 16:51:17 3.1 C 42 %
2695 11-12-2019 17:01:17 3.1 C 43 %
2696 11-12-2019 17:11:17 3.1 C 42 %
2697 11-12-2019 17:21:17 3.1 C 42 %
2698 11-12-2019 17:31:17 3.1 C 42 %
2699 11-12-2019 17:41:17 3.1 C 42 %
2700 11-12-2019 17:51:18 3.2 C 43 %
Sensor: Nr:Datum:Temp:Feuchte:
Aussen-T/F 2701 11-12-2019 18:01:17 3.2 C 43 %
2702 11-12-2019 18:11:17 3.3 C 43 %
2703 11-12-2019 18:21:17 3.3 C 43 %
2704 11-12-2019 18:31:18 3.4 C 43 %
2705 11-12-2019 18:41:18 3.4 C 43 %
2706 11-12-2019 18:51:17 3.5 C 43 %
2707 11-12-2019 19:01:17 3.5 C 42 %
2708 11-12-2019 19:11:17 3.5 C 42 %
2709 11-12-2019 19:21:18 3.5 C 42 %
2710 11-12-2019 19:31:17 3.5 C 42 %
2711 11-12-2019 19:41:17 3.6 C 42 %
2712 11-12-2019 19:51:18 3.6 C 42 %
2713 11-12-2019 20:01:17 3.6 C 42 %
2714 11-12-2019 20:11:17 3.7 C 42 %
2715 11-12-2019 20:21:17 3.8 C 42 %
2716 11-12-2019 20:31:18 3.8 C 42 %
2717 11-12-2019 20:41:18 3.9 C 42 %
2718 11-12-2019 20:51:17 4.1 C 41 %
2719 11-12-2019 21:01:17 4.1 C 40 %
2720 11-12-2019 21:11:17 4.3 C 39 %
2721 11-12-2019 21:21:17 4.4 C 37 %
2722 11-12-2019 21:31:17 4.1 C 37 %
2723 11-12-2019 21:41:17 4.3 C 37 %
2724 11-12-2019 21:51:17 4.3 C 36 %
2725 11-12-2019 22:01:17 4.5 C 35 %
Sensor: Nr:Datum:Temp:Feuchte:
Aussen-T/F 2726 11-12-2019 22:11:17 4.1 C 35 %
2727 11-12-2019 22:21:17 3.9 C 37 %
2728 11-12-2019 22:31:17 3.6 C 39 %
2729 11-12-2019 22:41:17 3.8 C 39 %
2730 11-12-2019 22:51:18 3.5 C 40 %
2731 11-12-2019 23:01:17 3.8 C 40 %
2732 11-12-2019 23:11:17 3.8 C 40 %
2733 11-12-2019 23:21:17 3.4 C 40 %
2734 11-12-2019 23:31:17 3 C 41 %
2735 11-12-2019 23:41:17 3.4 C 43 %
2736 11-12-2019 23:51:18 3.2 C 42 %
2737 12-12-2019 00:01:17 3 C 42 %
2738 12-12-2019 00:11:17 2.9 C 43 %
2739 12-12-2019 00:21:17 2.8 C 43 %
2740 12-12-2019 00:31:17 2.5 C 43 %
2741 12-12-2019 00:41:17 2.4 C 43 %
2742 12-12-2019 00:51:17 2.3 C 43 %
2743 12-12-2019 01:01:17 2.7 C 44 %
2744 12-12-2019 01:11:17 2.8 C 44 %
2745 12-12-2019 01:21:18 2.6 C 43 %
2746 12-12-2019 01:31:17 2.2 C 43 %
2747 12-12-2019 01:41:17 2.5 C 43 %
2748 12-12-2019 01:51:18 2.1 C 43 %
2749 12-12-2019 02:01:17 1.8 C 44 %
2750 12-12-2019 02:11:17 1.6 C 44 %
Sensor: Nr:Datum:Temp:Feuchte:
Aussen-T/F 2751 12-12-2019 02:21:17 1.7 C 44 %
2752 12-12-2019 02:31:18 1.6 C 44 %
2753 12-12-2019 02:41:18 2 C 43 %
2754 12-12-2019 02:51:17 2 C 43 %
2755 12-12-2019 03:01:17 2.3 C 43 %
2756 12-12-2019 03:11:17 2.4 C 43 %
2757 12-12-2019 03:21:17 2.5 C 43 %
2758 12-12-2019 03:31:17 2.4 C 43 %
2759 12-12-2019 03:41:17 2.5 C 43 %
2760 12-12-2019 03:51:17 2.7 C 43 %
2761 12-12-2019 04:01:17 2.6 C 43 %
2762 12-12-2019 04:11:17 2.7 C 43 %
2763 12-12-2019 04:21:17 2.8 C 43 %
2764 12-12-2019 04:31:17 2.8 C 43 %
2765 12-12-2019 04:41:17 2.9 C 43 %
2766 12-12-2019 04:51:17 2.4 C 42 %
2767 12-12-2019 05:01:17 2 C 42 %
2768 12-12-2019 05:11:17 2.1 C 42 %
2769 12-12-2019 05:21:17 2.2 C 42 %
2770 12-12-2019 05:31:18 2.1 C 42 %
2771 12-12-2019 05:41:18 2.1 C 42 %
2772 12-12-2019 05:51:17 2.1 C 42 %
2773 12-12-2019 06:01:17 1.9 C 43 %
2774 12-12-2019 06:11:17 2 C 42 %
2775 12-12-2019 06:21:17 2.1 C 42 %
Sensor: Nr:Datum:Temp:Feuchte:
Aussen-T/F 2776 12-12-2019 06:31:17 2.1 C 42 %
2777 12-12-2019 06:41:17 2.3 C 42 %
2778 12-12-2019 06:51:17 2.7 C 43 %
2779 12-12-2019 07:01:17 3 C 42 %
2780 12-12-2019 07:11:17 3 C 42 %
2781 12-12-2019 07:21:17 3 C 42 %
2782 12-12-2019 07:31:17 3 C 42 %
2783 12-12-2019 07:41:17 2.8 C 42 %
2784 12-12-2019 07:51:17 2.9 C 42 %
2785 12-12-2019 08:01:17 2.9 C 42 %
2786 12-12-2019 08:11:17 3.1 C 42 %
2787 12-12-2019 08:21:17 3.2 C 42 %
2788 12-12-2019 08:31:18 3.3 C 42 %
2789 12-12-2019 08:41:18 3.5 C 42 %
2790 12-12-2019 08:51:17 3.5 C 42 %
2791 12-12-2019 09:01:18 3.5 C 42 %
2792 12-12-2019 09:11:18 3.6 C 42 %
2793 12-12-2019 09:21:17 3.9 C 42 %
2794 12-12-2019 09:31:17 3.9 C 42 %
2795 12-12-2019 09:41:17 3.7 C 41 %
2796 12-12-2019 09:51:17 3.5 C 41 %
2797 12-12-2019 10:01:17 3.9 C 41 %
2798 12-12-2019 10:11:17 4 C 40 %
2799 12-12-2019 10:21:18 4.4 C 37 %
2800 12-12-2019 10:31:17 4.6 C 35 %
Sensor: Nr:Datum:Temp:Feuchte:
Aussen-T/F 2801 12-12-2019 10:41:17 4.7 C 32 %
2802 12-12-2019 10:51:17 4.8 C 31 %
2803 12-12-2019 11:01:18 4.7 C 32 %
2804 12-12-2019 11:11:18 4.6 C 31 %
2805 12-12-2019 11:21:17 4.4 C 31 %
2806 12-12-2019 11:31:17 4.4 C 32 %
2807 12-12-2019 11:41:17 4.7 C 31 %
2808 12-12-2019 11:51:18 4.9 C 29 %
2809 12-12-2019 12:01:17 5.1 C 29 %
2810 12-12-2019 12:11:17 5.1 C 27 %
2811 12-12-2019 12:21:17 5 C 26 %
2812 12-12-2019 12:31:18 4.7 C 27 %
2813 12-12-2019 12:41:18 4.7 C 28 %
2814 12-12-2019 12:51:17 4.7 C 27 %
2815 12-12-2019 13:01:17 4.6 C 28 %
2816 12-12-2019 13:11:18 5 C 26 %
2817 12-12-2019 13:21:17 4.8 C 27 %
2818 12-12-2019 13:31:17 4.6 C 26 %
2819 12-12-2019 13:41:17 4.2 C 26 %
2820 12-12-2019 13:51:17 4.6 C 25 %
2821 12-12-2019 14:01:17 4.6 C 25 %
2822 12-12-2019 14:11:17 4.3 C 25 %
2823 12-12-2019 14:21:17 4 C 27 %
2824 12-12-2019 14:31:18 4.5 C 25 %
2825 12-12-2019 14:41:18 4.8 C 25 %
Sensor: Nr:Datum:Temp:Feuchte:
Aussen-T/F 2826 12-12-2019 14:51:17 4.7 C 25 %
2827 12-12-2019 15:01:18 4 C 26 %
2828 12-12-2019 15:11:18 4.2 C 26 %
2829 12-12-2019 15:21:17 3.6 C 29 %
2830 12-12-2019 15:31:17 3.5 C 29 %
2831 12-12-2019 15:41:17 3.8 C 28 %
2832 12-12-2019 15:51:17 3.7 C 28 %
2833 12-12-2019 16:01:17 3.6 C 28 %
2834 12-12-2019 16:11:17 3.7 C 26 %
2835 12-12-2019 16:21:18 3.5 C 27 %
2836 12-12-2019 16:31:17 3.4 C 26 %
2837 12-12-2019 16:41:17 3.3 C 28 %
2838 12-12-2019 16:51:17 3.1 C 30 %
2839 12-12-2019 17:01:17 2.6 C 30 %
2840 12-12-2019 17:11:17 1.7 C 35 %
2841 12-12-2019 17:21:17 1.2 C 36 %
2842 12-12-2019 17:31:17 1.1 C 38 %
2843 12-12-2019 17:41:17 0.9 C 41 %
2844 12-12-2019 17:51:17 1 C 40 %
2845 12-12-2019 18:01:17 1.1 C 40 %
2846 12-12-2019 18:11:17 1.1 C 40 %
2847 12-12-2019 18:21:17 1.1 C 40 %
2848 12-12-2019 18:31:17 1 C 40 %
2849 12-12-2019 18:41:17 0.9 C 41 %
2850 12-12-2019 18:51:17 0.7 C 41 %
Sensor: Nr:Datum:Temp:Feuchte:
Aussen-T/F 2851 12-12-2019 19:01:17 0.7 C 41 %
2852 12-12-2019 19:11:17 0.6 C 41 %
2853 12-12-2019 19:21:17 0.6 C 42 %
2854 12-12-2019 19:31:17 0.6 C 42 %
2855 12-12-2019 19:41:17 0.7 C 42 %
2856 12-12-2019 19:51:17 0.7 C 41 %
2857 12-12-2019 20:01:17 0.6 C 41 %
2858 12-12-2019 20:11:17 0.6 C 41 %
2859 12-12-2019 20:21:17 0.6 C 41 %
2860 12-12-2019 20:31:17 0.6 C 41 %
2861 12-12-2019 20:41:17 0.6 C 41 %
2862 12-12-2019 20:51:17 1.3 C 42 %
2863 12-12-2019 21:01:17 1.6 C 38 %
2864 12-12-2019 21:11:17 1.6 C 36 %
2865 12-12-2019 21:21:17 1.3 C 36 %
2866 12-12-2019 21:31:17 1.3 C 35 %
2867 12-12-2019 21:41:17 1 C 35 %
2868 12-12-2019 21:51:17 0.7 C 37 %
2869 12-12-2019 22:01:17 1.2 C 37 %
2870 12-12-2019 22:11:17 0.9 C 37 %
2871 12-12-2019 22:21:18 0.4 C 38 %
2872 12-12-2019 22:31:17 0.3 C 39 %
2873 12-12-2019 22:41:17 0.2 C 40 %
2874 12-12-2019 22:51:17 0.4 C 39 %
2875 12-12-2019 23:01:18 1.1 C 37 %
Sensor: Nr:Datum:Temp:Feuchte:
Aussen-T/F 2876 12-12-2019 23:11:18 1.5 C 35 %
2877 12-12-2019 23:21:17 1.9 C 32 %
2878 12-12-2019 23:31:17 1.6 C 31 %
2879 12-12-2019 23:41:17 1.4 C 32 %
2880 12-12-2019 23:51:17 1.5 C 31 %
2881 13-12-2019 00:01:17 0.9 C 33 %
2882 13-12-2019 00:11:17 0.6 C 35 %
2883 13-12-2019 00:21:17 1 C 33 %
2884 13-12-2019 00:31:18 0.7 C 34 %
2885 13-12-2019 00:41:18 0.9 C 35 %
2886 13-12-2019 00:51:17 1.3 C 32 %
2887 13-12-2019 01:01:18 1.7 C 30 %
2888 13-12-2019 01:11:18 1.8 C 29 %
2889 13-12-2019 01:21:17 2 C 27 %
2890 13-12-2019 01:31:17 1.9 C 28 %
2891 13-12-2019 01:41:17 2 C 27 %
2892 13-12-2019 01:51:17 2 C 27 %
2893 13-12-2019 02:01:18 1.9 C 29 %
2894 13-12-2019 02:11:18 2 C 27 %
2895 13-12-2019 02:21:17 2 C 27 %
2896 13-12-2019 02:31:17 2 C 27 %
2897 13-12-2019 02:41:17 2 C 27 %
2898 13-12-2019 02:51:17 2 C 27 %
2899 13-12-2019 03:01:17 1.8 C 29 %
2900 13-12-2019 03:11:17 1.8 C 30 %
Sensor: Nr:Datum:Temp:Feuchte:
Aussen-T/F 2901 13-12-2019 03:21:17 1.7 C 30 %
2902 13-12-2019 03:31:17 1.6 C 30 %
2903 13-12-2019 03:41:17 1.7 C 30 %
2904 13-12-2019 03:51:17 1.6 C 31 %
2905 13-12-2019 04:01:17 1.4 C 32 %
2906 13-12-2019 04:11:17 1.5 C 32 %
2907 13-12-2019 04:21:17 1.6 C 32 %
2908 13-12-2019 04:31:17 1.6 C 32 %
2909 13-12-2019 04:41:17 1.6 C 32 %
2910 13-12-2019 04:51:17 1.4 C 34 %
2911 13-12-2019 05:01:17 1.4 C 35 %
2912 13-12-2019 05:11:17 1.5 C 34 %
2913 13-12-2019 05:21:17 1.5 C 34 %
2914 13-12-2019 05:31:18 1.7 C 33 %
2915 13-12-2019 05:41:18 1.7 C 32 %
2916 13-12-2019 05:51:17 1.8 C 33 %
2917 13-12-2019 06:01:17 1.9 C 32 %
2918 13-12-2019 06:11:17 2 C 31 %
2919 13-12-2019 06:21:17 2 C 31 %
2920 13-12-2019 06:31:17 2 C 32 %
2921 13-12-2019 06:41:17 1.7 C 35 %
2922 13-12-2019 06:51:17 1.8 C 37 %
2923 13-12-2019 07:01:17 1.8 C 37 %
2924 13-12-2019 07:11:18 1.7 C 39 %
2925 13-12-2019 07:21:17 1.8 C 38 %
Sensor: Nr:Datum:Temp:Feuchte:
Aussen-T/F 2926 13-12-2019 07:31:17 1.8 C 40 %
2927 13-12-2019 07:41:17 1.8 C 39 %
2928 13-12-2019 07:51:17 1.9 C 38 %
2929 13-12-2019 08:01:17 1.8 C 38 %
2930 13-12-2019 08:11:17 1.8 C 39 %
2931 13-12-2019 08:21:17 1.7 C 40 %
2932 13-12-2019 08:31:17 1.7 C 41 %
2933 13-12-2019 08:41:17 1.6 C 41 %
2934 13-12-2019 08:51:17 1.7 C 41 %
2935 13-12-2019 09:01:17 1.9 C 40 %
2936 13-12-2019 09:11:17 1.9 C 40 %
2937 13-12-2019 09:21:17 1.9 C 40 %
2938 13-12-2019 09:31:17 1.7 C 42 %
2939 13-12-2019 09:41:17 1.7 C 42 %
2940 13-12-2019 09:51:18 1.9 C 43 %
2941 13-12-2019 10:01:17 1.8 C 43 %
2942 13-12-2019 10:11:17 1.9 C 43 %
2943 13-12-2019 10:21:18 2 C 41 %
2944 13-12-2019 10:31:17 2.2 C 41 %
2945 13-12-2019 10:41:17 2.3 C 41 %
2946 13-12-2019 10:51:18 2.3 C 41 %
2947 13-12-2019 11:01:17 2.4 C 41 %
2948 13-12-2019 11:11:17 2.3 C 40 %
2949 13-12-2019 11:21:17 2.3 C 40 %
2950 13-12-2019 11:31:17 2.4 C 41 %
Sensor: Nr:Datum:Temp:Feuchte:
Aussen-T/F 2951 13-12-2019 11:41:17 2.5 C 41 %
2952 13-12-2019 11:51:18 2.8 C 42 %
2953 13-12-2019 12:01:17 3 C 41 %
2954 13-12-2019 12:11:17 3.1 C 39 %
2955 13-12-2019 12:21:17 3.2 C 38 %
2956 13-12-2019 12:31:17 3.5 C 38 %
2957 13-12-2019 12:41:17 3.5 C 38 %
2958 13-12-2019 12:51:18 3.6 C 38 %
2959 13-12-2019 13:01:18 3.8 C 39 %
2960 13-12-2019 13:11:18 4.1 C 37 %
2961 13-12-2019 13:21:17 4.6 C 38 %
2962 13-12-2019 13:31:17 5.2 C 35 %
2963 13-12-2019 13:41:17 5.7 C 35 %
2964 13-12-2019 13:51:17 6.4 C 31 %
2965 13-12-2019 14:01:17 6.7 C 30 %
2966 13-12-2019 14:11:17 7 C 28 %
2967 13-12-2019 14:21:17 6.8 C 29 %
2968 13-12-2019 14:31:17 6.8 C 28 %
2969 13-12-2019 14:41:17 6.7 C 28 %
2970 13-12-2019 14:51:18 6.4 C 29 %
2971 13-12-2019 15:01:18 6.3 C 29 %
2972 13-12-2019 15:11:18 6.3 C 29 %
2973 13-12-2019 15:21:17 6.2 C 30 %
2974 13-12-2019 15:31:17 5.9 C 30 %
2975 13-12-2019 15:41:17 5.8 C 31 %
Sensor: Nr:Datum:Temp:Feuchte:
Aussen-T/F 2976 13-12-2019 15:51:17 5.5 C 31 %
2977 13-12-2019 16:01:18 5.3 C 30 %
2978 13-12-2019 16:11:18 5.4 C 30 %
2979 13-12-2019 16:21:17 5.3 C 30 %
2980 13-12-2019 16:31:17 5.1 C 30 %
2981 13-12-2019 16:41:17 4.8 C 31 %
2982 13-12-2019 16:51:17 4.5 C 31 %
2983 13-12-2019 17:01:17 4.6 C 31 %
2984 13-12-2019 17:11:17 4.5 C 31 %
2985 13-12-2019 17:21:17 4.3 C 34 %
2986 13-12-2019 17:31:18 4.3 C 34 %
2987 13-12-2019 17:41:18 4.2 C 33 %
2988 13-12-2019 17:51:17 4 C 33 %
2989 13-12-2019 18:01:17 3.8 C 36 %
2990 13-12-2019 18:11:17 3.7 C 40 %
2991 13-12-2019 18:21:17 3.8 C 39 %
2992 13-12-2019 18:31:17 3.8 C 40 %
2993 13-12-2019 18:41:18 3.8 C 39 %
2994 13-12-2019 18:51:17 3.9 C 36 %
2995 13-12-2019 19:01:17 3.9 C 36 %
2996 13-12-2019 19:11:17 3.9 C 35 %
2997 13-12-2019 19:21:17 4 C 34 %
2998 13-12-2019 19:31:17 4.1 C 35 %
2999 13-12-2019 19:41:17 4 C 36 %
3000 13-12-2019 19:51:17 4.6 C 32 %
Sensor: Nr:Datum:Temp:Feuchte:
Aussen-T/F 3001 13-12-2019 20:01:17 4.6 C 32 %
3002 13-12-2019 20:11:17 4.8 C 31 %
3003 13-12-2019 20:21:17 4.7 C 31 %
3004 13-12-2019 20:31:17 4.7 C 31 %
3005 13-12-2019 20:41:17 4.7 C 32 %
3006 13-12-2019 20:51:17 4.5 C 32 %
3007 13-12-2019 21:01:17 4.3 C 34 %
3008 13-12-2019 21:11:17 4 C 36 %
3009 13-12-2019 21:21:17 4.5 C 35 %
3010 13-12-2019 21:31:18 4.4 C 33 %
3011 13-12-2019 21:41:18 4.4 C 35 %
3012 13-12-2019 21:51:17 4.6 C 32 %
3013 13-12-2019 22:01:17 4.6 C 31 %
3014 13-12-2019 22:11:17 4.6 C 30 %
3015 13-12-2019 22:21:17 4.7 C 30 %
3016 13-12-2019 22:31:18 4.7 C 30 %
3017 13-12-2019 22:41:18 3.8 C 34 %
3018 13-12-2019 22:51:17 3.8 C 36 %
3019 13-12-2019 23:01:17 4.5 C 32 %
3020 13-12-2019 23:11:17 5.1 C 29 %
3021 13-12-2019 23:21:17 5.2 C 28 %
3022 13-12-2019 23:31:17 5.2 C 28 %
3023 13-12-2019 23:41:17 5 C 30 %
3024 13-12-2019 23:51:17 5 C 30 %
3025 14-12-2019 00:01:17 4.4 C 32 %
Sensor: Nr:Datum:Temp:Feuchte:
Aussen-T/F 3026 14-12-2019 00:11:17 4.5 C 30 %
3027 14-12-2019 00:21:17 4.6 C 30 %
3028 14-12-2019 00:31:18 4.3 C 33 %
3029 14-12-2019 00:41:18 4.7 C 32 %
3030 14-12-2019 00:51:17 5.1 C 28 %
3031 14-12-2019 01:01:17 5.4 C 27 %
3032 14-12-2019 01:11:17 5.3 C 27 %
3033 14-12-2019 01:21:17 5.2 C 26 %
3034 14-12-2019 01:31:17 5.1 C 26 %
3035 14-12-2019 01:41:17 5.3 C 25 %
3036 14-12-2019 01:51:17 5.2 C 25 %
3037 14-12-2019 02:01:17 5 C 26 %
3038 14-12-2019 02:11:17 4.5 C 30 %
3039 14-12-2019 02:21:17 4.6 C 29 %
3040 14-12-2019 02:31:18 4.7 C 29 %
3041 14-12-2019 02:41:18 4.8 C 28 %
3042 14-12-2019 02:51:17 4.5 C 30 %
3043 14-12-2019 03:01:18 4.2 C 33 %
3044 14-12-2019 03:11:18 4.1 C 36 %
3045 14-12-2019 03:21:17 3.9 C 38 %
3046 14-12-2019 03:31:17 3.9 C 39 %
3047 14-12-2019 03:41:17 3.9 C 36 %
3048 14-12-2019 03:51:18 3.8 C 36 %
3049 14-12-2019 04:01:17 3.8 C 40 %
3050 14-12-2019 04:11:17 3.8 C 41 %
Sensor: Nr:Datum:Temp:Feuchte:
Aussen-T/F 3051 14-12-2019 04:21:17 3.7 C 42 %
3052 14-12-2019 04:31:18 3.5 C 42 %
3053 14-12-2019 04:41:18 3.5 C 42 %
3054 14-12-2019 04:51:17 3.4 C 42 %
3055 14-12-2019 05:01:17 3.4 C 41 %
3056 14-12-2019 05:11:17 3.4 C 41 %
3057 14-12-2019 05:21:17 3.4 C 42 %
3058 14-12-2019 05:31:18 3.4 C 42 %
3059 14-12-2019 05:41:18 3.4 C 43 %
3060 14-12-2019 05:51:17 3.4 C 43 %
3061 14-12-2019 06:01:18 3.4 C 42 %
3062 14-12-2019 06:11:18 3.7 C 43 %
3063 14-12-2019 06:21:17 4 C 42 %
3064 14-12-2019 06:31:17 5 C 40 %
3065 14-12-2019 06:41:17 5.2 C 39 %
3066 14-12-2019 06:51:18 5.6 C 36 %
3067 14-12-2019 07:01:17 5.6 C 36 %
3068 14-12-2019 07:11:18 5.7 C 36 %
3069 14-12-2019 07:21:17 5.8 C 36 %
3070 14-12-2019 07:31:17 5.8 C 36 %
3071 14-12-2019 07:41:17 6.3 C 37 %
3072 14-12-2019 07:51:17 6.5 C 36 %
3073 14-12-2019 08:01:17 6.8 C 35 %
3074 14-12-2019 08:11:17 7 C 28 %
3075 14-12-2019 08:21:17 7.2 C 26 %
Sensor: Nr:Datum:Temp:Feuchte:
Aussen-T/F 3076 14-12-2019 08:31:18 7.1 C 25 %
3077 14-12-2019 08:41:18 6.9 C 25 %
3078 14-12-2019 08:51:17 6.7 C 25 %
3079 14-12-2019 09:01:17 6.9 C 23 %
3080 14-12-2019 09:11:17 6.7 C 23 %
3081 14-12-2019 09:21:18 6.5 C 23 %
3082 14-12-2019 09:31:18 6.7 C 20 %
3083 14-12-2019 09:41:18 6.5 C 21 %
3084 14-12-2019 09:51:17 6.7 C 21 %
3085 14-12-2019 10:01:17 6.7 C 21 %
3086 14-12-2019 10:11:17 6.6 C 23 %
3087 14-12-2019 10:21:17 6.6 C 25 %
3088 14-12-2019 10:31:17 6.7 C 25 %
3089 14-12-2019 10:41:17 6.4 C 26 %
3090 14-12-2019 10:51:17 5.9 C 29 %
3091 14-12-2019 11:01:18 5.9 C 29 %
3092 14-12-2019 11:11:18 6.4 C 27 %
3093 14-12-2019 11:21:17 6.7 C 26 %
3094 14-12-2019 11:31:17 6.3 C 26 %
3095 14-12-2019 11:41:17 6.4 C 25 %
3096 14-12-2019 11:51:17 6.9 C 20 %
3097 14-12-2019 12:01:17 7 C 20 %
3098 14-12-2019 12:11:17 7.2 C 20 %
3099 14-12-2019 12:21:18 7 C 20 %
3100 14-12-2019 12:31:17 7.3 C 20 %
Sensor: Nr:Datum:Temp:Feuchte:
Aussen-T/F 3101 14-12-2019 12:41:17 7.6 C 20 %
3102 14-12-2019 12:51:17 7.8 C 20 %
3103 14-12-2019 13:01:17 7.9 C 20 %
3104 14-12-2019 13:11:17 8 C 20 %
3105 14-12-2019 13:21:17 8.4 C 20 %
3106 14-12-2019 13:31:17 8.4 C 20 %
3107 14-12-2019 13:41:17 8.3 C 20 %
3108 14-12-2019 13:51:17 8.4 C 20 %
3109 14-12-2019 14:01:18 8.5 C 20 %
3110 14-12-2019 14:11:18 8.4 C 20 %
3111 14-12-2019 14:21:17 8.4 C 20 %
3112 14-12-2019 14:31:18 8.7 C 20 %
3113 14-12-2019 14:41:18 8.8 C 20 %
3114 14-12-2019 14:51:18 8.6 C 20 %
3115 14-12-2019 15:01:17 7.3 C 23 %
3116 14-12-2019 15:11:17 6.8 C 28 %
3117 14-12-2019 15:21:17 6.6 C 30 %
3118 14-12-2019 15:31:17 6.7 C 28 %
3119 14-12-2019 15:41:18 6.8 C 28 %
3120 14-12-2019 15:51:17 7.1 C 26 %
3121 14-12-2019 16:01:17 7 C 26 %
3122 14-12-2019 16:11:17 6.9 C 26 %
3123 14-12-2019 16:21:17 6.9 C 27 %
3124 14-12-2019 16:31:18 7.2 C 25 %
3125 14-12-2019 16:41:18 7.6 C 25 %
Sensor: Nr:Datum:Temp:Feuchte:
Aussen-T/F 3126 14-12-2019 16:51:17 7.5 C 25 %
3127 14-12-2019 17:01:17 7.6 C 25 %
3128 14-12-2019 17:11:17 7.6 C 25 %
3129 14-12-2019 17:21:17 7.4 C 25 %
3130 14-12-2019 17:31:18 7.2 C 26 %
3131 14-12-2019 17:41:18 6.9 C 27 %
3132 14-12-2019 17:51:17 7.1 C 26 %
3133 14-12-2019 18:01:17 7.1 C 26 %
3134 14-12-2019 18:11:17 7.3 C 26 %
3135 14-12-2019 18:22:17 7.6 C 25 %
3136 14-12-2019 18:31:17 7.8 C 25 %
3137 14-12-2019 18:41:17 7.4 C 25 %
3138 14-12-2019 18:52:17 7 C 26 %
3139 14-12-2019 19:01:18 6.7 C 27 %
3140 14-12-2019 19:11:18 6.2 C 28 %
3141 14-12-2019 19:21:17 6.4 C 26 %
3142 14-12-2019 19:31:17 6.1 C 26 %
3143 14-12-2019 19:41:17 6.4 C 25 %
3144 14-12-2019 19:52:17 6.4 C 25 %
3145 14-12-2019 20:01:18 6.6 C 25 %
3146 14-12-2019 20:11:18 6.7 C 25 %
3147 14-12-2019 20:21:17 6.9 C 25 %
3148 14-12-2019 20:31:17 5.8 C 27 %
3149 14-12-2019 20:41:17 5.9 C 27 %
3150 14-12-2019 20:52:17 7 C 25 %
Sensor: Nr:Datum:Temp:Feuchte:
Aussen-T/F 3151 14-12-2019 21:01:17 7.2 C 25 %
3152 14-12-2019 21:11:17 7 C 25 %
3153 14-12-2019 21:22:17 7.1 C 25 %
3154 14-12-2019 21:31:18 6.7 C 26 %
3155 14-12-2019 21:41:18 6.8 C 26 %
3156 14-12-2019 21:52:17 6.9 C 26 %
3157 14-12-2019 22:02:17 7.1 C 25 %
3158 14-12-2019 22:11:17 6.8 C 26 %
3159 14-12-2019 22:22:17 6.9 C 26 %
3160 14-12-2019 22:31:17 7.3 C 25 %
3161 14-12-2019 22:41:17 7 C 26 %
3162 14-12-2019 22:52:17 7.3 C 25 %
3163 14-12-2019 23:02:17 7.1 C 25 %
3164 14-12-2019 23:12:17 7.3 C 25 %
3165 14-12-2019 23:22:17 7 C 26 %
3166 14-12-2019 23:31:18 7 C 26 %
3167 14-12-2019 23:41:18 7.4 C 25 %
3168 14-12-2019 23:51:18 7 C 25 %
3169 15-12-2019 00:02:17 6.4 C 27 %
3170 15-12-2019 00:11:17 6 C 28 %
3171 15-12-2019 00:22:17 5.6 C 30 %
3172 15-12-2019 00:31:18 5.3 C 31 %
3173 15-12-2019 00:41:18 5.1 C 32 %
3174 15-12-2019 00:52:17 5.2 C 32 %
3175 15-12-2019 01:02:17 5.2 C 32 %
Sensor: Nr:Datum:Temp:Feuchte:
Aussen-T/F 3176 15-12-2019 01:12:17 5.3 C 33 %
3177 15-12-2019 01:22:17 5.5 C 33 %
3178 15-12-2019 01:31:18 5.7 C 31 %
3179 15-12-2019 01:41:18 5.6 C 31 %
3180 15-12-2019 01:52:17 5.6 C 31 %
3181 15-12-2019 02:02:17 5.9 C 31 %
3182 15-12-2019 02:12:17 5.8 C 32 %
3183 15-12-2019 02:22:17 5.9 C 32 %
3184 15-12-2019 02:32:18 5.7 C 35 %
3185 15-12-2019 02:42:18 5.8 C 37 %
3186 15-12-2019 02:52:17 5.9 C 39 %
3187 15-12-2019 03:02:18 5.9 C 40 %
3188 15-12-2019 03:12:18 5.9 C 41 %
3189 15-12-2019 03:22:17 6 C 41 %
3190 15-12-2019 03:32:17 6 C 42 %
3191 15-12-2019 03:42:17 6.3 C 42 %
3192 15-12-2019 03:52:17 6.4 C 42 %
3193 15-12-2019 04:02:17 6.8 C 42 %
3194 15-12-2019 04:12:17 7.3 C 41 %
3195 15-12-2019 04:22:17 7.3 C 41 %
3196 15-12-2019 04:32:17 7.5 C 41 %
3197 15-12-2019 04:42:17 7.9 C 40 %
3198 15-12-2019 04:52:17 8 C 39 %
3199 15-12-2019 05:02:17 8.2 C 38 %
3200 15-12-2019 05:12:17 8.2 C 37 %
Sensor: Nr:Datum:Temp:Feuchte:
Aussen-T/F 3201 15-12-2019 05:22:17 8.4 C 37 %
3202 15-12-2019 05:32:18 9 C 34 %
3203 15-12-2019 05:42:18 10 C 30 %
3204 15-12-2019 05:52:17 10.2 C 30 %
3205 15-12-2019 06:02:17 10.3 C 29 %
3206 15-12-2019 06:12:17 10.3 C 29 %
3207 15-12-2019 06:22:17 10.1 C 29 %
3208 15-12-2019 06:32:17 10.5 C 28 %
3209 15-12-2019 06:42:17 10.8 C 27 %
3210 15-12-2019 06:52:17 10.7 C 27 %
3211 15-12-2019 07:02:17 10.5 C 27 %
3212 15-12-2019 07:12:17 10.9 C 27 %
3213 15-12-2019 07:22:17 10.3 C 27 %
3214 15-12-2019 07:32:17 10.6 C 27 %
3215 15-12-2019 07:42:17 10.5 C 27 %
3216 15-12-2019 07:52:17 10.7 C 27 %
3217 15-12-2019 08:02:17 10.7 C 27 %
3218 15-12-2019 08:12:17 11 C 26 %
3219 15-12-2019 08:22:17 10.9 C 27 %
3220 15-12-2019 08:32:18 10.6 C 27 %
3221 15-12-2019 08:42:18 10.2 C 28 %
3222 15-12-2019 08:52:17 9.5 C 34 %
3223 15-12-2019 09:02:17 9.2 C 34 %
3224 15-12-2019 09:12:17 8.9 C 35 %
3225 15-12-2019 09:22:17 8.7 C 33 %
Sensor: Nr:Datum:Temp:Feuchte:
Aussen-T/F 3226 15-12-2019 09:32:17 8.5 C 34 %
3227 15-12-2019 09:42:17 8.2 C 35 %
3228 15-12-2019 09:52:18 8 C 36 %
3229 15-12-2019 10:02:18 8.1 C 34 %
3230 15-12-2019 10:12:18 8.2 C 32 %
3231 15-12-2019 10:22:18 8.2 C 34 %
3232 15-12-2019 10:32:17 8.1 C 33 %
3233 15-12-2019 10:42:17 8.5 C 31 %
3234 15-12-2019 10:52:17 8.7 C 30 %
3235 15-12-2019 11:02:17 8.4 C 30 %
3236 15-12-2019 11:12:17 8.5 C 30 %
3237 15-12-2019 11:22:17 8.5 C 28 %
3238 15-12-2019 11:32:17 8.6 C 28 %
3239 15-12-2019 11:42:17 8.6 C 28 %
3240 15-12-2019 11:52:17 8.3 C 27 %
3241 15-12-2019 12:02:17 8.3 C 27 %
3242 15-12-2019 12:12:17 8.1 C 27 %
3243 15-12-2019 12:22:17 8.1 C 28 %
3244 15-12-2019 12:32:17 7.9 C 29 %
3245 15-12-2019 12:42:17 8.2 C 28 %
3246 15-12-2019 12:52:18 8.4 C 28 %
3247 15-12-2019 13:02:18 8.7 C 27 %
3248 15-12-2019 13:12:18 9.1 C 25 %
3249 15-12-2019 13:22:17 9.3 C 23 %
3250 15-12-2019 13:32:17 9.2 C 21 %
Sensor: Nr:Datum:Temp:Feuchte:
Aussen-T/F 3251 15-12-2019 13:42:17 9.2 C 20 %
3252 15-12-2019 13:52:18 9.2 C 20 %
3253 15-12-2019 14:02:17 9.2 C 20 %
3254 15-12-2019 14:12:17 9.3 C 20 %
3255 15-12-2019 14:22:17 9.3 C 20 %
3256 15-12-2019 14:32:17 9.1 C 20 %
3257 15-12-2019 14:42:17 9.1 C 20 %
3258 15-12-2019 14:52:17 9 C 20 %
3259 15-12-2019 15:02:17 9 C 20 %
3260 15-12-2019 15:12:17 8.9 C 20 %
3261 15-12-2019 15:22:17 8.9 C 20 %
3262 15-12-2019 15:32:17 8.8 C 20 %
3263 15-12-2019 15:42:17 8.7 C 20 %
3264 15-12-2019 15:52:17 8.7 C 20 %
3265 15-12-2019 16:02:17 8.4 C 20 %
3266 15-12-2019 16:12:17 8.2 C 20 %
3267 15-12-2019 16:22:18 8.4 C 20 %
3268 15-12-2019 16:32:17 7.9 C 20 %
3269 15-12-2019 16:42:17 7.6 C 20 %
3270 15-12-2019 16:52:17 8 C 20 %
3271 15-12-2019 17:02:17 7.4 C 20 %
3272 15-12-2019 17:12:17 7.4 C 20 %
3273 15-12-2019 17:22:17 7.8 C 20 %
3274 15-12-2019 17:32:17 7.2 C 21 %
3275 15-12-2019 17:42:17 7.6 C 20 %
Sensor: Nr:Datum:Temp:Feuchte:
Aussen-T/F 3276 15-12-2019 17:52:17 7.7 C 20 %
3277 15-12-2019 18:02:17 7.5 C 20 %
3278 15-12-2019 18:12:17 8.2 C 20 %
3279 15-12-2019 18:22:17 7.5 C 20 %
3280 15-12-2019 18:32:17 6.9 C 25 %
3281 15-12-2019 18:42:17 6.2 C 27 %
3282 15-12-2019 18:52:18 5.9 C 29 %
3283 15-12-2019 19:02:17 5.4 C 30 %
3284 15-12-2019 19:12:17 5.3 C 31 %
3285 15-12-2019 19:22:17 4.9 C 32 %
3286 15-12-2019 19:32:18 5.3 C 32 %
3287 15-12-2019 19:42:18 5 C 33 %
3288 15-12-2019 19:52:17 5.4 C 33 %
3289 15-12-2019 20:02:17 5.2 C 33 %
3290 15-12-2019 20:12:17 4.7 C 35 %
3291 15-12-2019 20:22:17 4.4 C 36 %
3292 15-12-2019 20:32:17 4.3 C 37 %
3293 15-12-2019 20:42:17 3.9 C 39 %
3294 15-12-2019 20:52:17 3.7 C 40 %
3295 15-12-2019 21:02:17 3.5 C 41 %
3296 15-12-2019 21:12:17 3.3 C 41 %
3297 15-12-2019 21:22:17 3.1 C 41 %
3298 15-12-2019 21:32:18 2.8 C 42 %
3299 15-12-2019 21:42:18 2.9 C 43 %
3300 15-12-2019 21:52:17 3.3 C 43 %
Sensor: Nr:Datum:Temp:Feuchte:
Aussen-T/F 3301 15-12-2019 22:02:17 3.3 C 44 %
3302 15-12-2019 22:12:17 3.3 C 43 %
3303 15-12-2019 22:22:17 3.5 C 43 %
3304 15-12-2019 22:32:17 3.5 C 43 %
3305 15-12-2019 22:42:17 3.4 C 43 %
3306 15-12-2019 22:52:18 3.3 C 43 %
3307 15-12-2019 23:02:17 3.5 C 43 %
3308 15-12-2019 23:12:18 3.6 C 43 %
3309 15-12-2019 23:22:17 3.7 C 43 %
3310 15-12-2019 23:32:18 3.5 C 42 %
3311 15-12-2019 23:42:18 3.3 C 42 %
3312 15-12-2019 23:52:17 3.8 C 43 %
3313 16-12-2019 00:02:17 4 C 42 %
3314 16-12-2019 00:12:17 4.4 C 42 %
3315 16-12-2019 00:22:17 4.4 C 42 %
3316 16-12-2019 00:32:17 4.5 C 42 %
3317 16-12-2019 00:42:17 4.5 C 42 %
3318 16-12-2019 00:52:18 4.7 C 42 %
3319 16-12-2019 01:02:17 5.1 C 41 %
3320 16-12-2019 01:12:17 5 C 41 %
3321 16-12-2019 01:22:17 5.2 C 42 %
3322 16-12-2019 01:32:17 5.2 C 41 %
3323 16-12-2019 01:42:18 5.3 C 42 %
3324 16-12-2019 01:52:17 5.5 C 42 %
3325 16-12-2019 02:02:18 5.4 C 42 %
Sensor: Nr:Datum:Temp:Feuchte:
Aussen-T/F 3326 16-12-2019 02:12:18 5.5 C 42 %
3327 16-12-2019 02:22:17 5.7 C 42 %
3328 16-12-2019 02:32:17 5.7 C 42 %
3329 16-12-2019 02:42:17 5.9 C 42 %
3330 16-12-2019 02:52:18 5.8 C 41 %
3331 16-12-2019 03:02:17 5.8 C 41 %
3332 16-12-2019 03:12:17 5.9 C 41 %
3333 16-12-2019 03:22:17 5.9 C 41 %
3334 16-12-2019 03:32:18 5.9 C 41 %
3335 16-12-2019 03:42:18 5.8 C 41 %
3336 16-12-2019 03:52:17 6 C 41 %
3337 16-12-2019 04:02:17 6 C 41 %
3338 16-12-2019 04:12:17 6 C 41 %
3339 16-12-2019 04:22:17 5.9 C 41 %
3340 16-12-2019 04:32:17 6.1 C 41 %
3341 16-12-2019 04:42:17 6.2 C 41 %
3342 16-12-2019 04:52:17 6.3 C 41 %
3343 16-12-2019 05:02:17 6.4 C 41 %
3344 16-12-2019 05:12:17 6.4 C 41 %
3345 16-12-2019 05:22:17 6.5 C 41 %
3346 16-12-2019 05:32:17 6.6 C 41 %
3347 16-12-2019 05:42:17 6.6 C 41 %
3348 16-12-2019 05:52:17 6.8 C 41 %
3349 16-12-2019 06:02:17 6.9 C 41 %
3350 16-12-2019 06:12:17 6.9 C 41 %
Sensor: Nr:Datum:Temp:Feuchte:
Aussen-T/F 3351 16-12-2019 06:22:17 6.8 C 40 %
3352 16-12-2019 06:32:17 6.7 C 40 %
3353 16-12-2019 06:42:17 6.8 C 40 %
3354 16-12-2019 06:52:17 6.8 C 40 %
3355 16-12-2019 07:02:17 6.8 C 40 %
3356 16-12-2019 07:12:17 6.7 C 40 %
3357 16-12-2019 07:22:17 6.8 C 40 %
3358 16-12-2019 07:32:18 6.9 C 41 %
3359 16-12-2019 07:42:18 6.9 C 41 %
3360 16-12-2019 07:52:17 7 C 40 %
3361 16-12-2019 08:02:17 7.1 C 40 %
3362 16-12-2019 08:12:17 7 C 40 %
3363 16-12-2019 08:22:17 7.1 C 40 %
3364 16-12-2019 08:32:17 7.1 C 40 %
3365 16-12-2019 08:42:17 7.1 C 40 %
3366 16-12-2019 08:52:17 7.2 C 40 %
3367 16-12-2019 09:02:17 7.3 C 40 %
3368 16-12-2019 09:12:17 7.5 C 40 %
3369 16-12-2019 09:22:18 7.4 C 40 %
3370 16-12-2019 09:32:17 7.5 C 40 %
3371 16-12-2019 09:42:17 7.5 C 40 %
3372 16-12-2019 09:52:17 7.6 C 40 %
3373 16-12-2019 10:02:18 7.6 C 40 %
3374 16-12-2019 10:12:18 7.7 C 40 %
3375 16-12-2019 10:22:17 7.8 C 40 %
Sensor: Nr:Datum:Temp:Feuchte:
Aussen-T/F 3376 16-12-2019 10:32:17 7.9 C 40 %
3377 16-12-2019 10:42:17 8.1 C 40 %
3378 16-12-2019 10:52:17 8.2 C 40 %
3379 16-12-2019 11:02:17 8.3 C 40 %
3380 16-12-2019 11:12:17 8.5 C 40 %
3381 16-12-2019 11:22:17 8.9 C 40 %
3382 16-12-2019 11:32:18 8.8 C 39 %
3383 16-12-2019 11:42:18 9.1 C 39 %
3384 16-12-2019 11:52:17 9.4 C 39 %
3385 16-12-2019 12:02:17 9.3 C 38 %
3386 16-12-2019 12:12:17 9.3 C 37 %
3387 16-12-2019 12:22:17 9.3 C 37 %
3388 16-12-2019 12:32:17 9.4 C 37 %
3389 16-12-2019 12:42:17 9.4 C 38 %
3390 16-12-2019 12:52:17 9.8 C 38 %
3391 16-12-2019 13:02:17 9.9 C 36 %
3392 16-12-2019 13:12:17 9.9 C 36 %
3393 16-12-2019 13:22:17 10 C 35 %
3394 16-12-2019 13:32:17 10.2 C 34 %
3395 16-12-2019 13:42:17 10.2 C 35 %
3396 16-12-2019 13:52:18 10.3 C 34 %
3397 16-12-2019 14:02:17 10.1 C 34 %
3398 16-12-2019 14:12:17 10.2 C 34 %
3399 16-12-2019 14:22:17 10.3 C 34 %
3400 16-12-2019 14:32:17 10.2 C 33 %
Sensor: Nr:Datum:Temp:Feuchte:
Aussen-T/F 3401 16-12-2019 14:42:17 10.1 C 34 %
3402 16-12-2019 14:52:18 10.1 C 34 %
3403 16-12-2019 15:02:17 9.9 C 35 %
3404 16-12-2019 15:12:17 9.8 C 35 %
3405 16-12-2019 15:22:17 9.6 C 36 %
3406 16-12-2019 15:32:18 9.3 C 37 %
3407 16-12-2019 15:42:18 9.1 C 39 %
3408 16-12-2019 15:52:17 9 C 40 %
3409 16-12-2019 16:02:17 8.7 C 40 %
3410 16-12-2019 16:12:17 8.5 C 40 %
3411 16-12-2019 16:22:17 8.4 C 40 %
3412 16-12-2019 16:32:18 8.2 C 41 %
3413 16-12-2019 16:42:18 8 C 40 %
3414 16-12-2019 16:52:17 7.7 C 41 %
3415 16-12-2019 17:02:17 7.4 C 41 %
3416 16-12-2019 17:12:17 7.3 C 41 %
3417 16-12-2019 17:22:17 7.5 C 41 %
3418 16-12-2019 17:32:17 7.3 C 41 %
3419 16-12-2019 17:42:17 7.2 C 41 %
3420 16-12-2019 17:52:17 7 C 41 %
3421 16-12-2019 18:02:17 7.1 C 41 %
3422 16-12-2019 18:12:17 7.4 C 41 %
3423 16-12-2019 18:22:17 7.5 C 41 %
3424 16-12-2019 18:32:17 8.2 C 40 %
3425 16-12-2019 18:42:17 8.1 C 38 %
Sensor: Nr:Datum:Temp:Feuchte:
Aussen-T/F 3426 16-12-2019 18:52:17 8.7 C 37 %
3427 16-12-2019 19:02:18 8.5 C 35 %
3428 16-12-2019 19:12:18 7.9 C 36 %
3429 16-12-2019 19:22:17 7.7 C 37 %
3430 16-12-2019 19:32:17 8.5 C 40 %
3431 16-12-2019 19:42:17 7.9 C 37 %
3432 16-12-2019 19:52:18 8 C 37 %
3433 16-12-2019 20:02:17 7.9 C 37 %
3434 16-12-2019 20:12:17 8.1 C 36 %
3435 16-12-2019 20:22:17 7.7 C 37 %
3436 16-12-2019 20:32:17 8 C 39 %
3437 16-12-2019 20:42:17 7.9 C 36 %
3438 16-12-2019 20:52:17 7.8 C 36 %
3439 16-12-2019 21:02:17 7.3 C 37 %
3440 16-12-2019 21:12:17 7.2 C 40 %
3441 16-12-2019 21:22:17 7.5 C 39 %
3442 16-12-2019 21:32:17 7.2 C 38 %
3443 16-12-2019 21:42:17 7 C 40 %
3444 16-12-2019 21:52:17 6.7 C 41 %
3445 16-12-2019 22:02:17 6.9 C 41 %
3446 16-12-2019 22:12:17 7.5 C 40 %
3447 16-12-2019 22:22:17 7.4 C 38 %
3448 16-12-2019 22:32:17 7.9 C 37 %
3449 16-12-2019 22:42:17 7.8 C 36 %
3450 16-12-2019 22:52:18 7.3 C 37 %
Sensor: Nr:Datum:Temp:Feuchte:
Aussen-T/F 3451 16-12-2019 23:02:17 7.3 C 39 %
3452 16-12-2019 23:12:17 7.3 C 39 %
3453 16-12-2019 23:22:17 7.5 C 40 %
3454 16-12-2019 23:32:17 7.6 C 39 %
3455 16-12-2019 23:42:17 7.6 C 39 %
3456 16-12-2019 23:52:18 7.8 C 39 %
3457 17-12-2019 00:02:17 7.6 C 37 %
3458 17-12-2019 00:12:17 7.5 C 38 %
3459 17-12-2019 00:22:17 7.6 C 38 %
3460 17-12-2019 00:32:18 7.3 C 39 %
3461 17-12-2019 00:42:18 7.2 C 40 %
3462 17-12-2019 00:52:17 7.4 C 39 %
3463 17-12-2019 01:02:17 7.2 C 39 %
3464 17-12-2019 01:12:17 7.4 C 40 %
3465 17-12-2019 01:22:17 7.8 C 39 %
3466 17-12-2019 01:32:17 7.3 C 37 %
3467 17-12-2019 01:42:17 7.4 C 38 %
3468 17-12-2019 01:52:17 7.4 C 37 %
3469 17-12-2019 02:02:18 7.4 C 37 %
3470 17-12-2019 02:12:18 7.6 C 37 %
3471 17-12-2019 02:22:17 7.3 C 37 %
3472 17-12-2019 02:32:17 7.1 C 37 %
3473 17-12-2019 02:42:17 7.5 C 36 %
3474 17-12-2019 02:52:18 7.6 C 36 %
3475 17-12-2019 03:02:17 8 C 35 %
Sensor: Nr:Datum:Temp:Feuchte:
Aussen-T/F 3476 17-12-2019 03:12:17 8.1 C 35 %
3477 17-12-2019 03:22:17 8.4 C 35 %
3478 17-12-2019 03:32:17 8.8 C 32 %
3479 17-12-2019 03:42:17 8.9 C 32 %
3480 17-12-2019 03:52:18 8.8 C 32 %
3481 17-12-2019 04:02:17 8.5 C 32 %
3482 17-12-2019 04:12:17 8.5 C 32 %
3483 17-12-2019 04:22:17 8.4 C 32 %
3484 17-12-2019 04:32:17 8.4 C 32 %
3485 17-12-2019 04:42:17 8 C 32 %
3486 17-12-2019 04:52:18 8.3 C 33 %
3487 17-12-2019 05:02:17 8.5 C 33 %
3488 17-12-2019 05:12:17 8.5 C 33 %
3489 17-12-2019 05:22:17 8.2 C 33 %
3490 17-12-2019 05:32:17 8.1 C 34 %
3491 17-12-2019 05:42:17 7.9 C 35 %
3492 17-12-2019 05:52:17 7.9 C 36 %
3493 17-12-2019 06:02:17 7.8 C 36 %
3494 17-12-2019 06:12:17 7.3 C 36 %
3495 17-12-2019 06:22:18 7.3 C 38 %
3496 17-12-2019 06:32:17 7.5 C 38 %
3497 17-12-2019 06:42:17 7.6 C 36 %
3498 17-12-2019 06:52:17 7.6 C 38 %
3499 17-12-2019 07:02:17 7.7 C 36 %
3500 17-12-2019 07:12:17 7.6 C 37 %
Sensor: Nr:Datum:Temp:Feuchte:
Aussen-T/F 3501 17-12-2019 07:22:17 7.5 C 36 %
3502 17-12-2019 07:32:18 7 C 37 %
3503 17-12-2019 07:42:18 7.4 C 38 %
3504 17-12-2019 07:52:17 7.2 C 36 %
3505 17-12-2019 08:02:17 7.2 C 36 %
3506 17-12-2019 08:12:17 6.9 C 37 %
3507 17-12-2019 08:22:17 6.9 C 38 %
3508 17-12-2019 08:32:17 7 C 38 %
3509 17-12-2019 08:42:18 6.9 C 37 %
3510 17-12-2019 08:52:17 6.9 C 37 %
3511 17-12-2019 09:02:17 6.5 C 38 %
3512 17-12-2019 09:12:17 6.4 C 39 %
3513 17-12-2019 09:22:18 6.5 C 40 %
3514 17-12-2019 09:32:17 6.4 C 40 %
3515 17-12-2019 09:42:17 6.6 C 40 %
3516 17-12-2019 09:52:17 6.3 C 39 %
3517 17-12-2019 10:02:18 6.4 C 40 %
3518 17-12-2019 10:12:18 6.4 C 40 %
3519 17-12-2019 10:22:17 6.4 C 39 %
3520 17-12-2019 10:32:17 6.8 C 40 %
3521 17-12-2019 10:42:17 7.2 C 37 %
3522 17-12-2019 10:52:17 8 C 36 %
3523 17-12-2019 11:02:17 8.6 C 34 %
3524 17-12-2019 11:12:17 8.5 C 32 %
3525 17-12-2019 11:22:17 8.7 C 32 %
Sensor: Nr:Datum:Temp:Feuchte:
Aussen-T/F 3526 17-12-2019 11:32:17 9 C 32 %
3527 17-12-2019 11:42:17 9.1 C 32 %
3528 17-12-2019 11:52:17 9 C 32 %
3529 17-12-2019 12:02:17 9 C 34 %
3530 17-12-2019 12:12:17 9.2 C 34 %
3531 17-12-2019 12:22:17 9.5 C 33 %
3532 17-12-2019 12:32:17 9.7 C 32 %
3533 17-12-2019 12:42:17 9.8 C 32 %
3534 17-12-2019 12:52:17 9.6 C 32 %
3535 17-12-2019 13:02:17 10.1 C 31 %
3536 17-12-2019 13:12:17 10.4 C 30 %
3537 17-12-2019 13:22:17 10.6 C 30 %
3538 17-12-2019 13:32:17 11 C 29 %
3539 17-12-2019 13:42:17 11.6 C 28 %
3540 17-12-2019 13:52:18 12.3 C 26 %
3541 17-12-2019 14:02:17 12.5 C 26 %
3542 17-12-2019 14:12:17 12.4 C 26 %
3543 17-12-2019 14:22:17 11.6 C 27 %
3544 17-12-2019 14:32:17 11.4 C 27 %
3545 17-12-2019 14:42:17 11.5 C 27 %
3546 17-12-2019 14:52:17 11.8 C 27 %
3547 17-12-2019 15:02:17 12 C 26 %
3548 17-12-2019 15:12:17 12 C 26 %
3549 17-12-2019 15:22:17 11.8 C 27 %
3550 17-12-2019 15:32:17 11.8 C 27 %
Sensor: Nr:Datum:Temp:Feuchte:
Aussen-T/F 3551 17-12-2019 15:42:17 12.3 C 25 %
3552 17-12-2019 15:52:18 12.2 C 25 %
3553 17-12-2019 16:02:17 12.4 C 25 %
3554 17-12-2019 16:12:17 12.4 C 25 %
3555 17-12-2019 16:22:17 12.5 C 25 %
3556 17-12-2019 16:32:18 12.6 C 25 %
3557 17-12-2019 16:42:18 12.2 C 25 %
3558 17-12-2019 16:52:17 11.8 C 25 %
3559 17-12-2019 17:02:17 11.2 C 26 %
3560 17-12-2019 17:12:18 11.5 C 25 %
3561 17-12-2019 17:22:17 12 C 24 %
3562 17-12-2019 17:32:18 13.1 C 20 %
3563 17-12-2019 17:42:18 13.4 C 20 %
3564 17-12-2019 17:52:17 13.8 C 20 %
3565 17-12-2019 18:02:17 13.4 C 20 %
3566 17-12-2019 18:12:17 13.2 C 20 %
3567 17-12-2019 18:22:17 13.6 C 20 %
3568 17-12-2019 18:32:17 13.7 C 20 %
3569 17-12-2019 18:42:17 13.1 C 21 %
3570 17-12-2019 18:52:17 12.7 C 25 %
3571 17-12-2019 19:02:17 12.8 C 25 %
3572 17-12-2019 19:12:17 13.1 C 22 %
3573 17-12-2019 19:22:17 12.8 C 25 %
3574 17-12-2019 19:32:18 11.7 C 29 %
3575 17-12-2019 19:42:18 11.6 C 29 %
Sensor: Nr:Datum:Temp:Feuchte:
Aussen-T/F 3576 17-12-2019 19:52:17 11.6 C 30 %
3577 17-12-2019 20:02:18 11.6 C 30 %
3578 17-12-2019 20:12:18 11.5 C 31 %
3579 17-12-2019 20:22:17 11.6 C 31 %
3580 17-12-2019 20:32:17 11.3 C 33 %
3581 17-12-2019 20:42:17 11.2 C 35 %
3582 17-12-2019 20:52:17 11 C 36 %
3583 17-12-2019 21:02:17 10.9 C 36 %
3584 17-12-2019 21:12:17 10.5 C 38 %
3585 17-12-2019 21:22:17 10.3 C 39 %
3586 17-12-2019 21:32:17 10.4 C 38 %
3587 17-12-2019 21:42:17 11.5 C 31 %
3588 17-12-2019 21:52:17 11.3 C 31 %
3589 17-12-2019 22:02:17 13 C 25 %
3590 17-12-2019 22:12:17 12.5 C 26 %
3591 17-12-2019 22:22:17 13.1 C 25 %
3592 17-12-2019 22:32:17 13.4 C 25 %
3593 17-12-2019 22:42:17 13.2 C 25 %
3594 17-12-2019 22:52:17 13.1 C 25 %
3595 17-12-2019 23:02:17 12.4 C 26 %
3596 17-12-2019 23:12:17 11.9 C 29 %
3597 17-12-2019 23:22:17 11.3 C 30 %
3598 17-12-2019 23:32:17 11.1 C 31 %
3599 17-12-2019 23:42:17 11 C 30 %
3600 17-12-2019 23:52:17 10.8 C 33 %
Sensor: Nr:Datum:Temp:Feuchte:
Aussen-T/F 3601 18-12-2019 00:02:17 10.4 C 35 %
3602 18-12-2019 00:12:17 10.4 C 34 %
3603 18-12-2019 00:22:17 10.5 C 34 %
3604 18-12-2019 00:32:18 10.9 C 31 %
3605 18-12-2019 00:42:18 11 C 30 %
3606 18-12-2019 00:52:17 11 C 30 %
3607 18-12-2019 01:02:17 10.8 C 30 %
3608 18-12-2019 01:12:17 11 C 29 %
3609 18-12-2019 01:22:17 11.1 C 29 %
3610 18-12-2019 01:32:18 10.9 C 30 %
3611 18-12-2019 01:42:18 10.4 C 30 %
3612 18-12-2019 01:52:17 10.8 C 30 %
3613 18-12-2019 02:02:17 11.1 C 30 %
3614 18-12-2019 02:12:17 11.1 C 29 %
3615 18-12-2019 02:22:17 11.2 C 30 %
3616 18-12-2019 02:32:17 11.3 C 29 %
3617 18-12-2019 02:42:18 10.9 C 30 %
3618 18-12-2019 02:52:17 10.9 C 31 %
3619 18-12-2019 03:02:17 10.6 C 33 %
3620 18-12-2019 03:12:17 10.3 C 35 %
3621 18-12-2019 03:22:18 10.3 C 37 %
3622 18-12-2019 03:32:17 10.1 C 37 %
3623 18-12-2019 03:42:17 10 C 38 %
3624 18-12-2019 03:52:18 10.1 C 38 %
3625 18-12-2019 04:02:18 10 C 38 %
Sensor: Nr:Datum:Temp:Feuchte:
Aussen-T/F 3626 18-12-2019 04:12:18 9.9 C 38 %
3627 18-12-2019 04:22:17 9.8 C 35 %
3628 18-12-2019 04:32:18 9.6 C 34 %
3629 18-12-2019 04:42:18 9.5 C 33 %
3630 18-12-2019 04:52:17 9.3 C 33 %
3631 18-12-2019 05:02:18 9.2 C 33 %
3632 18-12-2019 05:12:18 9.1 C 33 %
3633 18-12-2019 05:22:17 8.8 C 35 %
3634 18-12-2019 05:32:17 8.7 C 36 %
3635 18-12-2019 05:42:17 8.2 C 36 %
3636 18-12-2019 05:52:17 8.2 C 39 %
3637 18-12-2019 06:02:18 8.1 C 39 %
3638 18-12-2019 06:12:18 8 C 37 %
3639 18-12-2019 06:22:17 8 C 37 %
3640 18-12-2019 06:32:18 7.9 C 37 %
3641 18-12-2019 06:42:18 7.5 C 37 %
3642 18-12-2019 06:52:17 7.4 C 39 %
3643 18-12-2019 07:02:17 7.2 C 40 %
3644 18-12-2019 07:12:17 7.3 C 40 %
3645 18-12-2019 07:22:17 7.3 C 40 %
3646 18-12-2019 07:32:17 7.1 C 39 %
3647 18-12-2019 07:42:17 6.8 C 40 %
3648 18-12-2019 07:52:17 6.9 C 41 %
3649 18-12-2019 08:02:17 6.7 C 41 %
3650 18-12-2019 08:12:17 6.5 C 41 %
Sensor: Nr:Datum:Temp:Feuchte:
Aussen-T/F 3651 18-12-2019 08:22:17 6.5 C 41 %
3652 18-12-2019 08:32:17 6.3 C 41 %
3653 18-12-2019 08:42:17 6.4 C 42 %
3654 18-12-2019 08:52:17 6.6 C 42 %
3655 18-12-2019 09:02:17 6.5 C 41 %
3656 18-12-2019 09:12:17 6.1 C 40 %
3657 18-12-2019 09:22:17 6 C 41 %
3658 18-12-2019 09:32:17 6.5 C 42 %
3659 18-12-2019 09:42:17 6.7 C 42 %
3660 18-12-2019 09:52:17 6.9 C 41 %
3661 18-12-2019 10:02:17 7 C 40 %
3662 18-12-2019 10:12:18 7.1 C 40 %
3663 18-12-2019 10:22:17 7.5 C 38 %
3664 18-12-2019 10:32:17 7.5 C 36 %
3665 18-12-2019 10:42:17 7.4 C 36 %
3666 18-12-2019 10:52:17 6.9 C 38 %
3667 18-12-2019 11:02:17 6.8 C 38 %
3668 18-12-2019 11:12:17 6.8 C 38 %
3669 18-12-2019 11:22:17 6.6 C 38 %
3670 18-12-2019 11:32:18 6.7 C 39 %
3671 18-12-2019 11:42:18 6.9 C 38 %
3672 18-12-2019 11:52:17 7.6 C 35 %
3673 18-12-2019 12:02:17 8.1 C 33 %
3674 18-12-2019 12:12:17 8 C 32 %
3675 18-12-2019 12:22:17 8.3 C 31 %
Sensor: Nr:Datum:Temp:Feuchte:
Aussen-T/F 3676 18-12-2019 12:32:17 8.6 C 30 %
3677 18-12-2019 12:42:17 8.8 C 29 %
3678 18-12-2019 12:52:17 8.7 C 29 %
3679 18-12-2019 13:02:17 8.4 C 30 %
3680 18-12-2019 13:12:17 8.2 C 30 %
3681 18-12-2019 13:22:17 7.9 C 31 %
3682 18-12-2019 13:32:18 7.8 C 32 %
3683 18-12-2019 13:42:18 7.7 C 33 %
3684 18-12-2019 13:52:17 7.8 C 32 %
3685 18-12-2019 14:02:18 7.8 C 33 %
3686 18-12-2019 14:12:18 7.7 C 33 %
3687 18-12-2019 14:22:17 7.5 C 34 %
3688 18-12-2019 14:32:17 7.3 C 35 %
3689 18-12-2019 14:42:17 7.2 C 35 %
3690 18-12-2019 14:52:17 7.2 C 35 %
3691 18-12-2019 15:02:17 7.2 C 35 %
3692 18-12-2019 15:12:17 7 C 36 %
3693 18-12-2019 15:22:17 7 C 36 %
3694 18-12-2019 15:32:17 6.7 C 37 %
3695 18-12-2019 15:42:17 6.8 C 37 %
3696 18-12-2019 15:52:17 6.7 C 36 %
3697 18-12-2019 16:02:17 6.6 C 36 %
3698 18-12-2019 16:12:17 6.5 C 36 %
3699 18-12-2019 16:22:17 6.4 C 36 %
3700 18-12-2019 16:32:17 6 C 36 %
Sensor: Nr:Datum:Temp:Feuchte:
Aussen-T/F 3701 18-12-2019 16:42:17 5.8 C 37 %
3702 18-12-2019 16:52:17 5.7 C 39 %
3703 18-12-2019 17:02:17 5.3 C 38 %
3704 18-12-2019 17:12:17 4.9 C 40 %
3705 18-12-2019 17:22:17 5 C 42 %
3706 18-12-2019 17:32:17 4.4 C 41 %
3707 18-12-2019 17:42:17 4.2 C 42 %
3708 18-12-2019 17:52:18 4.1 C 42 %
3709 18-12-2019 18:02:17 4.1 C 43 %
3710 18-12-2019 18:12:17 4.1 C 43 %
3711 18-12-2019 18:22:17 4.4 C 43 %
3712 18-12-2019 18:32:17 4.5 C 43 %
3713 18-12-2019 18:42:17 4.3 C 42 %
3714 18-12-2019 18:52:17 4.6 C 43 %
3715 18-12-2019 19:02:17 5 C 42 %
3716 18-12-2019 19:12:17 4.7 C 42 %
3717 18-12-2019 19:22:17 4.3 C 42 %
3718 18-12-2019 19:32:18 4.9 C 43 %
3719 18-12-2019 19:42:18 4.7 C 42 %
3720 18-12-2019 19:52:17 4.6 C 42 %
3721 18-12-2019 20:02:17 5 C 42 %
3722 18-12-2019 20:12:17 5 C 41 %
3723 18-12-2019 20:22:17 4.5 C 41 %
3724 18-12-2019 20:32:17 4.5 C 41 %
3725 18-12-2019 20:42:18 4.1 C 41 %
Sensor: Nr:Datum:Temp:Feuchte:
Aussen-T/F 3726 18-12-2019 20:52:17 3.9 C 42 %
3727 18-12-2019 21:02:17 3.7 C 43 %
3728 18-12-2019 21:12:17 3.6 C 42 %
3729 18-12-2019 21:22:17 3.6 C 43 %
3730 18-12-2019 21:32:17 3.7 C 43 %
3731 18-12-2019 21:42:17 3.6 C 43 %
3732 18-12-2019 21:52:17 3.4 C 43 %
3733 18-12-2019 22:02:17 3.1 C 43 %
3734 18-12-2019 22:12:17 3.1 C 43 %
3735 18-12-2019 22:22:17 2.7 C 43 %
3736 18-12-2019 22:32:17 2.6 C 43 %
3737 18-12-2019 22:42:17 2.5 C 43 %
3738 18-12-2019 22:52:17 2.4 C 43 %
3739 18-12-2019 23:02:17 2.4 C 43 %
3740 18-12-2019 23:12:17 2.3 C 43 %
3741 18-12-2019 23:22:18 2.3 C 43 %
3742 18-12-2019 23:32:17 2 C 43 %
3743 18-12-2019 23:42:17 2 C 43 %
3744 18-12-2019 23:52:17 2 C 43 %
3745 19-12-2019 00:02:18 2.3 C 44 %
3746 19-12-2019 00:12:18 2 C 43 %
3747 19-12-2019 00:22:17 2 C 43 %
3748 19-12-2019 00:32:17 2.1 C 43 %
3749 19-12-2019 00:42:17 2.4 C 44 %
3750 19-12-2019 00:52:18 2.3 C 43 %
Sensor: Nr:Datum:Temp:Feuchte:
Aussen-T/F 3751 19-12-2019 01:02:17 2.1 C 43 %
3752 19-12-2019 01:12:17 2 C 43 %
3753 19-12-2019 01:22:17 2 C 43 %
3754 19-12-2019 01:32:18 1.6 C 44 %
3755 19-12-2019 01:42:18 1.9 C 44 %
3756 19-12-2019 01:52:17 2.3 C 43 %
3757 19-12-2019 02:02:17 2.2 C 43 %
3758 19-12-2019 02:12:17 2 C 43 %
3759 19-12-2019 02:22:17 2 C 43 %
3760 19-12-2019 02:32:18 2 C 43 %
3761 19-12-2019 02:42:18 1.8 C 44 %
3762 19-12-2019 02:52:17 2.1 C 43 %
3763 19-12-2019 03:02:18 1.5 C 44 %
3764 19-12-2019 03:12:18 1.6 C 44 %
3765 19-12-2019 03:22:17 1.6 C 44 %
3766 19-12-2019 03:32:17 1.8 C 44 %
3767 19-12-2019 03:42:17 1.7 C 44 %
3768 19-12-2019 03:52:17 1.7 C 44 %
3769 19-12-2019 04:02:17 1.6 C 44 %
3770 19-12-2019 04:12:17 1.5 C 44 %
3771 19-12-2019 04:22:18 1.5 C 44 %
3772 19-12-2019 04:32:17 1.5 C 44 %
3773 19-12-2019 04:42:17 1.4 C 44 %
3774 19-12-2019 04:52:18 1.6 C 44 %
3775 19-12-2019 05:02:17 1.4 C 44 %
Sensor: Nr:Datum:Temp:Feuchte:
Aussen-T/F 3776 19-12-2019 05:12:17 1.5 C 44 %
3777 19-12-2019 05:22:17 1.4 C 44 %
3778 19-12-2019 05:32:17 1.3 C 44 %
3779 19-12-2019 05:42:17 1.3 C 44 %
3780 19-12-2019 05:52:17 1.1 C 44 %
3781 19-12-2019 06:02:17 1.1 C 44 %
3782 19-12-2019 06:12:17 1.2 C 44 %
3783 19-12-2019 06:22:17 1 C 44 %
3784 19-12-2019 06:32:17 1.1 C 44 %
3785 19-12-2019 06:42:18 1 C 43 %
3786 19-12-2019 06:52:17 0.7 C 45 %
3787 19-12-2019 07:02:17 1 C 44 %
3788 19-12-2019 07:12:17 0.9 C 45 %
3789 19-12-2019 07:22:17 1.7 C 44 %
3790 19-12-2019 07:32:17 3.5 C 43 %
3791 19-12-2019 07:42:18 3.2 C 42 %
3792 19-12-2019 07:52:17 3.1 C 42 %
3793 19-12-2019 08:02:18 4.6 C 42 %
3794 19-12-2019 08:12:18 3.8 C 42 %
3795 19-12-2019 08:22:17 3.7 C 42 %
3796 19-12-2019 08:32:18 4.6 C 41 %
3797 19-12-2019 08:42:18 4 C 41 %
3798 19-12-2019 08:52:17 3.3 C 41 %
3799 19-12-2019 09:02:17 4 C 41 %
3800 19-12-2019 09:12:17 4.4 C 41 %
Sensor: Nr:Datum:Temp:Feuchte:
Aussen-T/F 3801 19-12-2019 09:22:17 4.1 C 41 %
3802 19-12-2019 09:32:17 4.6 C 41 %
3803 19-12-2019 09:42:17 4.4 C 41 %
3804 19-12-2019 09:52:17 4.5 C 41 %
3805 19-12-2019 10:02:17 4.7 C 41 %
3806 19-12-2019 10:12:17 4.9 C 41 %
3807 19-12-2019 10:22:17 5.2 C 41 %
3808 19-12-2019 10:32:17 7 C 40 %
3809 19-12-2019 10:42:17 7.2 C 40 %
3810 19-12-2019 10:52:18 6.7 C 40 %
3811 19-12-2019 11:02:17 6.4 C 39 %
3812 19-12-2019 11:12:17 6.3 C 39 %
3813 19-12-2019 11:22:17 6.3 C 40 %
3814 19-12-2019 11:32:17 6.4 C 40 %
3815 19-12-2019 11:42:17 6.6 C 40 %
3816 19-12-2019 11:52:18 6.7 C 40 %
3817 19-12-2019 12:02:17 6.6 C 40 %
3818 19-12-2019 12:12:17 6.7 C 40 %
3819 19-12-2019 12:22:17 6.7 C 40 %
3820 19-12-2019 12:32:17 7 C 39 %
3821 19-12-2019 12:42:17 7 C 39 %
3822 19-12-2019 12:52:17 7.1 C 39 %
3823 19-12-2019 13:02:17 7.3 C 39 %
3824 19-12-2019 13:12:17 7.1 C 38 %
3825 19-12-2019 13:22:17 7.2 C 39 %
Sensor: Nr:Datum:Temp:Feuchte:
Aussen-T/F 3826 19-12-2019 13:32:17 7.2 C 39 %
3827 19-12-2019 13:42:17 7.3 C 38 %
3828 19-12-2019 13:52:17 7.3 C 38 %
3829 19-12-2019 14:02:17 7.3 C 38 %
3830 19-12-2019 14:12:17 7.1 C 38 %
3831 19-12-2019 14:22:17 7.1 C 38 %
3832 19-12-2019 14:32:17 7.2 C 38 %
3833 19-12-2019 14:42:17 7.3 C 37 %
3834 19-12-2019 14:52:17 7.9 C 36 %
3835 19-12-2019 15:02:17 8.1 C 34 %
3836 19-12-2019 15:12:17 8.1 C 33 %
3837 19-12-2019 15:22:17 8.4 C 32 %
3838 19-12-2019 15:32:18 8.6 C 32 %
3839 19-12-2019 15:42:18 8.7 C 31 %
3840 19-12-2019 15:52:17 8.8 C 31 %
3841 19-12-2019 16:02:17 8.7 C 30 %
3842 19-12-2019 16:12:17 8.3 C 31 %
3843 19-12-2019 16:22:18 8.1 C 31 %
3844 19-12-2019 16:32:17 7.9 C 32 %
3845 19-12-2019 16:42:17 7.9 C 31 %
3846 19-12-2019 16:52:17 7.6 C 32 %
3847 19-12-2019 17:02:17 7.4 C 32 %
3848 19-12-2019 17:12:17 6 C 35 %
3849 19-12-2019 17:22:17 5.7 C 37 %
3850 19-12-2019 17:32:17 5.5 C 39 %
Sensor: Nr:Datum:Temp:Feuchte:
Aussen-T/F 3851 19-12-2019 17:42:17 5 C 39 %
3852 19-12-2019 17:52:17 4.9 C 41 %
3853 19-12-2019 18:02:17 5.2 C 42 %
3854 19-12-2019 18:12:18 4.9 C 42 %
3855 19-12-2019 18:22:17 5.2 C 42 %
3856 19-12-2019 18:32:17 5 C 41 %
3857 19-12-2019 18:42:17 5 C 41 %
3858 19-12-2019 18:52:18 5.8 C 42 %
3859 19-12-2019 19:02:17 5.7 C 41 %
3860 19-12-2019 19:12:17 5.2 C 39 %
3861 19-12-2019 19:22:18 4.7 C 40 %
3862 19-12-2019 19:32:17 4.9 C 42 %
3863 19-12-2019 19:42:17 4.7 C 42 %
3864 19-12-2019 19:52:17 4.8 C 42 %
3865 19-12-2019 20:02:17 5 C 42 %
3866 19-12-2019 20:12:17 5 C 41 %
3867 19-12-2019 20:22:17 4.8 C 42 %
3868 19-12-2019 20:32:17 5.1 C 42 %
3869 19-12-2019 20:42:17 6 C 41 %
3870 19-12-2019 20:52:17 6 C 38 %
3871 19-12-2019 21:02:17 5.8 C 38 %
3872 19-12-2019 21:12:18 5.8 C 39 %
3873 19-12-2019 21:22:17 5.7 C 39 %
3874 19-12-2019 21:32:17 5.8 C 40 %
3875 19-12-2019 21:42:17 6 C 40 %
Sensor: Nr:Datum:Temp:Feuchte:
Aussen-T/F 3876 19-12-2019 21:52:17 5.7 C 40 %
3877 19-12-2019 22:02:17 5.6 C 40 %
3878 19-12-2019 22:12:17 5.8 C 41 %
3879 19-12-2019 22:22:18 6.2 C 41 %
3880 19-12-2019 22:32:18 5.9 C 40 %
3881 19-12-2019 22:42:18 5.1 C 38 %
3882 19-12-2019 22:52:17 5 C 41 %
3883 19-12-2019 23:02:17 5.4 C 43 %
3884 19-12-2019 23:12:17 5.5 C 42 %
3885 19-12-2019 23:22:17 5.5 C 42 %
3886 19-12-2019 23:32:17 5.4 C 42 %
3887 19-12-2019 23:42:17 5.4 C 42 %
3888 19-12-2019 23:52:17 5.1 C 41 %
3889 20-12-2019 00:02:17 4.8 C 42 %
3890 20-12-2019 00:12:17 4.3 C 41 %
3891 20-12-2019 00:22:17 4 C 41 %
3892 20-12-2019 00:32:17 3.9 C 43 %
3893 20-12-2019 00:42:17 3.7 C 42 %
3894 20-12-2019 00:52:17 3.4 C 43 %
3895 20-12-2019 01:02:17 3.1 C 42 %
3896 20-12-2019 01:12:17 3 C 43 %
3897 20-12-2019 01:22:17 3.3 C 44 %
3898 20-12-2019 01:32:17 3.1 C 43 %
3899 20-12-2019 01:42:17 3.1 C 43 %
3900 20-12-2019 01:52:17 2.8 C 44 %
Sensor: Nr:Datum:Temp:Feuchte:
Aussen-T/F 3901 20-12-2019 02:02:17 2.8 C 44 %
3902 20-12-2019 02:12:17 2.6 C 44 %
3903 20-12-2019 02:22:17 2.5 C 44 %
3904 20-12-2019 02:32:18 3.2 C 44 %
3905 20-12-2019 02:42:18 3.4 C 44 %
3906 20-12-2019 02:52:17 3.8 C 44 %
3907 20-12-2019 03:02:17 4.7 C 42 %
3908 20-12-2019 03:12:17 4.2 C 41 %
3909 20-12-2019 03:22:17 4.6 C 41 %
3910 20-12-2019 03:32:17 4.4 C 40 %
3911 20-12-2019 03:42:17 4.4 C 40 %
3912 20-12-2019 03:52:17 4.6 C 41 %
3913 20-12-2019 04:02:17 4.4 C 40 %
3914 20-12-2019 04:12:17 4.2 C 40 %
3915 20-12-2019 04:22:17 4 C 41 %
3916 20-12-2019 04:32:18 4.8 C 42 %
3917 20-12-2019 04:42:18 4.5 C 41 %
3918 20-12-2019 04:52:17 4.7 C 40 %
3919 20-12-2019 05:02:17 4.7 C 40 %
3920 20-12-2019 05:12:17 5.3 C 38 %
3921 20-12-2019 05:22:17 5.2 C 36 %
3922 20-12-2019 05:32:17 5.3 C 36 %
3923 20-12-2019 05:42:17 5.4 C 35 %
3924 20-12-2019 05:52:18 5.5 C 35 %
3925 20-12-2019 06:02:18 5.2 C 35 %
Sensor: Nr:Datum:Temp:Feuchte:
Aussen-T/F 3926 20-12-2019 06:12:18 5.3 C 35 %
3927 20-12-2019 06:22:17 5.6 C 35 %
3928 20-12-2019 06:32:17 6 C 32 %
3929 20-12-2019 06:42:17 6 C 31 %
3930 20-12-2019 06:52:17 5.7 C 32 %
3931 20-12-2019 07:02:17 5.8 C 31 %
3932 20-12-2019 07:12:17 5.9 C 31 %
3933 20-12-2019 07:22:17 6.1 C 31 %
3934 20-12-2019 07:32:17 5.9 C 33 %
3935 20-12-2019 07:42:17 6.4 C 31 %
3936 20-12-2019 07:52:17 6.8 C 30 %
3937 20-12-2019 08:02:17 7.1 C 27 %
3938 20-12-2019 08:12:17 6.4 C 31 %
3939 20-12-2019 08:22:17 6.4 C 32 %
3940 20-12-2019 08:32:18 6.5 C 32 %
3941 20-12-2019 08:42:18 6.3 C 32 %
3942 20-12-2019 08:52:17 6.3 C 33 %
3943 20-12-2019 09:02:17 6.5 C 33 %
3944 20-12-2019 09:12:17 6.7 C 31 %
3945 20-12-2019 09:22:17 6.5 C 33 %
3946 20-12-2019 09:32:17 6.4 C 35 %
3947 20-12-2019 09:42:17 6.5 C 35 %
3948 20-12-2019 09:52:17 6.5 C 34 %
3949 20-12-2019 10:02:17 6.2 C 31 %
3950 20-12-2019 10:12:17 6 C 33 %
Sensor: Nr:Datum:Temp:Feuchte:
Aussen-T/F 3951 20-12-2019 10:22:17 5.7 C 35 %
3952 20-12-2019 10:32:17 5.8 C 40 %
3953 20-12-2019 10:42:17 5.9 C 42 %
3954 20-12-2019 10:52:17 6 C 42 %
3955 20-12-2019 11:02:17 6.1 C 42 %
3956 20-12-2019 11:12:17 6 C 42 %
3957 20-12-2019 11:22:17 6.3 C 42 %
3958 20-12-2019 11:32:17 6.5 C 42 %
3959 20-12-2019 11:42:17 6.7 C 41 %
3960 20-12-2019 11:52:17 6.8 C 40 %
3961 20-12-2019 12:02:18 7 C 39 %
3962 20-12-2019 12:12:18 7.3 C 39 %
3963 20-12-2019 12:22:18 7.5 C 39 %
3964 20-12-2019 12:32:17 7.7 C 39 %
3965 20-12-2019 12:42:18 8 C 39 %
3966 20-12-2019 12:52:17 8.1 C 38 %
3967 20-12-2019 13:02:18 8.1 C 39 %
3968 20-12-2019 13:12:18 8.2 C 39 %
3969 20-12-2019 13:22:17 8.3 C 37 %
3970 20-12-2019 13:32:17 8.4 C 36 %
3971 20-12-2019 13:42:17 8.6 C 37 %
3972 20-12-2019 13:52:17 8.5 C 36 %
3973 20-12-2019 14:02:17 8.6 C 36 %
3974 20-12-2019 14:12:17 8.6 C 35 %
3975 20-12-2019 14:22:17 8.7 C 36 %
Sensor: Nr:Datum:Temp:Feuchte:
Aussen-T/F 3976 20-12-2019 14:32:17 8.7 C 36 %
3977 20-12-2019 14:42:17 8.5 C 35 %
3978 20-12-2019 14:52:18 8.3 C 36 %
3979 20-12-2019 15:02:17 8.2 C 37 %
3980 20-12-2019 15:12:17 8.3 C 38 %
3981 20-12-2019 15:22:17 8.3 C 39 %
3982 20-12-2019 15:32:17 8.2 C 40 %
3983 20-12-2019 15:42:17 8.3 C 41 %
3984 20-12-2019 15:52:17 8.2 C 40 %
3985 20-12-2019 16:02:17 8.2 C 40 %
3986 20-12-2019 16:12:18 8.3 C 40 %
3987 20-12-2019 16:22:17 8.3 C 41 %
3988 20-12-2019 16:32:17 8.4 C 41 %
3989 20-12-2019 16:42:17 8.4 C 41 %
3990 20-12-2019 16:52:18 8.6 C 41 %
3991 20-12-2019 17:02:17 9 C 41 %
3992 20-12-2019 17:12:18 9 C 40 %
3993 20-12-2019 17:22:17 9.1 C 36 %
3994 20-12-2019 17:32:17 8.7 C 38 %
3995 20-12-2019 17:42:17 8.8 C 37 %
3996 20-12-2019 17:52:18 8.7 C 38 %
3997 20-12-2019 18:02:17 8.9 C 37 %
3998 20-12-2019 18:12:17 8.9 C 36 %
3999 20-12-2019 18:22:17 8.9 C 37 %
4000 20-12-2019 18:32:17 8.9 C 37 %
Sensor: Nr:Datum:Temp:Feuchte:
Aussen-T/F 4001 20-12-2019 18:42:17 9.7 C 33 %
4002 20-12-2019 18:52:18 9.5 C 31 %
4003 20-12-2019 19:02:17 9.8 C 30 %
4004 20-12-2019 19:12:17 10.1 C 28 %
4005 20-12-2019 19:22:17 9.9 C 29 %
4006 20-12-2019 19:32:17 9.8 C 29 %
4007 20-12-2019 19:42:17 10 C 27 %
4008 20-12-2019 19:52:18 9.7 C 29 %
4009 20-12-2019 20:02:18 9.6 C 28 %
4010 20-12-2019 20:12:18 9.5 C 28 %
4011 20-12-2019 20:22:17 9.5 C 27 %
4012 20-12-2019 20:32:18 9 C 28 %
4013 20-12-2019 20:42:18 9 C 27 %
4014 20-12-2019 20:52:17 8.9 C 28 %
4015 20-12-2019 21:02:18 8.5 C 28 %
4016 20-12-2019 21:12:18 8.6 C 28 %
4017 20-12-2019 21:22:17 8.9 C 27 %
4018 20-12-2019 21:32:17 8.7 C 27 %
4019 20-12-2019 21:42:17 8.3 C 28 %
4020 20-12-2019 21:52:17 8.3 C 28 %
4021 20-12-2019 22:02:17 8.3 C 28 %
4022 20-12-2019 22:12:17 8.1 C 28 %
4023 20-12-2019 22:22:17 8.7 C 27 %
4024 20-12-2019 22:32:17 8.9 C 26 %
4025 20-12-2019 22:42:17 8.7 C 27 %
Sensor: Nr:Datum:Temp:Feuchte:
Aussen-T/F 4026 20-12-2019 22:52:17 8.7 C 27 %
4027 20-12-2019 23:02:17 8.5 C 27 %
4028 20-12-2019 23:12:17 8.4 C 27 %
4029 20-12-2019 23:22:17 8.2 C 28 %
4030 20-12-2019 23:32:17 8 C 28 %
4031 20-12-2019 23:42:17 8.3 C 27 %
4032 20-12-2019 23:52:18 8.1 C 27 %
4033 21-12-2019 00:02:17 7.9 C 28 %
4034 21-12-2019 00:12:17 7.7 C 28 %
4035 21-12-2019 00:22:17 7.5 C 30 %
4036 21-12-2019 00:32:17 7.5 C 30 %
4037 21-12-2019 00:42:17 7.2 C 30 %
4038 21-12-2019 00:52:18 7 C 30 %
4039 21-12-2019 01:02:17 6.9 C 32 %
4040 21-12-2019 01:12:17 7.3 C 31 %
4041 21-12-2019 01:22:17 7.4 C 31 %
4042 21-12-2019 01:32:17 7.3 C 32 %
4043 21-12-2019 01:42:17 7.5 C 31 %
4044 21-12-2019 01:52:17 7.5 C 32 %
4045 21-12-2019 02:02:17 7.9 C 30 %
4046 21-12-2019 02:12:17 8 C 29 %
4047 21-12-2019 02:22:17 8.2 C 28 %
4048 21-12-2019 02:32:18 7.8 C 30 %
4049 21-12-2019 02:42:18 7.8 C 30 %
4050 21-12-2019 02:52:17 7.8 C 30 %
Sensor: Nr:Datum:Temp:Feuchte:
Aussen-T/F 4051 21-12-2019 03:02:17 7.5 C 30 %
4052 21-12-2019 03:12:17 7.5 C 31 %
4053 21-12-2019 03:22:17 7.4 C 31 %
4054 21-12-2019 03:32:18 7.3 C 31 %
4055 21-12-2019 03:42:18 7.1 C 31 %
4056 21-12-2019 03:52:17 7.1 C 32 %
4057 21-12-2019 04:02:17 6.9 C 33 %
4058 21-12-2019 04:12:17 6.7 C 36 %
4059 21-12-2019 04:22:17 6.4 C 37 %
4060 21-12-2019 04:32:18 6 C 38 %
4061 21-12-2019 04:42:18 5.9 C 38 %
4062 21-12-2019 04:52:17 5.7 C 40 %
4063 21-12-2019 05:02:17 6 C 40 %
4064 21-12-2019 05:12:17 5.6 C 39 %
4065 21-12-2019 05:22:17 5.4 C 38 %
4066 21-12-2019 05:32:18 5.4 C 38 %
4067 21-12-2019 05:42:18 5.1 C 38 %
4068 21-12-2019 05:52:17 5.3 C 40 %
4069 21-12-2019 06:02:17 4.9 C 41 %
4070 21-12-2019 06:12:17 4.8 C 41 %
4071 21-12-2019 06:22:18 4.3 C 40 %
4072 21-12-2019 06:32:17 4.3 C 42 %
4073 21-12-2019 06:42:17 5 C 40 %
4074 21-12-2019 06:52:18 3.8 C 41 %
4075 21-12-2019 07:02:17 3.8 C 43 %
Sensor: Nr:Datum:Temp:Feuchte:
Aussen-T/F 4076 21-12-2019 07:12:18 3.5 C 42 %
4077 21-12-2019 07:22:17 3.4 C 43 %
4078 21-12-2019 07:32:17 3.3 C 43 %
4079 21-12-2019 07:42:17 3 C 42 %
4080 21-12-2019 07:52:17 3 C 43 %
4081 21-12-2019 08:02:17 3.1 C 44 %
4082 21-12-2019 08:12:17 3.6 C 44 %
4083 21-12-2019 08:22:17 3.7 C 44 %
4084 21-12-2019 08:32:17 3.9 C 43 %
4085 21-12-2019 08:42:17 4.6 C 43 %
4086 21-12-2019 08:52:17 4.9 C 42 %
4087 21-12-2019 09:02:17 5 C 39 %
4088 21-12-2019 09:12:17 4.5 C 38 %
4089 21-12-2019 09:22:17 4.4 C 38 %
4090 21-12-2019 09:32:17 4.4 C 39 %
4091 21-12-2019 09:42:17 4.6 C 40 %
4092 21-12-2019 09:52:17 4.6 C 38 %
4093 21-12-2019 10:02:17 4.8 C 38 %
4094 21-12-2019 10:12:17 4.8 C 37 %
4095 21-12-2019 10:22:17 5.1 C 37 %
4096 21-12-2019 10:32:17 5.2 C 36 %
4097 21-12-2019 10:42:17 5.1 C 37 %
4098 21-12-2019 10:52:17 5.2 C 37 %
4099 21-12-2019 11:02:17 5.3 C 37 %
4100 21-12-2019 11:12:17 5.3 C 37 %
Sensor: Nr:Datum:Temp:Feuchte:
Aussen-T/F 4101 21-12-2019 11:22:17 5.4 C 37 %
4102 21-12-2019 11:32:17 5.8 C 37 %
4103 21-12-2019 11:42:17 5.9 C 37 %
4104 21-12-2019 11:52:17 5.8 C 37 %
4105 21-12-2019 12:02:17 5.8 C 36 %
4106 21-12-2019 12:12:17 6.2 C 36 %
4107 21-12-2019 12:22:17 6.2 C 35 %
4108 21-12-2019 12:32:17 7 C 32 %
4109 21-12-2019 12:42:17 6.8 C 33 %
4110 21-12-2019 12:52:17 8 C 30 %
4111 21-12-2019 13:02:17 7.8 C 30 %
4112 21-12-2019 13:12:17 7.1 C 30 %
4113 21-12-2019 13:22:17 6.9 C 31 %
4114 21-12-2019 13:32:17 7.2 C 30 %
4115 21-12-2019 13:42:17 8 C 28 %
4116 21-12-2019 13:52:18 7.7 C 28 %
4117 21-12-2019 14:02:17 8.3 C 27 %
4118 21-12-2019 14:12:17 8.8 C 26 %
4119 21-12-2019 14:22:17 8.2 C 27 %
4120 21-12-2019 14:32:18 8.2 C 27 %
4121 21-12-2019 14:42:18 8.5 C 27 %
4122 21-12-2019 14:52:17 8.8 C 26 %
4123 21-12-2019 15:02:18 9 C 25 %
4124 21-12-2019 15:12:18 8.7 C 26 %
4125 21-12-2019 15:22:18 8.8 C 25 %
Sensor: Nr:Datum:Temp:Feuchte:
Aussen-T/F 4126 21-12-2019 15:32:17 8.7 C 25 %
4127 21-12-2019 15:42:17 8 C 26 %
4128 21-12-2019 15:52:17 7.5 C 28 %
4129 21-12-2019 16:02:17 7.7 C 27 %
4130 21-12-2019 16:12:17 7.6 C 29 %
4131 21-12-2019 16:22:17 7.4 C 30 %
4132 21-12-2019 16:32:17 7.4 C 30 %
4133 21-12-2019 16:42:17 7.7 C 28 %
4134 21-12-2019 16:52:17 7.9 C 27 %
4135 21-12-2019 17:02:17 7.6 C 29 %
4136 21-12-2019 17:12:17 7.3 C 30 %
4137 21-12-2019 17:22:17 7.2 C 30 %
4138 21-12-2019 17:32:17 7.3 C 30 %
4139 21-12-2019 17:42:17 7.3 C 29 %
4140 21-12-2019 17:52:17 7.2 C 29 %
4141 21-12-2019 18:02:17 7.6 C 27 %
4142 21-12-2019 18:12:17 7.6 C 27 %
4143 21-12-2019 18:22:17 7.6 C 26 %
4144 21-12-2019 18:32:18 7.9 C 25 %
4145 21-12-2019 18:42:18 7.7 C 26 %
4146 21-12-2019 18:52:17 7.5 C 26 %
4147 21-12-2019 19:02:17 7.3 C 27 %
4148 21-12-2019 19:12:17 7 C 27 %
4149 21-12-2019 19:22:17 7 C 27 %
4150 21-12-2019 19:32:17 6.9 C 30 %
Sensor: Nr:Datum:Temp:Feuchte:
Aussen-T/F 4151 21-12-2019 19:42:17 6.8 C 30 %
4152 21-12-2019 19:52:17 7 C 27 %
4153 21-12-2019 20:02:17 7.1 C 26 %
4154 21-12-2019 20:12:17 7.1 C 26 %
4155 21-12-2019 20:22:17 7.1 C 26 %
4156 21-12-2019 20:32:17 6.9 C 28 %
4157 21-12-2019 20:42:17 7 C 27 %
4158 21-12-2019 20:52:17 6.8 C 27 %
4159 21-12-2019 21:02:18 6.4 C 29 %
4160 21-12-2019 21:12:18 6.1 C 30 %
4161 21-12-2019 21:22:17 6.1 C 31 %
4162 21-12-2019 21:32:17 6.3 C 31 %
4163 21-12-2019 21:42:17 5.9 C 31 %
4164 21-12-2019 21:52:18 5.1 C 34 %
4165 21-12-2019 22:02:18 4.9 C 36 %
4166 21-12-2019 22:12:18 5.2 C 34 %
4167 21-12-2019 22:22:17 5.7 C 30 %
4168 21-12-2019 22:32:17 6.1 C 27 %
4169 21-12-2019 22:42:17 6.1 C 27 %
4170 21-12-2019 22:52:17 6 C 27 %
4171 21-12-2019 23:02:17 5.8 C 27 %
4172 21-12-2019 23:12:17 5.8 C 27 %
4173 21-12-2019 23:22:17 6.3 C 26 %
4174 21-12-2019 23:32:18 6.5 C 25 %
4175 21-12-2019 23:42:18 6.7 C 25 %
Sensor: Nr:Datum:Temp:Feuchte:
Aussen-T/F 4176 21-12-2019 23:52:17 6.3 C 26 %
Sensor: Nr:Datum:Temp:Feuchte:
G-T/H 1 23-11-2019 00:00:17 9.1 C 73 %
2 23-11-2019 00:10:17 9.1 C 73 %
3 23-11-2019 00:20:17 9.1 C 73 %
4 23-11-2019 00:30:17 9.1 C 73 %
5 23-11-2019 00:40:17 9.2 C 73 %
6 23-11-2019 00:50:17 9.1 C 73 %
7 23-11-2019 01:00:17 9.1 C 73 %
8 23-11-2019 01:10:17 9.2 C 73 %
9 23-11-2019 01:20:17 9.1 C 73 %
10 23-11-2019 01:30:17 9.2 C 73 %
11 23-11-2019 01:40:17 9.1 C 73 %
12 23-11-2019 01:50:17 9.1 C 73 %
13 23-11-2019 02:00:17 9.1 C 73 %
14 23-11-2019 02:10:17 9.2 C 73 %
15 23-11-2019 02:20:17 9.2 C 73 %
16 23-11-2019 02:30:18 9.2 C 73 %
17 23-11-2019 02:40:18 9.2 C 73 %
18 23-11-2019 02:50:17 9.2 C 73 %
19 23-11-2019 03:00:17 9.2 C 73 %
20 23-11-2019 03:10:17 9.2 C 73 %
21 23-11-2019 03:20:17 9.2 C 73 %
22 23-11-2019 03:30:17 9.2 C 73 %
23 23-11-2019 03:40:17 9.2 C 73 %
24 23-11-2019 03:50:17 9.2 C 73 %
25 23-11-2019 04:00:17 9.2 C 73 %
Sensor: Nr:Datum:Temp:Feuchte:
G-T/H 26 23-11-2019 04:10:17 9.2 C 73 %
27 23-11-2019 04:20:17 9.2 C 73 %
28 23-11-2019 04:30:17 9.2 C 73 %
29 23-11-2019 04:40:17 9.2 C 73 %
30 23-11-2019 04:50:17 9.2 C 73 %
31 23-11-2019 05:00:17 9.2 C 73 %
32 23-11-2019 05:10:17 9.2 C 73 %
33 23-11-2019 05:20:17 9.2 C 73 %
34 23-11-2019 05:30:17 9.2 C 73 %
35 23-11-2019 05:40:17 9.2 C 73 %
36 23-11-2019 05:50:17 9.2 C 73 %
37 23-11-2019 06:00:17 9.2 C 73 %
38 23-11-2019 06:10:17 9.2 C 73 %
39 23-11-2019 06:20:17 9.2 C 73 %
40 23-11-2019 06:30:17 9.2 C 73 %
41 23-11-2019 06:40:17 9.2 C 73 %
42 23-11-2019 06:50:17 9.2 C 73 %
43 23-11-2019 07:00:17 9.2 C 73 %
44 23-11-2019 07:10:17 9.2 C 73 %
45 23-11-2019 07:20:17 9.2 C 73 %
46 23-11-2019 07:30:17 9.2 C 73 %
47 23-11-2019 07:40:17 9.2 C 73 %
48 23-11-2019 07:50:17 9.2 C 73 %
49 23-11-2019 08:00:17 9.2 C 73 %
50 23-11-2019 08:10:17 9.2 C 73 %
Sensor: Nr:Datum:Temp:Feuchte:
G-T/H 51 23-11-2019 08:20:17 9.2 C 73 %
52 23-11-2019 08:30:17 9.2 C 73 %
53 23-11-2019 08:40:17 9.2 C 73 %
54 23-11-2019 08:50:17 9.2 C 73 %
55 23-11-2019 09:00:17 9.2 C 73 %
56 23-11-2019 09:10:17 9.2 C 73 %
57 23-11-2019 09:20:17 9.2 C 73 %
58 23-11-2019 09:30:17 9.2 C 73 %
59 23-11-2019 09:40:17 9.2 C 73 %
60 23-11-2019 09:50:17 9.2 C 73 %
61 23-11-2019 10:00:17 9.2 C 73 %
62 23-11-2019 10:10:17 9.2 C 73 %
63 23-11-2019 10:20:17 9.2 C 73 %
64 23-11-2019 10:30:17 9.1 C 72 %
65 23-11-2019 10:40:17 9.1 C 71 %
66 23-11-2019 10:50:17 9.2 C 71 %
67 23-11-2019 11:00:17 9.2 C 71 %
68 23-11-2019 11:10:17 9.2 C 72 %
69 23-11-2019 11:20:17 9.2 C 72 %
70 23-11-2019 11:30:17 9.2 C 72 %
71 23-11-2019 11:40:17 9.2 C 72 %
72 23-11-2019 11:50:17 9.3 C 72 %
73 23-11-2019 12:00:17 9.4 C 72 %
74 23-11-2019 12:10:17 9.5 C 72 %
75 23-11-2019 12:20:17 9.5 C 72 %
Sensor: Nr:Datum:Temp:Feuchte:
G-T/H 76 23-11-2019 12:30:17 9.4 C 72 %
77 23-11-2019 12:40:17 9.4 C 72 %
78 23-11-2019 12:50:17 9.4 C 73 %
79 23-11-2019 13:00:17 9.4 C 73 %
80 23-11-2019 13:10:17 9.4 C 73 %
81 23-11-2019 13:20:17 9.4 C 73 %
82 23-11-2019 13:30:17 9.4 C 73 %
83 23-11-2019 13:40:17 9.4 C 73 %
84 23-11-2019 13:50:17 9.4 C 73 %
85 23-11-2019 14:00:17 9.4 C 73 %
86 23-11-2019 14:10:17 9.4 C 73 %
87 23-11-2019 14:20:17 9.4 C 73 %
88 23-11-2019 14:30:17 9.4 C 73 %
89 23-11-2019 14:40:17 9.4 C 73 %
90 23-11-2019 14:50:17 9.4 C 73 %
91 23-11-2019 15:00:17 9.4 C 73 %
92 23-11-2019 15:10:17 9.4 C 73 %
93 23-11-2019 15:20:17 9.4 C 73 %
94 23-11-2019 15:30:17 9.4 C 73 %
95 23-11-2019 15:40:17 9.4 C 73 %
96 23-11-2019 15:50:17 9.4 C 73 %
97 23-11-2019 16:00:17 9.5 C 73 %
98 23-11-2019 16:10:17 9.5 C 73 %
99 23-11-2019 16:20:17 9.5 C 73 %
100 23-11-2019 16:30:17 9.5 C 74 %
Sensor: Nr:Datum:Temp:Feuchte:
G-T/H 101 23-11-2019 16:40:17 9.5 C 74 %
102 23-11-2019 16:50:17 9.5 C 74 %
103 23-11-2019 17:00:17 9.5 C 74 %
104 23-11-2019 17:10:17 9.5 C 74 %
105 23-11-2019 17:20:17 9.5 C 74 %
106 23-11-2019 17:30:17 9.5 C 74 %
107 23-11-2019 17:40:17 9.5 C 74 %
108 23-11-2019 17:50:17 9.5 C 74 %
109 23-11-2019 18:00:17 9.5 C 74 %
110 23-11-2019 18:10:17 9.5 C 74 %
111 23-11-2019 18:20:17 9.5 C 74 %
112 23-11-2019 18:30:17 9.5 C 74 %
113 23-11-2019 18:40:17 9.5 C 74 %
114 23-11-2019 18:50:17 9.5 C 74 %
115 23-11-2019 19:00:17 9.5 C 74 %
116 23-11-2019 19:10:17 9.5 C 74 %
117 23-11-2019 19:20:17 9.5 C 74 %
118 23-11-2019 19:30:17 9.5 C 74 %
119 23-11-2019 19:40:17 9.5 C 74 %
120 23-11-2019 19:50:17 9.5 C 74 %
121 23-11-2019 20:00:17 9.5 C 74 %
122 23-11-2019 20:10:17 9.5 C 74 %
123 23-11-2019 20:20:17 9.5 C 74 %
124 23-11-2019 20:30:17 9.5 C 74 %
125 23-11-2019 20:40:18 9.5 C 74 %
Sensor: Nr:Datum:Temp:Feuchte:
G-T/H 126 23-11-2019 20:50:17 9.5 C 74 %
127 23-11-2019 21:00:17 9.5 C 74 %
128 23-11-2019 21:10:17 9.5 C 74 %
129 23-11-2019 21:20:17 9.5 C 74 %
130 23-11-2019 21:30:17 9.5 C 74 %
131 23-11-2019 21:40:17 9.5 C 73 %
132 23-11-2019 21:50:17 9.5 C 73 %
133 23-11-2019 22:00:17 9.5 C 73 %
134 23-11-2019 22:10:17 9.5 C 73 %
135 23-11-2019 22:20:17 9.5 C 73 %
136 23-11-2019 22:30:17 9.5 C 73 %
137 23-11-2019 22:40:17 9.5 C 73 %
138 23-11-2019 22:50:17 9.5 C 73 %
139 23-11-2019 23:00:17 9.5 C 73 %
140 23-11-2019 23:10:17 9.5 C 73 %
141 23-11-2019 23:20:17 9.5 C 73 %
142 23-11-2019 23:30:17 9.5 C 73 %
143 23-11-2019 23:40:17 9.4 C 73 %
144 23-11-2019 23:50:17 9.4 C 73 %
145 24-11-2019 00:00:17 9.4 C 73 %
146 24-11-2019 00:10:17 9.4 C 73 %
147 24-11-2019 00:20:17 9.4 C 73 %
148 24-11-2019 00:30:17 9.4 C 73 %
149 24-11-2019 00:40:17 9.4 C 73 %
150 24-11-2019 00:50:18 9.4 C 73 %
Sensor: Nr:Datum:Temp:Feuchte:
G-T/H 151 24-11-2019 01:00:18 9.4 C 73 %
152 24-11-2019 01:10:18 9.4 C 73 %
153 24-11-2019 01:20:17 9.4 C 73 %
154 24-11-2019 01:30:17 9.4 C 73 %
155 24-11-2019 01:40:17 9.4 C 73 %
156 24-11-2019 01:50:17 9.4 C 73 %
157 24-11-2019 02:00:17 9.3 C 73 %
158 24-11-2019 02:10:17 9.3 C 73 %
159 24-11-2019 02:20:17 9.3 C 73 %
160 24-11-2019 02:30:17 9.3 C 73 %
161 24-11-2019 02:40:17 9.3 C 73 %
162 24-11-2019 02:50:17 9.3 C 73 %
163 24-11-2019 03:00:17 9.3 C 73 %
164 24-11-2019 03:10:17 9.3 C 72 %
165 24-11-2019 03:20:17 9.3 C 72 %
166 24-11-2019 03:30:17 9.3 C 72 %
167 24-11-2019 03:40:17 9.3 C 72 %
168 24-11-2019 03:50:17 9.3 C 72 %
169 24-11-2019 04:00:17 9.3 C 72 %
170 24-11-2019 04:10:17 9.3 C 72 %
171 24-11-2019 04:20:17 9.3 C 72 %
172 24-11-2019 04:30:17 9.3 C 72 %
173 24-11-2019 04:40:17 9.2 C 72 %
174 24-11-2019 04:50:17 9.2 C 72 %
175 24-11-2019 05:00:17 9.2 C 72 %
Sensor: Nr:Datum:Temp:Feuchte:
G-T/H 176 24-11-2019 05:10:17 9.2 C 72 %
177 24-11-2019 05:20:17 9.2 C 72 %
178 24-11-2019 05:30:17 9.2 C 72 %
179 24-11-2019 05:40:17 9.2 C 72 %
180 24-11-2019 05:50:17 9.2 C 72 %
181 24-11-2019 06:00:18 9.2 C 72 %
182 24-11-2019 06:10:18 9.2 C 72 %
183 24-11-2019 06:20:17 9.2 C 72 %
184 24-11-2019 06:30:17 9.1 C 72 %
185 24-11-2019 06:40:17 9.2 C 72 %
186 24-11-2019 06:50:17 9.1 C 72 %
187 24-11-2019 07:00:18 9.1 C 72 %
188 24-11-2019 07:10:18 9.1 C 72 %
189 24-11-2019 07:20:18 9.1 C 72 %
190 24-11-2019 07:30:17 9.1 C 72 %
191 24-11-2019 07:40:17 9.1 C 72 %
192 24-11-2019 07:50:18 9.1 C 72 %
193 24-11-2019 08:00:18 9.1 C 72 %
194 24-11-2019 08:10:18 9.1 C 72 %
195 24-11-2019 08:20:17 9 C 72 %
196 24-11-2019 08:30:17 9 C 71 %
197 24-11-2019 08:40:17 9 C 71 %
198 24-11-2019 08:50:17 9 C 71 %
199 24-11-2019 09:00:17 9 C 71 %
200 24-11-2019 09:10:17 9 C 71 %
Sensor: Nr:Datum:Temp:Feuchte:
G-T/H 201 24-11-2019 09:20:17 9 C 71 %
202 24-11-2019 09:30:17 9 C 71 %
203 24-11-2019 09:40:17 9 C 71 %
204 24-11-2019 09:50:17 9 C 71 %
205 24-11-2019 10:00:17 9 C 71 %
206 24-11-2019 10:10:17 9 C 71 %
207 24-11-2019 10:20:17 9 C 71 %
208 24-11-2019 10:30:17 9 C 71 %
209 24-11-2019 10:40:17 9 C 71 %
210 24-11-2019 10:50:17 9 C 71 %
211 24-11-2019 11:00:17 9 C 71 %
212 24-11-2019 11:10:17 9 C 71 %
213 24-11-2019 11:20:17 9 C 71 %
214 24-11-2019 11:30:17 9 C 72 %
215 24-11-2019 11:40:17 9 C 72 %
216 24-11-2019 11:50:17 9 C 72 %
217 24-11-2019 12:00:17 9 C 72 %
218 24-11-2019 12:10:17 9 C 72 %
219 24-11-2019 12:20:17 9 C 72 %
220 24-11-2019 12:30:17 9 C 72 %
221 24-11-2019 12:40:17 9 C 72 %
222 24-11-2019 12:50:17 9 C 72 %
223 24-11-2019 13:00:17 9 C 72 %
224 24-11-2019 13:10:17 9 C 72 %
225 24-11-2019 13:20:17 9 C 72 %
Sensor: Nr:Datum:Temp:Feuchte:
G-T/H 226 24-11-2019 13:30:17 9 C 72 %
227 24-11-2019 13:40:17 9 C 72 %
228 24-11-2019 13:50:17 9 C 72 %
229 24-11-2019 14:00:17 9 C 72 %
230 24-11-2019 14:10:17 9 C 72 %
231 24-11-2019 14:20:17 9 C 72 %
232 24-11-2019 14:30:17 9 C 72 %
233 24-11-2019 14:40:17 9 C 72 %
234 24-11-2019 14:50:17 9 C 72 %
235 24-11-2019 15:00:17 9 C 72 %
236 24-11-2019 15:10:17 9 C 72 %
237 24-11-2019 15:20:17 9 C 72 %
238 24-11-2019 15:30:17 9 C 72 %
239 24-11-2019 15:40:17 9 C 72 %
240 24-11-2019 15:50:17 9 C 72 %
241 24-11-2019 16:00:17 9 C 72 %
242 24-11-2019 16:10:17 9 C 72 %
243 24-11-2019 16:20:17 8.9 C 73 %
244 24-11-2019 16:30:17 9 C 72 %
245 24-11-2019 16:40:17 9 C 72 %
246 24-11-2019 16:50:17 9 C 72 %
247 24-11-2019 17:00:17 9 C 72 %
248 24-11-2019 17:10:17 9 C 72 %
249 24-11-2019 17:20:17 9 C 72 %
250 24-11-2019 17:30:17 9 C 72 %
Sensor: Nr:Datum:Temp:Feuchte:
G-T/H 251 24-11-2019 17:40:17 9 C 72 %
252 24-11-2019 17:50:17 9 C 72 %
253 24-11-2019 18:00:17 9 C 72 %
254 24-11-2019 18:10:17 9 C 72 %
255 24-11-2019 18:20:17 9 C 72 %
256 24-11-2019 18:30:17 9 C 72 %
257 24-11-2019 18:40:17 9 C 72 %
258 24-11-2019 18:50:17 9 C 72 %
259 24-11-2019 19:00:17 9 C 72 %
260 24-11-2019 19:10:17 9 C 72 %
261 24-11-2019 19:20:17 9 C 72 %
262 24-11-2019 19:30:17 9 C 72 %
263 24-11-2019 19:40:17 9 C 72 %
264 24-11-2019 19:50:17 9 C 72 %
265 24-11-2019 20:00:17 9 C 72 %
266 24-11-2019 20:10:17 9 C 72 %
267 24-11-2019 20:20:17 9 C 72 %
268 24-11-2019 20:30:17 9 C 72 %
269 24-11-2019 20:40:17 9 C 72 %
270 24-11-2019 20:50:17 9 C 72 %
271 24-11-2019 21:00:17 9 C 72 %
272 24-11-2019 21:10:17 9 C 72 %
273 24-11-2019 21:20:17 9 C 72 %
274 24-11-2019 21:30:17 9 C 72 %
275 24-11-2019 21:40:17 9 C 72 %
Sensor: Nr:Datum:Temp:Feuchte:
G-T/H 276 24-11-2019 21:50:17 9 C 72 %
277 24-11-2019 22:00:17 9 C 72 %
278 24-11-2019 22:10:17 9 C 72 %
279 24-11-2019 22:20:17 9 C 72 %
280 24-11-2019 22:30:17 8.9 C 73 %
281 24-11-2019 22:40:17 8.9 C 73 %
282 24-11-2019 22:50:17 8.9 C 73 %
283 24-11-2019 23:00:17 8.9 C 73 %
284 24-11-2019 23:10:17 8.9 C 73 %
285 24-11-2019 23:20:17 8.9 C 73 %
286 24-11-2019 23:30:17 8.9 C 73 %
287 24-11-2019 23:40:17 8.9 C 73 %
288 24-11-2019 23:50:17 8.9 C 73 %
289 25-11-2019 00:00:18 8.9 C 73 %
290 25-11-2019 00:10:18 8.9 C 73 %
291 25-11-2019 00:20:17 8.9 C 73 %
292 25-11-2019 00:30:17 8.9 C 73 %
293 25-11-2019 00:40:17 8.9 C 73 %
294 25-11-2019 00:50:18 8.9 C 73 %
295 25-11-2019 01:00:18 8.9 C 73 %
296 25-11-2019 01:10:18 8.9 C 73 %
297 25-11-2019 01:20:17 8.9 C 73 %
298 25-11-2019 01:30:17 8.9 C 73 %
299 25-11-2019 01:40:17 8.9 C 73 %
300 25-11-2019 01:50:17 8.9 C 73 %
Sensor: Nr:Datum:Temp:Feuchte:
G-T/H 301 25-11-2019 02:00:17 8.9 C 73 %
302 25-11-2019 02:10:17 8.9 C 73 %
303 25-11-2019 02:20:17 8.9 C 73 %
304 25-11-2019 02:30:17 8.8 C 73 %
305 25-11-2019 02:40:17 8.9 C 73 %
306 25-11-2019 02:50:17 8.8 C 73 %
307 25-11-2019 03:00:17 8.8 C 73 %
308 25-11-2019 03:10:17 8.8 C 73 %
309 25-11-2019 03:20:17 8.8 C 73 %
310 25-11-2019 03:30:17 8.8 C 73 %
311 25-11-2019 03:40:17 8.8 C 73 %
312 25-11-2019 03:50:17 8.8 C 73 %
313 25-11-2019 04:00:17 8.8 C 73 %
314 25-11-2019 04:10:17 8.8 C 73 %
315 25-11-2019 04:20:17 8.8 C 73 %
316 25-11-2019 04:30:17 8.8 C 73 %
317 25-11-2019 04:40:17 8.8 C 73 %
318 25-11-2019 04:50:17 8.8 C 73 %
319 25-11-2019 05:00:17 8.8 C 73 %
320 25-11-2019 05:10:17 8.8 C 73 %
321 25-11-2019 05:20:17 8.8 C 73 %
322 25-11-2019 05:30:17 8.8 C 73 %
323 25-11-2019 05:40:17 8.8 C 73 %
324 25-11-2019 05:50:17 8.8 C 73 %
325 25-11-2019 06:00:17 8.8 C 73 %
Sensor: Nr:Datum:Temp:Feuchte:
G-T/H 326 25-11-2019 06:10:17 8.8 C 73 %
327 25-11-2019 06:20:17 8.8 C 73 %
328 25-11-2019 06:30:17 8.8 C 73 %
329 25-11-2019 06:40:17 8.8 C 73 %
330 25-11-2019 06:50:17 8.8 C 73 %
331 25-11-2019 07:00:17 8.8 C 73 %
332 25-11-2019 07:10:17 8.8 C 73 %
333 25-11-2019 07:20:17 8.8 C 73 %
334 25-11-2019 07:30:17 8.9 C 73 %
335 25-11-2019 07:40:17 8.8 C 73 %
336 25-11-2019 07:50:17 8.8 C 73 %
337 25-11-2019 08:00:17 8.8 C 73 %
338 25-11-2019 08:10:17 8.9 C 73 %
339 25-11-2019 08:20:17 8.8 C 73 %
340 25-11-2019 08:30:18 8.8 C 73 %
341 25-11-2019 08:40:18 8.8 C 73 %
342 25-11-2019 08:50:17 8.8 C 73 %
343 25-11-2019 09:00:17 8.8 C 73 %
344 25-11-2019 09:10:17 8.8 C 73 %
345 25-11-2019 09:20:17 8.8 C 73 %
346 25-11-2019 09:30:17 8.8 C 73 %
347 25-11-2019 09:40:17 8.8 C 73 %
348 25-11-2019 09:50:17 8.8 C 73 %
349 25-11-2019 10:00:17 8.8 C 73 %
350 25-11-2019 10:10:17 8.9 C 73 %
Sensor: Nr:Datum:Temp:Feuchte:
G-T/H 351 25-11-2019 10:20:17 8.9 C 73 %
352 25-11-2019 10:30:17 8.9 C 74 %
353 25-11-2019 10:40:17 8.9 C 74 %
354 25-11-2019 10:50:17 8.9 C 74 %
355 25-11-2019 11:00:17 8.9 C 74 %
356 25-11-2019 11:10:17 8.9 C 74 %
357 25-11-2019 11:20:17 8.9 C 74 %
358 25-11-2019 11:30:17 8.9 C 74 %
359 25-11-2019 11:40:17 8.9 C 74 %
360 25-11-2019 11:50:17 8.9 C 74 %
361 25-11-2019 12:00:17 9 C 73 %
362 25-11-2019 12:10:17 8.9 C 74 %
363 25-11-2019 12:20:17 8.9 C 74 %
364 25-11-2019 12:30:17 9 C 73 %
365 25-11-2019 12:40:17 9 C 73 %
366 25-11-2019 12:50:17 9 C 73 %
367 25-11-2019 13:00:17 9 C 73 %
368 25-11-2019 13:10:17 9 C 73 %
369 25-11-2019 13:20:17 9 C 73 %
370 25-11-2019 13:30:17 9 C 73 %
371 25-11-2019 13:40:17 9 C 73 %
372 25-11-2019 13:50:17 9 C 73 %
373 25-11-2019 14:00:17 9 C 73 %
374 25-11-2019 14:10:17 9 C 73 %
375 25-11-2019 14:20:17 9 C 74 %
Sensor: Nr:Datum:Temp:Feuchte:
G-T/H 376 25-11-2019 14:30:17 9.1 C 74 %
377 25-11-2019 14:40:17 9.1 C 74 %
378 25-11-2019 14:50:17 9.1 C 74 %
379 25-11-2019 15:00:17 9.1 C 74 %
380 25-11-2019 15:10:17 9.1 C 74 %
381 25-11-2019 15:20:17 9.1 C 74 %
382 25-11-2019 15:30:17 9.1 C 74 %
383 25-11-2019 15:40:17 9.2 C 74 %
384 25-11-2019 15:50:17 9.2 C 74 %
385 25-11-2019 16:00:17 9.2 C 74 %
386 25-11-2019 16:10:17 9.1 C 74 %
387 25-11-2019 16:20:17 9.2 C 74 %
388 25-11-2019 16:30:17 9.2 C 74 %
389 25-11-2019 16:40:17 9.2 C 74 %
390 25-11-2019 16:50:17 9.2 C 74 %
391 25-11-2019 17:00:17 9.2 C 74 %
392 25-11-2019 17:10:17 9.2 C 74 %
393 25-11-2019 17:20:17 9.2 C 74 %
394 25-11-2019 17:30:17 9.2 C 74 %
395 25-11-2019 17:40:17 9.3 C 74 %
396 25-11-2019 17:50:17 9.3 C 74 %
397 25-11-2019 18:00:18 9.3 C 74 %
398 25-11-2019 18:10:18 9.2 C 74 %
399 25-11-2019 18:20:17 9.3 C 74 %
400 25-11-2019 18:30:17 9.3 C 74 %
Sensor: Nr:Datum:Temp:Feuchte:
G-T/H 401 25-11-2019 18:40:17 9.3 C 74 %
402 25-11-2019 18:50:17 9.3 C 74 %
403 25-11-2019 19:00:17 9.3 C 74 %
404 25-11-2019 19:10:17 9.3 C 74 %
405 25-11-2019 19:20:17 9.4 C 74 %
406 25-11-2019 19:30:17 9.4 C 74 %
407 25-11-2019 19:40:17 9.4 C 74 %
408 25-11-2019 19:50:17 9.4 C 74 %
409 25-11-2019 20:00:17 9.4 C 74 %
410 25-11-2019 20:10:17 9.4 C 74 %
411 25-11-2019 20:20:17 9.4 C 74 %
412 25-11-2019 20:30:17 9.4 C 74 %
413 25-11-2019 20:40:17 9.4 C 74 %
414 25-11-2019 20:50:17 9.4 C 74 %
415 25-11-2019 21:00:17 9.4 C 74 %
416 25-11-2019 21:10:17 9.4 C 74 %
417 25-11-2019 21:20:17 9.4 C 74 %
418 25-11-2019 21:30:17 9.4 C 75 %
419 25-11-2019 21:40:17 9.4 C 75 %
420 25-11-2019 21:50:17 9.4 C 75 %
421 25-11-2019 22:00:17 9.4 C 75 %
422 25-11-2019 22:10:17 9.4 C 74 %
423 25-11-2019 22:20:17 9.4 C 74 %
424 25-11-2019 22:30:17 9.5 C 74 %
425 25-11-2019 22:40:17 9.5 C 74 %
Sensor: Nr:Datum:Temp:Feuchte:
G-T/H 426 25-11-2019 22:50:17 9.5 C 74 %
427 25-11-2019 23:00:17 9.5 C 74 %
428 25-11-2019 23:10:17 9.5 C 74 %
429 25-11-2019 23:20:17 9.5 C 74 %
430 25-11-2019 23:30:17 9.5 C 74 %
431 25-11-2019 23:40:17 9.5 C 74 %
432 25-11-2019 23:50:17 9.5 C 74 %
433 26-11-2019 00:00:17 9.5 C 74 %
434 26-11-2019 00:10:17 9.5 C 74 %
435 26-11-2019 00:20:17 9.5 C 74 %
436 26-11-2019 00:30:17 9.5 C 74 %
437 26-11-2019 00:40:17 9.5 C 74 %
438 26-11-2019 00:50:17 9.5 C 74 %
439 26-11-2019 01:00:17 9.5 C 74 %
440 26-11-2019 01:10:17 9.5 C 74 %
441 26-11-2019 01:20:17 9.5 C 74 %
442 26-11-2019 01:30:17 9.5 C 74 %
443 26-11-2019 01:40:17 9.5 C 74 %
444 26-11-2019 01:50:17 9.5 C 74 %
445 26-11-2019 02:00:17 9.5 C 74 %
446 26-11-2019 02:10:17 9.5 C 74 %
447 26-11-2019 02:20:17 9.5 C 74 %
448 26-11-2019 02:30:17 9.5 C 74 %
449 26-11-2019 02:40:17 9.5 C 74 %
450 26-11-2019 02:50:17 9.5 C 74 %
Sensor: Nr:Datum:Temp:Feuchte:
G-T/H 451 26-11-2019 03:00:17 9.5 C 74 %
452 26-11-2019 03:10:17 9.5 C 74 %
453 26-11-2019 03:20:17 9.5 C 74 %
454 26-11-2019 03:30:17 9.5 C 74 %
455 26-11-2019 03:40:17 9.5 C 74 %
456 26-11-2019 03:50:17 9.5 C 74 %
457 26-11-2019 04:00:17 9.5 C 74 %
458 26-11-2019 04:10:17 9.5 C 74 %
459 26-11-2019 04:20:17 9.5 C 74 %
460 26-11-2019 04:30:18 9.5 C 74 %
461 26-11-2019 04:40:18 9.5 C 74 %
462 26-11-2019 04:50:17 9.5 C 74 %
463 26-11-2019 05:00:18 9.5 C 74 %
464 26-11-2019 05:10:18 9.5 C 74 %
465 26-11-2019 05:20:17 9.5 C 74 %
466 26-11-2019 05:30:17 9.5 C 74 %
467 26-11-2019 05:40:17 9.5 C 74 %
468 26-11-2019 05:50:17 9.5 C 74 %
469 26-11-2019 06:00:17 9.5 C 74 %
470 26-11-2019 06:10:17 9.5 C 74 %
471 26-11-2019 06:20:17 9.5 C 74 %
472 26-11-2019 06:30:17 9.5 C 74 %
473 26-11-2019 06:40:17 9.5 C 74 %
474 26-11-2019 06:50:17 9.5 C 74 %
475 26-11-2019 07:00:17 9.5 C 74 %
Sensor: Nr:Datum:Temp:Feuchte:
G-T/H 476 26-11-2019 07:10:17 9.5 C 74 %
477 26-11-2019 07:20:17 9.5 C 75 %
478 26-11-2019 07:30:17 9.5 C 75 %
479 26-11-2019 07:40:17 9.5 C 75 %
480 26-11-2019 07:50:17 9.5 C 75 %
481 26-11-2019 08:00:17 9.5 C 75 %
482 26-11-2019 08:10:17 9.6 C 75 %
483 26-11-2019 08:20:17 9.6 C 75 %
484 26-11-2019 08:30:17 9.5 C 75 %
485 26-11-2019 08:40:17 9.6 C 75 %
486 26-11-2019 08:50:17 9.5 C 75 %
487 26-11-2019 09:00:17 9.6 C 75 %
488 26-11-2019 09:10:17 9.6 C 75 %
489 26-11-2019 09:20:17 9.6 C 75 %
490 26-11-2019 09:30:17 9.6 C 75 %
491 26-11-2019 09:40:17 9.6 C 75 %
492 26-11-2019 09:50:17 9.6 C 75 %
493 26-11-2019 10:00:17 9.6 C 75 %
494 26-11-2019 10:10:17 9.6 C 75 %
495 26-11-2019 10:20:17 9.6 C 75 %
496 26-11-2019 10:30:17 9.7 C 75 %
497 26-11-2019 10:40:17 9.6 C 75 %
498 26-11-2019 10:50:17 9.6 C 75 %
499 26-11-2019 11:00:17 9.6 C 75 %
500 26-11-2019 11:10:17 9.6 C 75 %
Sensor: Nr:Datum:Temp:Feuchte:
G-T/H 501 26-11-2019 11:20:17 9.7 C 75 %
502 26-11-2019 11:30:17 9.7 C 75 %
503 26-11-2019 11:40:17 9.7 C 75 %
504 26-11-2019 11:50:17 9.7 C 75 %
505 26-11-2019 12:00:17 9.7 C 75 %
506 26-11-2019 12:10:17 9.7 C 75 %
507